Darstellungsparameter: Aktuell verwendete Einstellungen:
Skalierung der Graphiken ... ?
xyx+y,   Skalierungsfaktor:      Skalierung: Modus: x, Faktor: 1
Darstellungszeitraum ... ?
Vom - - bis: - -   Zeitraum: 19.02.2008 - 18.05.2008
Min/Max/Avg-Anzeige ... ?
Zeige MMA aktuell
Zeige MMA Monat
Zeige MMA alles
Zeige --A aktuell
Zeige --A Monat
Zeige --A alles
Keine MMA-Anzeige
MMA:
Average (ber die Originaldaten)
MMA-Basis: 17.04.2019 - 19.05.2019
Quicknavigation für Darstellung... ?
Tage:      1T, 2T, 3T, 5T -1T -2T -3T -5T +1T +2T +3T +5T
Wochen: 1W, 2W, 3W -1W -2W -3W +1W +2W +3W
Monate: 1M, 3M, 6M -1M -3M -6M +1M +3M +6M
Jahre:    1J, 3J, 5J, 10J -1J -3J -5J -10J +1J +3J +5J +10J
Nutze für die Darstellung ... ?
Originaldaten oder Mittelwerte auf ...
Stundenbasis Tagesbasis Wochenbasis
Monatsbasis Jahresbasis      Datenbasis: Original-Daten
Darstellen als:
Statistik (Auto) Statistik J:M      Darstellung:
Zur Graphik,    zurück zur Übersicht aller Sensoren.
 
Tabellarische Datenbersicht: ?
 
Sensor: Nr:Datum:Temp:Abs-Feuchte:Windchill:Wind:
Aussen-T/F 1 19-02-2008 00:04:02 -2.4 C 1.68 g/m*3 -2.4 C 0 km/h
2 19-02-2008 00:16:02 -2.4 C 1.72 g/m*3 -2.4 C 0 km/h
3 19-02-2008 00:28:02 -2.5 C 1.75 g/m*3 -2.5 C 0 km/h
4 19-02-2008 00:40:02 -2.6 C 1.74 g/m*3 -2.6 C 0 km/h
5 19-02-2008 00:52:02 -2.7 C 1.77 g/m*3 -2.7 C 0 km/h
6 19-02-2008 01:04:02 -2.4 C 1.84 g/m*3 -2.4 C 0 km/h
7 19-02-2008 01:16:03 -2.4 C 1.84 g/m*3 -2.4 C 0 km/h
8 19-02-2008 01:28:03 -2.6 C 1.82 g/m*3 -2.6 C 0 km/h
9 19-02-2008 01:40:03 -2.8 C 1.79 g/m*3 -2.8 C 0 km/h
10 19-02-2008 01:52:03 -3.1 C 1.79 g/m*3 -3.1 C 0 km/h
11 19-02-2008 02:04:03 -3.1 C 1.79 g/m*3 -3.1 C 0 km/h
12 19-02-2008 02:16:03 -3.1 C 1.83 g/m*3 -3.1 C 0 km/h
13 19-02-2008 02:28:03 -3.2 C 1.82 g/m*3 -3.2 C 0 km/h
14 19-02-2008 02:40:03 -3.3 C 1.81 g/m*3 -3.3 C 0 km/h
15 19-02-2008 02:52:03 -3.4 C 1.83 g/m*3 -3.4 C 0 km/h
16 19-02-2008 03:04:03 -3.5 C 1.82 g/m*3 -3.5 C 0 km/h
17 19-02-2008 03:16:03 -3.7 C 1.79 g/m*3 -3.7 C 0 km/h
18 19-02-2008 03:28:03 -3.8 C 1.82 g/m*3 -3.8 C 0 km/h
19 19-02-2008 03:40:03 -4 C 1.83 g/m*3 -4 C 0 km/h
20 19-02-2008 03:52:03 -4.1 C 1.82 g/m*3 -4.1 C 0 km/h
21 19-02-2008 04:04:03 -4.1 C 1.82 g/m*3 -4.1 C 0 km/h
22 19-02-2008 04:16:03 -4.1 C 1.89 g/m*3 -4.1 C 0 km/h
23 19-02-2008 04:28:03 -4.2 C 1.88 g/m*3 -4.2 C 0 km/h
24 19-02-2008 04:40:03 -4.2 C 1.91 g/m*3 -4.2 C 0 km/h
25 19-02-2008 04:52:03 -4.4 C 1.88 g/m*3 -4.4 C 0 km/h
Sensor: Nr:Datum:Temp:Abs-Feuchte:Windchill:Wind:
Aussen-T/F 26 19-02-2008 05:04:03 -4.4 C 1.88 g/m*3 -4.4 C 0 km/h
27 19-02-2008 05:16:01 -4.4 C 1.92 g/m*3 -4.4 C 0 km/h
28 19-02-2008 05:28:01 -4.4 C 1.92 g/m*3 -4.4 C 0 km/h
29 19-02-2008 05:40:02 -4.5 C 1.94 g/m*3 -4.5 C 0 km/h
30 19-02-2008 05:52:01 -4.6 C 1.93 g/m*3 -4.6 C 0 km/h
31 19-02-2008 06:04:02 -4.7 C 1.91 g/m*3 -4.7 C 0 km/h
32 19-02-2008 06:16:01 -4.9 C 1.89 g/m*3 -4.9 C 0 km/h
33 19-02-2008 06:28:01 -4.9 C 1.95 g/m*3 -4.9 C 0 km/h
34 19-02-2008 06:40:01 -4.7 C 2.05 g/m*3 -4.7 C 0 km/h
35 19-02-2008 06:52:01 -5 C 1.97 g/m*3 -5 C 0 km/h
36 19-02-2008 07:04:02 -5.1 C 1.96 g/m*3 -5.1 C 0 km/h
37 19-02-2008 07:16:01 -5 C 1.97 g/m*3 -5 C 0 km/h
38 19-02-2008 07:28:01 -5 C 1.97 g/m*3 -5 C 0 km/h
39 19-02-2008 07:40:01 -5.2 C 1.95 g/m*3 -5.2 C 0 km/h
40 19-02-2008 07:52:01 -5.1 C 1.99 g/m*3 -5.1 C 0 km/h
41 19-02-2008 08:04:02 -5.1 C 2.03 g/m*3 -5.1 C 0 km/h
42 19-02-2008 08:16:01 -5.1 C 2.03 g/m*3 -5.1 C 0 km/h
43 19-02-2008 08:28:01 -5 C 2.04 g/m*3 -5 C 0 km/h
44 19-02-2008 08:40:01 -5 C 2.04 g/m*3 -5 C 0 km/h
45 19-02-2008 08:52:01 -4.7 C 2.09 g/m*3 -4.7 C 0 km/h
46 19-02-2008 09:04:02 -4.6 C 2.1 g/m*3 -4.6 C 0 km/h
47 19-02-2008 09:16:01 -4.5 C 2.12 g/m*3 -4.5 C 0 km/h
48 19-02-2008 09:28:02 -4.2 C 2.13 g/m*3 -4.2 C 0 km/h
49 19-02-2008 09:40:01 -4.1 C 2.11 g/m*3 -4.1 C 0 km/h
50 19-02-2008 09:52:01 -3.9 C 2.1 g/m*3 -3.9 C 0 km/h
Sensor: Nr:Datum:Temp:Abs-Feuchte:Windchill:Wind:
Aussen-T/F 51 19-02-2008 10:04:01 -3.7 C 2.13 g/m*3 -3.7 C 0 km/h
52 19-02-2008 10:16:02 -3.4 C 2.18 g/m*3 -3.4 C 0 km/h
53 19-02-2008 10:28:02 -2.8 C 2.19 g/m*3 -2.8 C 0 km/h
54 19-02-2008 10:40:02 -2.2 C 2.24 g/m*3 -2.2 C 0 km/h
55 19-02-2008 10:52:02 -1.6 C 2.21 g/m*3 -1.6 C 0 km/h
56 19-02-2008 11:04:01 -1.1 C 2.24 g/m*3 -1.1 C 0 km/h
57 19-02-2008 11:16:01 -0.5 C 2.34 g/m*3 -0.5 C 0 km/h
58 19-02-2008 11:28:01 0.2 C 2.46 g/m*3 0.2 C 0 km/h
59 19-02-2008 11:40:02 0.8 C 2.51 g/m*3 0.8 C 0 km/h
60 19-02-2008 11:52:02 1.8 C 2.52 g/m*3 1.8 C 0 km/h
61 19-02-2008 12:04:01 1.9 C 2.54 g/m*3 1.9 C 0 km/h
62 19-02-2008 12:16:01 2.3 C 2.55 g/m*3 2.3 C 0 km/h
63 19-02-2008 12:28:01 2.9 C 2.66 g/m*3 2.9 C 0 km/h
64 19-02-2008 12:40:01 3.7 C 2.68 g/m*3 3.7 C 0 km/h
65 19-02-2008 12:52:01 4.4 C 2.74 g/m*3 4.4 C 0 km/h
66 19-02-2008 13:04:02 5.1 C 2.67 g/m*3 5.1 C 0 km/h
67 19-02-2008 13:16:01 5.7 C 2.63 g/m*3 5.7 C 0 km/h
68 19-02-2008 13:28:01 6.9 C 2.62 g/m*3 6.9 C 0 km/h
69 19-02-2008 13:40:01 7.6 C 2.58 g/m*3 7.6 C 0 km/h
70 19-02-2008 13:52:01 8.1 C 2.58 g/m*3 8.1 C 0 km/h
71 19-02-2008 14:04:02 8.7 C 2.59 g/m*3 8.7 C 0 km/h
72 19-02-2008 14:17:01 9.2 C 2.5 g/m*3 9.2 C 0 km/h
73 19-02-2008 14:29:01 9.6 C 2.47 g/m*3 9.6 C 0 km/h
74 19-02-2008 14:40:02 10.1 C 2.46 g/m*3 10.1 C 0 km/h
75 19-02-2008 14:52:02 10.1 C 2.36 g/m*3 10.1 C 0 km/h
Sensor: Nr:Datum:Temp:Abs-Feuchte:Windchill:Wind:
Aussen-T/F 76 19-02-2008 15:04:01 10.6 C 2.54 g/m*3 10.6 C 0 km/h
77 19-02-2008 15:17:01 11 C 2.5 g/m*3 11 C 0 km/h
78 19-02-2008 15:29:01 11.4 C 2.57 g/m*3 11.4 C 0 km/h
79 19-02-2008 15:40:02 11.3 C 2.55 g/m*3 11.3 C 0 km/h
80 19-02-2008 15:52:02 11.1 C 2.52 g/m*3 11.1 C 0 km/h
81 19-02-2008 16:04:02 10.9 C 2.49 g/m*3 10.9 C 0 km/h
82 19-02-2008 16:17:01 11 C 2.6 g/m*3 11 C 0 km/h
83 19-02-2008 16:28:01 11.6 C 2.7 g/m*3 11.6 C 0 km/h
84 19-02-2008 16:41:01 11.7 C 2.72 g/m*3 11.7 C 0 km/h
85 19-02-2008 16:53:01 11.2 C 2.53 g/m*3 11.2 C 0 km/h
86 19-02-2008 17:04:02 11.2 C 2.74 g/m*3 11.2 C 0 km/h
87 19-02-2008 17:17:01 10.7 C 2.75 g/m*3 10.7 C 0 km/h
88 19-02-2008 17:29:01 9.6 C 2.75 g/m*3 9.6 C 0 km/h
89 19-02-2008 17:41:01 8.6 C 2.92 g/m*3 8.6 C 0 km/h
90 19-02-2008 17:53:01 7.2 C 2.9 g/m*3 7.2 C 0 km/h
91 19-02-2008 18:05:01 6.6 C 3.02 g/m*3 6.6 C 0 km/h
92 19-02-2008 18:17:01 5.6 C 3.04 g/m*3 5.6 C 0 km/h
93 19-02-2008 18:29:01 5 C 3.06 g/m*3 5 C 0 km/h
94 19-02-2008 18:40:02 4.7 C 3.2 g/m*3 4.7 C 0 km/h
95 19-02-2008 18:53:01 4.5 C 3.29 g/m*3 4.5 C 0 km/h
96 19-02-2008 19:05:02 4.3 C 3.37 g/m*3 4.3 C 0 km/h
97 19-02-2008 19:17:01 3.8 C 3.39 g/m*3 3.8 C 0 km/h
98 19-02-2008 19:29:01 3.5 C 3.44 g/m*3 3.5 C 0 km/h
99 19-02-2008 19:41:01 3.3 C 3.52 g/m*3 3.3 C 0 km/h
100 19-02-2008 19:53:01 3 C 3.51 g/m*3 3 C 0 km/h
Sensor: Nr:Datum:Temp:Abs-Feuchte:Windchill:Wind:
Aussen-T/F 101 19-02-2008 20:05:02 2.7 C 3.5 g/m*3 2.7 C 0 km/h
102 19-02-2008 20:17:01 2.5 C 3.51 g/m*3 2.5 C 0 km/h
103 19-02-2008 20:29:01 2.4 C 3.54 g/m*3 2.4 C 0 km/h
104 19-02-2008 20:41:01 2.1 C 3.52 g/m*3 2.1 C 0 km/h
105 19-02-2008 20:53:01 1.8 C 3.51 g/m*3 1.8 C 0 km/h
106 19-02-2008 21:05:01 1.6 C 3.51 g/m*3 1.6 C 0 km/h
107 19-02-2008 21:17:01 1.3 C 3.44 g/m*3 1.3 C 0 km/h
108 19-02-2008 21:29:01 1.1 C 3.4 g/m*3 1.1 C 0 km/h
109 19-02-2008 21:41:02 1 C 3.43 g/m*3 1 C 0 km/h
110 19-02-2008 21:53:51 0.7 C 3.41 g/m*3 0.7 C 0 km/h
111 19-02-2008 22:05:52 0.4 C 3.34 g/m*3 0.4 C 0 km/h
112 19-02-2008 22:17:52 0.4 C 3.39 g/m*3 0.4 C 0 km/h
113 19-02-2008 22:29:52 0.2 C 3.39 g/m*3 0.2 C 0 km/h
114 19-02-2008 22:41:52 0.1 C 3.42 g/m*3 0.1 C 0 km/h
115 19-02-2008 22:53:52 -0.1 C 3.42 g/m*3 -0.1 C 0 km/h
116 19-02-2008 23:05:52 -0.2 C 3.44 g/m*3 -0.2 C 0 km/h
117 19-02-2008 23:17:52 -0.4 C 3.39 g/m*3 -0.4 C 0 km/h
118 19-02-2008 23:29:52 -0.6 C 3.35 g/m*3 -0.6 C 0 km/h
119 19-02-2008 23:41:52 -0.6 C 3.39 g/m*3 -0.6 C 0 km/h
120 19-02-2008 23:53:52 -0.9 C 3.32 g/m*3 -0.9 C 0 km/h
121 20-02-2008 00:05:52 -1 C 3.35 g/m*3 -1 C 0 km/h
122 20-02-2008 00:17:52 -1.1 C 3.32 g/m*3 -1.1 C 0 km/h
123 20-02-2008 00:29:52 -1.2 C 3.3 g/m*3 -1.2 C 0 km/h
124 20-02-2008 00:41:52 -1.2 C 3.3 g/m*3 -1.2 C 0 km/h
125 20-02-2008 00:53:52 -1.3 C 3.28 g/m*3 -1.3 C 0 km/h
Sensor: Nr:Datum:Temp:Abs-Feuchte:Windchill:Wind:
Aussen-T/F 126 20-02-2008 01:05:52 -1.4 C 3.25 g/m*3 -1.4 C 0 km/h
127 20-02-2008 01:17:52 -1.7 C 3.19 g/m*3 -1.7 C 0 km/h
128 20-02-2008 01:29:53 -1.7 C 3.23 g/m*3 -1.7 C 0 km/h
129 20-02-2008 01:41:53 -1.8 C 3.21 g/m*3 -1.8 C 0 km/h
130 20-02-2008 01:53:53 -1.8 C 3.25 g/m*3 -1.8 C 0 km/h
131 20-02-2008 02:05:53 -1.8 C 3.25 g/m*3 -1.8 C 0 km/h
132 20-02-2008 02:17:53 -1.9 C 3.27 g/m*3 -1.9 C 0 km/h
133 20-02-2008 02:29:53 -2 C 3.25 g/m*3 -2 C 0 km/h
134 20-02-2008 02:41:53 -2.1 C 3.22 g/m*3 -2.1 C 0 km/h
135 20-02-2008 02:53:53 -2.3 C 3.18 g/m*3 -2.3 C 0 km/h
136 20-02-2008 03:05:53 -2.5 C 3.13 g/m*3 -2.5 C 0 km/h
137 20-02-2008 03:17:53 -2.5 C 3.13 g/m*3 -2.5 C 0 km/h
138 20-02-2008 03:29:53 -2.5 C 3.13 g/m*3 -2.5 C 0 km/h
139 20-02-2008 03:41:53 -2.7 C 3.09 g/m*3 -2.7 C 0 km/h
140 20-02-2008 03:53:53 -2.7 C 3.13 g/m*3 -2.7 C 0 km/h
141 20-02-2008 04:05:53 -2.6 C 3.15 g/m*3 -2.6 C 0 km/h
142 20-02-2008 04:17:53 -2.7 C 3.13 g/m*3 -2.7 C 0 km/h
143 20-02-2008 04:29:53 -2.7 C 3.17 g/m*3 -2.7 C 0 km/h
144 20-02-2008 04:41:53 -2.3 C 3.3 g/m*3 -2.3 C 0 km/h
145 20-02-2008 04:53:53 -2.1 C 3.35 g/m*3 -2.1 C 0 km/h
146 20-02-2008 05:05:54 -2.1 C 3.31 g/m*3 -2.1 C 0 km/h
147 20-02-2008 05:17:54 -1.9 C 3.35 g/m*3 -1.9 C 0 km/h
148 20-02-2008 05:29:54 -1.7 C 3.36 g/m*3 -1.7 C 0 km/h
149 20-02-2008 05:41:54 -1.6 C 3.34 g/m*3 -1.6 C 0 km/h
150 20-02-2008 05:53:54 -1.5 C 3.32 g/m*3 -1.5 C 0 km/h
Sensor: Nr:Datum:Temp:Abs-Feuchte:Windchill:Wind:
Aussen-T/F 151 20-02-2008 06:05:54 -1.5 C 3.27 g/m*3 -1.5 C 0 km/h
152 20-02-2008 06:17:54 -1.4 C 3.3 g/m*3 -1.4 C 0 km/h
153 20-02-2008 06:29:54 -1.4 C 3.25 g/m*3 -1.4 C 0 km/h
154 20-02-2008 06:41:54 -1.3 C 3.28 g/m*3 -1.3 C 0 km/h
155 20-02-2008 06:53:54 -1.2 C 3.3 g/m*3 -1.2 C 0 km/h
156 20-02-2008 07:05:02 -1.1 C 3.32 g/m*3 -1.1 C 0 km/h
157 20-02-2008 07:17:02 -1 C 3.3 g/m*3 -1 C 0 km/h
158 20-02-2008 07:29:02 -0.9 C 3.37 g/m*3 -0.9 C 0 km/h
159 20-02-2008 07:41:02 -0.8 C 3.35 g/m*3 -0.8 C 0 km/h
160 20-02-2008 07:53:02 -0.7 C 3.42 g/m*3 -0.7 C 0 km/h
161 20-02-2008 08:05:01 -0.7 C 3.42 g/m*3 -0.7 C 0 km/h
162 20-02-2008 08:17:02 -0.7 C 3.42 g/m*3 -0.7 C 0 km/h
163 20-02-2008 08:29:02 -0.5 C 3.46 g/m*3 -0.5 C 0 km/h
164 20-02-2008 08:41:02 -0.4 C 3.49 g/m*3 -0.4 C 0 km/h
165 20-02-2008 08:53:02 -0.3 C 3.56 g/m*3 -0.3 C 0 km/h
166 20-02-2008 09:05:02 -0.1 C 3.56 g/m*3 -0.1 C 0 km/h
167 20-02-2008 09:17:02 0 C 3.59 g/m*3 0 C 0 km/h
168 20-02-2008 09:29:02 0.4 C 3.69 g/m*3 0.4 C 0 km/h
169 20-02-2008 09:41:02 0.6 C 3.74 g/m*3 0.6 C 0 km/h
170 20-02-2008 09:53:02 0.6 C 3.74 g/m*3 0.6 C 0 km/h
171 20-02-2008 10:05:02 0.6 C 3.74 g/m*3 0.6 C 0 km/h
172 20-02-2008 10:17:02 0.8 C 3.84 g/m*3 0.8 C 0 km/h
173 20-02-2008 10:29:02 1.1 C 3.87 g/m*3 1.1 C 0 km/h
174 20-02-2008 10:41:03 1.3 C 4.03 g/m*3 1.3 C 0 km/h
175 20-02-2008 10:53:02 1.6 C 4.16 g/m*3 1.6 C 0 km/h
Sensor: Nr:Datum:Temp:Abs-Feuchte:Windchill:Wind:
Aussen-T/F 176 20-02-2008 11:05:02 2.1 C 4.36 g/m*3 2.1 C 0 km/h
177 20-02-2008 11:17:02 2.2 C 4.45 g/m*3 2.2 C 0 km/h
178 20-02-2008 11:29:02 2.3 C 4.54 g/m*3 2.3 C 0 km/h
179 20-02-2008 11:41:02 2.9 C 4.96 g/m*3 2.9 C 0 km/h
180 20-02-2008 11:53:01 3.1 C 5.03 g/m*3 3.1 C 0 km/h
181 20-02-2008 12:05:01 3.3 C 5.16 g/m*3 3.3 C 0 km/h
182 20-02-2008 12:17:02 3.3 C 5.16 g/m*3 3.3 C 0 km/h
183 20-02-2008 12:29:02 3.2 C 5.12 g/m*3 3.2 C 0 km/h
184 20-02-2008 12:41:02 3.3 C 5.16 g/m*3 3.3 C 0 km/h
185 20-02-2008 12:53:02 3.4 C 5.19 g/m*3 3.4 C 0 km/h
186 20-02-2008 13:05:02 3.7 C 5.36 g/m*3 3.7 C 0 km/h
187 20-02-2008 13:17:01 3.9 C 5.43 g/m*3 3.9 C 0 km/h
188 20-02-2008 13:29:01 4.2 C 5.48 g/m*3 4.2 C 0 km/h
189 20-02-2008 13:41:02 4.3 C 5.45 g/m*3 4.3 C 0 km/h
190 20-02-2008 13:53:01 4.1 C 5.38 g/m*3 4.1 C 0 km/h
191 20-02-2008 14:05:02 4 C 5.34 g/m*3 4 C 0 km/h
192 20-02-2008 14:17:02 3.9 C 5.43 g/m*3 3.9 C 0 km/h
193 20-02-2008 14:29:02 3.9 C 5.43 g/m*3 3.9 C 0 km/h
194 20-02-2008 14:41:02 3.9 C 5.43 g/m*3 3.9 C 0 km/h
195 20-02-2008 14:53:02 3.9 C 5.49 g/m*3 3.9 C 0 km/h
196 20-02-2008 15:05:02 4 C 5.47 g/m*3 4 C 0 km/h
197 20-02-2008 15:17:02 4.2 C 5.54 g/m*3 4.2 C 0 km/h
198 20-02-2008 15:29:02 4.2 C 5.61 g/m*3 4.2 C 0 km/h
199 20-02-2008 15:41:02 4 C 5.53 g/m*3 4 C 0 km/h
200 20-02-2008 15:53:02 4 C 5.53 g/m*3 4 C 0 km/h
Sensor: Nr:Datum:Temp:Abs-Feuchte:Windchill:Wind:
Aussen-T/F 201 20-02-2008 16:05:02 3.9 C 5.56 g/m*3 3.9 C 0 km/h
202 20-02-2008 16:17:02 3.8 C 5.52 g/m*3 3.8 C 0 km/h
203 20-02-2008 16:29:02 3.8 C 5.52 g/m*3 3.8 C 0 km/h
204 20-02-2008 16:41:01 3.8 C 5.52 g/m*3 3.8 C 0 km/h
205 20-02-2008 16:53:01 3.9 C 5.62 g/m*3 3.9 C 0 km/h
206 20-02-2008 17:05:02 4 C 5.66 g/m*3 4 C 0 km/h
207 20-02-2008 17:17:02 4 C 5.66 g/m*3 4 C 0 km/h
208 20-02-2008 17:29:02 4.2 C 5.8 g/m*3 4.2 C 0 km/h
209 20-02-2008 17:41:02 4.2 C 5.86 g/m*3 4.2 C 0 km/h
210 20-02-2008 17:53:02 4 C 5.79 g/m*3 4 C 0 km/h
211 20-02-2008 18:05:02 4 C 5.79 g/m*3 4 C 0 km/h
212 20-02-2008 18:17:01 4.2 C 5.86 g/m*3 4.2 C 0 km/h
213 20-02-2008 18:29:01 4.2 C 5.93 g/m*3 4.2 C 0 km/h
214 20-02-2008 18:41:01 4.2 C 5.93 g/m*3 4.2 C 0 km/h
215 20-02-2008 18:53:01 4.3 C 5.97 g/m*3 4.3 C 0 km/h
216 20-02-2008 19:05:02 4.8 C 6.24 g/m*3 4.8 C 0 km/h
217 20-02-2008 19:17:02 4.9 C 6.28 g/m*3 4.9 C 0 km/h
218 20-02-2008 19:29:02 5.1 C 6.29 g/m*3 5.1 C 0 km/h
219 20-02-2008 19:41:02 5.1 C 6.29 g/m*3 5.1 C 0 km/h
220 20-02-2008 19:53:02 5.2 C 6.27 g/m*3 5.2 C 0 km/h
221 20-02-2008 20:05:02 5.1 C 6.22 g/m*3 5.1 C 0 km/h
222 20-02-2008 20:17:02 5.3 C 6.31 g/m*3 5.3 C 0 km/h
223 20-02-2008 20:29:02 5.4 C 6.35 g/m*3 5.4 C 0 km/h
224 20-02-2008 20:41:02 5.4 C 6.35 g/m*3 5.4 C 0 km/h
225 20-02-2008 20:53:01 5.4 C 6.35 g/m*3 5.4 C 0 km/h
Sensor: Nr:Datum:Temp:Abs-Feuchte:Windchill:Wind:
Aussen-T/F 226 20-02-2008 21:05:02 5.2 C 6.2 g/m*3 5.2 C 0 km/h
227 20-02-2008 21:17:02 4.9 C 6.14 g/m*3 4.9 C 0 km/h
228 20-02-2008 21:29:02 4.7 C 6.06 g/m*3 4.7 C 0 km/h
229 20-02-2008 21:41:02 4.5 C 5.98 g/m*3 4.5 C 0 km/h
230 20-02-2008 21:53:02 4.4 C 6.01 g/m*3 4.4 C 0 km/h
231 20-02-2008 22:05:02 4.4 C 6.01 g/m*3 4.4 C 0 km/h
232 20-02-2008 22:17:02 4.4 C 6.07 g/m*3 4.4 C 0 km/h
233 20-02-2008 22:29:02 4.1 C 5.95 g/m*3 4.1 C 0 km/h
234 20-02-2008 22:41:01 4.1 C 5.95 g/m*3 4.1 C 0 km/h
235 20-02-2008 22:53:01 3.8 C 5.9 g/m*3 3.8 C 0 km/h
236 20-02-2008 23:05:01 3.7 C 5.86 g/m*3 3.7 C 0 km/h
237 20-02-2008 23:17:01 3.6 C 5.82 g/m*3 3.6 C 0 km/h
238 20-02-2008 23:29:02 3.4 C 5.8 g/m*3 3.4 C 0 km/h
239 20-02-2008 23:41:02 3.4 C 5.8 g/m*3 3.4 C 0 km/h
240 20-02-2008 23:53:02 3.3 C 5.76 g/m*3 3.3 C 0 km/h
241 21-02-2008 00:05:02 3.4 C 5.8 g/m*3 3.4 C 0 km/h
242 21-02-2008 00:17:02 3.2 C 5.72 g/m*3 3.2 C 0 km/h
243 21-02-2008 00:29:02 3 C 5.65 g/m*3 3 C 0 km/h
244 21-02-2008 00:41:02 2.7 C 5.54 g/m*3 2.7 C 0 km/h
245 21-02-2008 00:53:02 2.6 C 5.5 g/m*3 2.6 C 0 km/h
246 21-02-2008 01:05:02 2.4 C 5.42 g/m*3 2.4 C 0 km/h
247 21-02-2008 01:17:02 2.2 C 5.35 g/m*3 2.2 C 0 km/h
248 21-02-2008 01:29:02 2 C 5.28 g/m*3 2 C 0 km/h
249 21-02-2008 01:41:02 2 C 5.28 g/m*3 2 C 0 km/h
250 21-02-2008 01:53:02 2 C 5.28 g/m*3 2 C 0 km/h
Sensor: Nr:Datum:Temp:Abs-Feuchte:Windchill:Wind:
Aussen-T/F 251 21-02-2008 02:05:02 1.7 C 5.17 g/m*3 1.7 C 0 km/h
252 21-02-2008 02:17:02 1.5 C 5.1 g/m*3 1.5 C 0 km/h
253 21-02-2008 02:29:02 1.6 C 5.14 g/m*3 1.6 C 0 km/h
254 21-02-2008 02:41:02 1.6 C 5.14 g/m*3 1.6 C 0 km/h
255 21-02-2008 02:53:02 1.4 C 5.07 g/m*3 1.4 C 0 km/h
256 21-02-2008 03:05:02 1.2 C 5 g/m*3 1.2 C 0 km/h
257 21-02-2008 03:17:03 1.1 C 4.96 g/m*3 1.1 C 0 km/h
258 21-02-2008 03:29:03 1.1 C 4.96 g/m*3 1.1 C 0 km/h
259 21-02-2008 03:41:03 1.1 C 4.96 g/m*3 1.1 C 0 km/h
260 21-02-2008 03:53:03 0.8 C 4.86 g/m*3 0.8 C 0 km/h
261 21-02-2008 04:05:03 0.9 C 4.9 g/m*3 0.9 C 0 km/h
262 21-02-2008 04:17:03 2 C 5.28 g/m*3 2 C 0 km/h
263 21-02-2008 04:29:03 2.3 C 5.39 g/m*3 2.3 C 0 km/h
264 21-02-2008 04:41:03 2.7 C 5.54 g/m*3 2.7 C 0 km/h
265 21-02-2008 04:53:03 2.7 C 5.54 g/m*3 2.7 C 0 km/h
266 21-02-2008 05:05:03 2.6 C 5.5 g/m*3 2.6 C 0 km/h
267 21-02-2008 05:17:03 3 C 5.65 g/m*3 3 C 0 km/h
268 21-02-2008 05:29:03 3.3 C 5.76 g/m*3 3.3 C 0 km/h
269 21-02-2008 05:41:03 3.1 C 5.69 g/m*3 3.1 C 0 km/h
270 21-02-2008 05:53:03 3.2 C 5.72 g/m*3 3.2 C 0 km/h
271 21-02-2008 06:05:03 3.3 C 5.76 g/m*3 3.3 C 0 km/h
272 21-02-2008 06:17:03 3.4 C 5.8 g/m*3 3.4 C 0 km/h
273 21-02-2008 06:29:03 3.7 C 5.92 g/m*3 3.7 C 0 km/h
274 21-02-2008 06:41:03 4 C 6.04 g/m*3 4 C 0 km/h
275 21-02-2008 06:53:02 4.1 C 6.08 g/m*3 4.1 C 0 km/h
Sensor: Nr:Datum:Temp:Abs-Feuchte:Windchill:Wind:
Aussen-T/F 276 21-02-2008 07:05:02 4 C 6.04 g/m*3 4 C 0 km/h
277 21-02-2008 07:17:02 4.2 C 6.12 g/m*3 4.2 C 0 km/h
278 21-02-2008 07:29:02 4.3 C 6.16 g/m*3 4.3 C 0 km/h
279 21-02-2008 07:41:01 4.4 C 6.14 g/m*3 4.4 C 0 km/h
280 21-02-2008 07:53:01 4.5 C 6.11 g/m*3 4.5 C 0 km/h
281 21-02-2008 08:05:01 4.6 C 6.15 g/m*3 4.6 C 0 km/h
282 21-02-2008 08:17:02 4.6 C 6.09 g/m*3 4.6 C 0 km/h
283 21-02-2008 08:29:02 4.6 C 6.02 g/m*3 4.6 C 0 km/h
284 21-02-2008 08:41:02 4.7 C 6 g/m*3 4.7 C 0 km/h
285 21-02-2008 08:53:02 4.7 C 5.93 g/m*3 4.7 C 0 km/h
286 21-02-2008 09:05:01 4.8 C 5.97 g/m*3 4.8 C 0 km/h
287 21-02-2008 09:17:01 5 C 5.91 g/m*3 5 C 0 km/h
288 21-02-2008 09:29:01 5.1 C 5.88 g/m*3 5.1 C 0 km/h
289 21-02-2008 09:41:01 5.2 C 5.92 g/m*3 5.2 C 0 km/h
290 21-02-2008 09:53:01 5.4 C 5.93 g/m*3 5.4 C 0 km/h
291 21-02-2008 10:05:02 5.6 C 6.01 g/m*3 5.6 C 0 km/h
292 21-02-2008 10:17:01 5.8 C 6.02 g/m*3 5.8 C 0 km/h
293 21-02-2008 10:29:01 6.1 C 6.06 g/m*3 6.1 C 0 km/h
294 21-02-2008 10:41:01 6.2 C 6.1 g/m*3 6.2 C 0 km/h
295 21-02-2008 10:53:01 6.3 C 6.07 g/m*3 6.3 C 0 km/h
296 21-02-2008 11:05:02 6.5 C 6.15 g/m*3 6.5 C 0 km/h
297 21-02-2008 11:17:01 6.7 C 6.23 g/m*3 6.7 C 0 km/h
298 21-02-2008 11:29:01 7 C 6.28 g/m*3 7 C 0 km/h
299 21-02-2008 11:41:01 7.3 C 6.4 g/m*3 7.3 C 0 km/h
300 21-02-2008 11:53:01 8.2 C 6.36 g/m*3 8.2 C 0 km/h
Sensor: Nr:Datum:Temp:Abs-Feuchte:Windchill:Wind:
Aussen-T/F 301 21-02-2008 12:05:02 8.6 C 6.1 g/m*3 8.6 C 0 km/h
302 21-02-2008 12:17:02 8.8 C 6.01 g/m*3 8.8 C 0 km/h
303 21-02-2008 12:29:02 9.1 C 6.03 g/m*3 9.1 C 0 km/h
304 21-02-2008 12:41:01 9.3 C 5.84 g/m*3 9.3 C 0 km/h
305 21-02-2008 12:53:01 9.3 C 5.75 g/m*3 9.3 C 0 km/h
306 21-02-2008 13:05:03 9.5 C 5.83 g/m*3 9.5 C 0 km/h
307 21-02-2008 13:17:02 9.6 C 5.77 g/m*3 9.6 C 0 km/h
308 21-02-2008 13:29:02 9.7 C 5.81 g/m*3 9.7 C 0 km/h
309 21-02-2008 13:41:02 10.4 C 5.69 g/m*3 10.4 C 0 km/h
310 21-02-2008 13:53:02 10.6 C 5.47 g/m*3 10.6 C 0 km/h
311 21-02-2008 14:05:01 11.2 C 5.47 g/m*3 11.2 C 0 km/h
312 21-02-2008 14:17:01 11 C 5.31 g/m*3 11 C 0 km/h
313 21-02-2008 14:29:01 11 C 5.31 g/m*3 11 C 0 km/h
314 21-02-2008 14:41:01 10.8 C 5.44 g/m*3 10.8 C 0 km/h
315 21-02-2008 14:53:01 10.8 C 5.44 g/m*3 10.8 C 0 km/h
316 21-02-2008 15:05:01 11 C 5.41 g/m*3 11 C 0 km/h
317 21-02-2008 15:17:02 10.9 C 5.37 g/m*3 10.9 C 0 km/h
318 21-02-2008 15:29:02 11.2 C 5.17 g/m*3 11.2 C 0 km/h
319 21-02-2008 15:41:01 11.2 C 5.07 g/m*3 11.2 C 0 km/h
320 21-02-2008 15:53:02 11.2 C 5.17 g/m*3 11.2 C 0 km/h
321 21-02-2008 16:05:01 11 C 5.1 g/m*3 11 C 0 km/h
322 21-02-2008 16:17:01 11 C 5.2 g/m*3 11 C 0 km/h
323 21-02-2008 16:29:01 11 C 5.2 g/m*3 11 C 0 km/h
324 21-02-2008 16:41:02 10.9 C 5.27 g/m*3 10.9 C 0 km/h
325 21-02-2008 16:53:02 10.5 C 5.24 g/m*3 10.5 C 0 km/h
Sensor: Nr:Datum:Temp:Abs-Feuchte:Windchill:Wind:
Aussen-T/F 326 21-02-2008 17:05:02 10.2 C 5.23 g/m*3 10.2 C 0 km/h
327 21-02-2008 17:17:01 10 C 5.17 g/m*3 10 C 0 km/h
328 21-02-2008 17:29:02 9.9 C 5.23 g/m*3 9.9 C 0 km/h
329 21-02-2008 17:41:01 9.7 C 5.25 g/m*3 9.7 C 0 km/h
330 21-02-2008 17:53:01 9.6 C 5.22 g/m*3 9.6 C 0 km/h
331 21-02-2008 18:05:01 9.6 C 5.22 g/m*3 9.6 C 0 km/h
332 21-02-2008 18:17:02 9.5 C 5.19 g/m*3 9.5 C 0 km/h
333 21-02-2008 18:29:02 9.4 C 5.16 g/m*3 9.4 C 0 km/h
334 21-02-2008 18:41:02 9.3 C 5.12 g/m*3 9.3 C 0 km/h
335 21-02-2008 18:53:02 9.2 C 5.18 g/m*3 9.2 C 0 km/h
336 21-02-2008 19:05:01 9.1 C 5.23 g/m*3 9.1 C 0 km/h
337 21-02-2008 19:17:02 9.1 C 5.23 g/m*3 9.1 C 0 km/h
338 21-02-2008 19:29:02 9.1 C 5.15 g/m*3 9.1 C 0 km/h
339 21-02-2008 19:41:02 9.1 C 5.15 g/m*3 9.1 C 0 km/h
340 21-02-2008 19:53:02 9.1 C 5.23 g/m*3 9.1 C 0 km/h
341 21-02-2008 20:05:02 8.9 C 5.34 g/m*3 8.9 C 0 km/h
342 21-02-2008 20:17:01 8.6 C 5.5 g/m*3 8.6 C 0 km/h
343 21-02-2008 20:29:01 8.5 C 5.55 g/m*3 8.5 C 0 km/h
344 21-02-2008 20:41:01 8.6 C 5.5 g/m*3 8.6 C 0 km/h
345 21-02-2008 20:53:01 8.6 C 5.41 g/m*3 8.6 C 0 km/h
346 21-02-2008 21:05:01 8.6 C 5.5 g/m*3 8.6 C 0 km/h
347 21-02-2008 21:17:02 8.4 C 5.68 g/m*3 8.4 C 0 km/h
348 21-02-2008 21:29:02 8.4 C 5.77 g/m*3 8.4 C 0 km/h
349 21-02-2008 21:41:02 8.4 C 5.77 g/m*3 8.4 C 0 km/h
350 21-02-2008 21:53:02 8.4 C 5.85 g/m*3 8.4 C 0 km/h
Sensor: Nr:Datum:Temp:Abs-Feuchte:Windchill:Wind:
Aussen-T/F 351 21-02-2008 22:06:03 8.4 C 5.85 g/m*3 8.4 C 0 km/h
352 21-02-2008 22:18:03 8.4 C 5.94 g/m*3 8.4 C 0 km/h
353 21-02-2008 22:30:03 8.4 C 5.94 g/m*3 8.4 C 0 km/h
354 21-02-2008 22:42:03 8.4 C 6.02 g/m*3 8.4 C 0 km/h
355 21-02-2008 22:54:03 8.5 C 6.06 g/m*3 8.5 C 0 km/h
356 21-02-2008 23:06:03 8.5 C 6.06 g/m*3 8.5 C 0 km/h
357 21-02-2008 23:18:03 8.4 C 6.11 g/m*3 8.4 C 0 km/h
358 21-02-2008 23:30:03 8.2 C 6.2 g/m*3 8.2 C 0 km/h
359 21-02-2008 23:42:03 8 C 6.37 g/m*3 8 C 0 km/h
360 21-02-2008 23:54:03 7.9 C 6.65 g/m*3 7.9 C 0 km/h
361 22-02-2008 00:06:03 7.8 C 6.77 g/m*3 7.8 C 0 km/h
362 22-02-2008 00:18:03 7.7 C 6.81 g/m*3 7.7 C 0 km/h
363 22-02-2008 00:30:03 7.8 C 6.94 g/m*3 7.8 C 0 km/h
364 22-02-2008 00:42:03 7.8 C 6.94 g/m*3 7.8 C 0 km/h
365 22-02-2008 00:54:03 7.9 C 6.9 g/m*3 7.9 C 0 km/h
366 22-02-2008 01:06:04 7.9 C 6.9 g/m*3 7.9 C 0 km/h
367 22-02-2008 01:18:04 7.8 C 6.86 g/m*3 7.8 C 0 km/h
368 22-02-2008 01:30:04 7.8 C 6.94 g/m*3 7.8 C 0 km/h
369 22-02-2008 01:42:04 7.8 C 6.94 g/m*3 7.8 C 0 km/h
370 22-02-2008 01:54:04 7.8 C 6.94 g/m*3 7.8 C 0 km/h
371 22-02-2008 02:06:04 7.9 C 6.98 g/m*3 7.9 C 0 km/h
372 22-02-2008 02:18:04 8.4 C 6.96 g/m*3 8.4 C 0 km/h
373 22-02-2008 02:30:04 8.5 C 6.66 g/m*3 8.5 C 0 km/h
374 22-02-2008 02:42:04 8.5 C 6.57 g/m*3 8.5 C 0 km/h
375 22-02-2008 02:54:04 8.6 C 6.53 g/m*3 8.6 C 0 km/h
Sensor: Nr:Datum:Temp:Abs-Feuchte:Windchill:Wind:
Aussen-T/F 376 22-02-2008 03:06:04 8.7 C 6.49 g/m*3 8.7 C 0 km/h
377 22-02-2008 03:18:04 9.1 C 6.39 g/m*3 9.1 C 0 km/h
378 22-02-2008 03:30:04 8.8 C 6.35 g/m*3 8.8 C 0 km/h
379 22-02-2008 03:42:04 8.8 C 6.27 g/m*3 8.8 C 0 km/h
380 22-02-2008 03:54:04 8.8 C 6.27 g/m*3 8.8 C 0 km/h
381 22-02-2008 04:06:04 9.1 C 6.21 g/m*3 9.1 C 0 km/h
382 22-02-2008 04:18:04 9.1 C 6.21 g/m*3 9.1 C 0 km/h
383 22-02-2008 04:30:04 9 C 6.26 g/m*3 9 C 0 km/h
384 22-02-2008 04:42:04 9 C 6.35 g/m*3 9 C 0 km/h
385 22-02-2008 04:54:04 9.2 C 6.34 g/m*3 9.2 C 0 km/h
386 22-02-2008 05:06:05 9.2 C 6.25 g/m*3 9.2 C 0 km/h
387 22-02-2008 05:18:05 9.2 C 6.25 g/m*3 9.2 C 0 km/h
388 22-02-2008 05:30:05 9.3 C 6.29 g/m*3 9.3 C 0 km/h
389 22-02-2008 05:42:05 9.1 C 6.21 g/m*3 9.1 C 0 km/h
390 22-02-2008 05:54:05 9.2 C 6.25 g/m*3 9.2 C 0 km/h
391 22-02-2008 06:06:05 9.1 C 6.12 g/m*3 9.1 C 0 km/h
392 22-02-2008 06:18:05 9.1 C 6.12 g/m*3 9.1 C 0 km/h
393 22-02-2008 06:30:05 9.2 C 6.16 g/m*3 9.2 C 0 km/h
394 22-02-2008 06:42:05 9.2 C 6.25 g/m*3 9.2 C 0 km/h
395 22-02-2008 06:54:05 9.3 C 6.2 g/m*3 9.3 C 0 km/h
396 22-02-2008 07:06:02 9.2 C 6.07 g/m*3 9.2 C 0 km/h
397 22-02-2008 07:18:03 9.2 C 6.07 g/m*3 9.2 C 0 km/h
398 22-02-2008 07:30:03 9.3 C 5.93 g/m*3 9.3 C 0 km/h
399 22-02-2008 07:42:03 9.2 C 5.8 g/m*3 9.2 C 0 km/h
400 22-02-2008 07:54:01 9.3 C 5.84 g/m*3 9.3 C 0 km/h
Sensor: Nr:Datum:Temp:Abs-Feuchte:Windchill:Wind:
Aussen-T/F 401 22-02-2008 08:06:02 9.3 C 5.75 g/m*3 9.3 C 0 km/h
402 22-02-2008 08:18:02 9.3 C 5.66 g/m*3 9.3 C 0 km/h
403 22-02-2008 08:30:02 9.4 C 5.61 g/m*3 9.4 C 0 km/h
404 22-02-2008 08:42:01 9.5 C 5.64 g/m*3 9.5 C 0 km/h
405 22-02-2008 08:54:02 9.5 C 5.64 g/m*3 9.5 C 0 km/h
406 22-02-2008 09:06:02 9.6 C 5.59 g/m*3 9.6 C 0 km/h
407 22-02-2008 09:18:01 9.6 C 5.5 g/m*3 9.6 C 0 km/h
408 22-02-2008 09:30:01 9.7 C 5.53 g/m*3 9.7 C 0 km/h
409 22-02-2008 09:42:01 9.7 C 5.53 g/m*3 9.7 C 0 km/h
410 22-02-2008 09:54:02 9.8 C 5.47 g/m*3 9.8 C 0 km/h
411 22-02-2008 10:06:01 9.9 C 5.51 g/m*3 9.9 C 0 km/h
412 22-02-2008 10:18:02 10.1 C 5.48 g/m*3 10.1 C 0 km/h
413 22-02-2008 10:30:02 10.1 C 5.48 g/m*3 10.1 C 0 km/h
414 22-02-2008 10:42:02 10.3 C 5.46 g/m*3 10.3 C 0 km/h
415 22-02-2008 10:54:02 10.3 C 5.46 g/m*3 10.3 C 0 km/h
416 22-02-2008 11:06:02 10.2 C 5.42 g/m*3 10.2 C 0 km/h
417 22-02-2008 11:18:02 10.4 C 5.49 g/m*3 10.4 C 0 km/h
418 22-02-2008 11:30:02 10.4 C 5.4 g/m*3 10.4 C 0 km/h
419 22-02-2008 11:42:02 10.5 C 5.53 g/m*3 10.5 C 0 km/h
420 22-02-2008 11:54:02 10.5 C 5.53 g/m*3 10.5 C 0 km/h
421 22-02-2008 12:06:03 10.6 C 5.56 g/m*3 10.6 C 0 km/h
422 22-02-2008 12:18:02 10.6 C 5.56 g/m*3 10.6 C 0 km/h
423 22-02-2008 12:30:02 10.8 C 5.54 g/m*3 10.8 C 0 km/h
424 22-02-2008 12:42:02 10.5 C 5.53 g/m*3 10.5 C 0 km/h
425 22-02-2008 12:54:02 10.7 C 5.6 g/m*3 10.7 C 0 km/h
Sensor: Nr:Datum:Temp:Abs-Feuchte:Windchill:Wind:
Aussen-T/F 426 22-02-2008 13:06:02 10.6 C 5.56 g/m*3 10.6 C 0 km/h
427 22-02-2008 13:18:01 10.4 C 5.49 g/m*3 10.4 C 0 km/h
428 22-02-2008 13:30:01 10.5 C 5.53 g/m*3 10.5 C 0 km/h
429 22-02-2008 13:42:02 10.4 C 5.49 g/m*3 10.4 C 0 km/h
430 22-02-2008 13:54:01 10.6 C 5.56 g/m*3 10.6 C 0 km/h
431 22-02-2008 14:06:02 10.6 C 5.56 g/m*3 10.6 C 0 km/h
432 22-02-2008 14:18:02 10.4 C 5.49 g/m*3 10.4 C 0 km/h
433 22-02-2008 14:30:02 10.5 C 5.43 g/m*3 10.5 C 0 km/h
434 22-02-2008 14:42:02 10.6 C 5.47 g/m*3 10.6 C 0 km/h
435 22-02-2008 14:54:02 10.5 C 5.43 g/m*3 10.5 C 0 km/h
436 22-02-2008 15:06:02 10.4 C 5.4 g/m*3 10.4 C 0 km/h
437 22-02-2008 15:18:02 10.3 C 5.36 g/m*3 10.3 C 0 km/h
438 22-02-2008 15:30:02 10.2 C 5.42 g/m*3 10.2 C 0 km/h
439 22-02-2008 15:42:02 10 C 5.36 g/m*3 10 C 0 km/h
440 22-02-2008 15:54:02 10.1 C 5.39 g/m*3 10.1 C 0 km/h
441 22-02-2008 16:06:02 10.2 C 5.42 g/m*3 10.2 C 0 km/h
442 22-02-2008 16:18:02 10.1 C 5.39 g/m*3 10.1 C 0 km/h
443 22-02-2008 16:30:02 10.1 C 5.48 g/m*3 10.1 C 0 km/h
444 22-02-2008 16:42:01 10.1 C 5.48 g/m*3 10.1 C 0 km/h
445 22-02-2008 16:54:02 10 C 5.54 g/m*3 10 C 0 km/h
446 22-02-2008 17:06:02 10.1 C 5.58 g/m*3 10.1 C 0 km/h
447 22-02-2008 17:18:02 10 C 5.54 g/m*3 10 C 0 km/h
448 22-02-2008 17:30:03 10 C 5.54 g/m*3 10 C 0 km/h
449 22-02-2008 17:42:01 10 C 5.54 g/m*3 10 C 0 km/h
450 22-02-2008 17:54:02 10 C 5.54 g/m*3 10 C 0 km/h
Sensor: Nr:Datum:Temp:Abs-Feuchte:Windchill:Wind:
Aussen-T/F 451 22-02-2008 18:06:02 10 C 5.64 g/m*3 10 C 0 km/h
452 22-02-2008 18:18:02 9.9 C 5.7 g/m*3 9.9 C 0 km/h
453 22-02-2008 18:30:02 10 C 5.64 g/m*3 10 C 0 km/h
454 22-02-2008 18:42:02 10 C 5.64 g/m*3 10 C 0 km/h
455 22-02-2008 18:54:02 10 C 5.64 g/m*3 10 C 0 km/h
456 22-02-2008 19:06:02 10 C 5.64 g/m*3 10 C 0 km/h
457 22-02-2008 19:18:02 10.2 C 5.61 g/m*3 10.2 C 0 km/h
458 22-02-2008 19:30:02 10.4 C 5.59 g/m*3 10.4 C 0 km/h
459 22-02-2008 19:42:02 10.4 C 5.59 g/m*3 10.4 C 0 km/h
460 22-02-2008 19:54:02 10.3 C 5.55 g/m*3 10.3 C 0 km/h
461 22-02-2008 20:06:03 10.4 C 5.59 g/m*3 10.4 C 0 km/h
462 22-02-2008 20:18:02 10.3 C 5.55 g/m*3 10.3 C 0 km/h
463 22-02-2008 20:30:03 10.3 C 5.55 g/m*3 10.3 C 0 km/h
464 22-02-2008 20:42:02 10.2 C 5.61 g/m*3 10.2 C 0 km/h
465 22-02-2008 20:54:02 10.2 C 5.61 g/m*3 10.2 C 0 km/h
466 22-02-2008 21:06:01 10.1 C 5.58 g/m*3 10.1 C 0 km/h
467 22-02-2008 21:18:02 10.4 C 5.59 g/m*3 10.4 C 0 km/h
468 22-02-2008 21:30:02 10.4 C 5.59 g/m*3 10.4 C 0 km/h
469 22-02-2008 21:43:03 10.4 C 5.59 g/m*3 10.4 C 0 km/h
470 22-02-2008 21:55:03 10.4 C 5.59 g/m*3 10.4 C 0 km/h
471 22-02-2008 22:07:03 10.4 C 5.59 g/m*3 10.4 C 0 km/h
472 22-02-2008 22:19:03 10.4 C 5.59 g/m*3 10.4 C 0 km/h
473 22-02-2008 22:31:03 10.4 C 5.69 g/m*3 10.4 C 0 km/h
474 22-02-2008 22:43:03 10.4 C 5.69 g/m*3 10.4 C 0 km/h
475 22-02-2008 22:55:03 10.4 C 5.69 g/m*3 10.4 C 0 km/h
Sensor: Nr:Datum:Temp:Abs-Feuchte:Windchill:Wind:
Aussen-T/F 476 22-02-2008 23:07:03 10.4 C 5.69 g/m*3 10.4 C 0 km/h
477 22-02-2008 23:19:03 10.4 C 5.69 g/m*3 10.4 C 0 km/h
478 22-02-2008 23:31:03 10.6 C 5.76 g/m*3 10.6 C 0 km/h
479 22-02-2008 23:43:04 10.7 C 5.8 g/m*3 10.7 C 0 km/h
480 22-02-2008 23:55:04 10.7 C 5.8 g/m*3 10.7 C 0 km/h
481 23-02-2008 00:07:04 10.7 C 5.89 g/m*3 10.7 C 0 km/h
482 23-02-2008 00:19:04 10.6 C 5.86 g/m*3 10.6 C 0 km/h
483 23-02-2008 00:31:04 10.6 C 5.86 g/m*3 10.6 C 0 km/h
484 23-02-2008 00:43:04 10.5 C 5.92 g/m*3 10.5 C 0 km/h
485 23-02-2008 00:55:04 10.4 C 5.88 g/m*3 10.4 C 0 km/h
486 23-02-2008 01:07:04 10.2 C 5.9 g/m*3 10.2 C 0 km/h
487 23-02-2008 01:19:04 9.8 C 5.94 g/m*3 9.8 C 0 km/h
488 23-02-2008 01:31:04 9.5 C 5.92 g/m*3 9.5 C 0 km/h
489 23-02-2008 01:43:04 9.4 C 5.97 g/m*3 9.4 C 0 km/h
490 23-02-2008 01:55:04 9.6 C 6.05 g/m*3 9.6 C 0 km/h
491 23-02-2008 02:07:04 9.9 C 5.88 g/m*3 9.9 C 0 km/h
492 23-02-2008 02:19:04 10.3 C 5.65 g/m*3 10.3 C 0 km/h
493 23-02-2008 02:31:04 10.4 C 5.49 g/m*3 10.4 C 0 km/h
494 23-02-2008 02:43:04 10.1 C 5.39 g/m*3 10.1 C 0 km/h
495 23-02-2008 02:55:04 9.8 C 5.47 g/m*3 9.8 C 0 km/h
496 23-02-2008 03:07:04 9.4 C 5.52 g/m*3 9.4 C 0 km/h
497 23-02-2008 03:19:04 9.3 C 5.57 g/m*3 9.3 C 0 km/h
498 23-02-2008 03:31:04 9.1 C 5.59 g/m*3 9.1 C 0 km/h
499 23-02-2008 03:43:05 9 C 5.64 g/m*3 9 C 0 km/h
500 23-02-2008 03:55:05 8.6 C 5.67 g/m*3 8.6 C 0 km/h
Sensor: Nr:Datum:Temp:Abs-Feuchte:Windchill:Wind:
Aussen-T/F 501 23-02-2008 04:07:05 8.4 C 5.68 g/m*3 8.4 C 0 km/h
502 23-02-2008 04:19:03 8.3 C 5.73 g/m*3 8.3 C 0 km/h
503 23-02-2008 04:31:02 8.2 C 5.69 g/m*3 8.2 C 0 km/h
504 23-02-2008 04:43:02 8.1 C 5.74 g/m*3 8.1 C 0 km/h
505 23-02-2008 04:55:01 8.2 C 5.78 g/m*3 8.2 C 0 km/h
506 23-02-2008 05:07:02 8 C 5.7 g/m*3 8 C 0 km/h
507 23-02-2008 05:19:02 7.8 C 5.79 g/m*3 7.8 C 0 km/h
508 23-02-2008 05:31:02 7.5 C 5.76 g/m*3 7.5 C 0 km/h
509 23-02-2008 05:43:02 7.4 C 5.81 g/m*3 7.4 C 0 km/h
510 23-02-2008 05:55:02 7.3 C 5.85 g/m*3 7.3 C 0 km/h
511 23-02-2008 06:07:02 7.2 C 5.89 g/m*3 7.2 C 0 km/h
512 23-02-2008 06:19:01 7.1 C 5.85 g/m*3 7.1 C 0 km/h
513 23-02-2008 06:31:02 6.9 C 5.93 g/m*3 6.9 C 0 km/h
514 23-02-2008 06:43:02 6.9 C 6 g/m*3 6.9 C 0 km/h
515 23-02-2008 06:55:02 6.9 C 6 g/m*3 6.9 C 0 km/h
516 23-02-2008 07:07:01 6.9 C 6.08 g/m*3 6.9 C 0 km/h
517 23-02-2008 07:19:02 6.8 C 6.04 g/m*3 6.8 C 0 km/h
518 23-02-2008 07:31:01 6.9 C 6.08 g/m*3 6.9 C 0 km/h
519 23-02-2008 07:43:02 6.9 C 6.08 g/m*3 6.9 C 0 km/h
520 23-02-2008 07:55:02 6.9 C 6.08 g/m*3 6.9 C 0 km/h
521 23-02-2008 08:07:02 6.9 C 6.08 g/m*3 6.9 C 0 km/h
522 23-02-2008 08:19:02 6.8 C 6.04 g/m*3 6.8 C 0 km/h
523 23-02-2008 08:31:02 7 C 6.04 g/m*3 7 C 0 km/h
524 23-02-2008 08:43:02 7.2 C 6.12 g/m*3 7.2 C 0 km/h
525 23-02-2008 08:55:02 7.3 C 6.08 g/m*3 7.3 C 0 km/h
Sensor: Nr:Datum:Temp:Abs-Feuchte:Windchill:Wind:
Aussen-T/F 526 23-02-2008 09:07:02 7.4 C 6.04 g/m*3 7.4 C 0 km/h
527 23-02-2008 09:19:02 7.5 C 6.08 g/m*3 7.5 C 0 km/h
528 23-02-2008 09:31:02 7.7 C 6.16 g/m*3 7.7 C 0 km/h
529 23-02-2008 09:43:02 7.9 C 6.24 g/m*3 7.9 C 0 km/h
530 23-02-2008 09:55:02 8 C 6.2 g/m*3 8 C 0 km/h
531 23-02-2008 10:07:01 8.4 C 6.28 g/m*3 8.4 C 0 km/h
532 23-02-2008 10:19:02 8.6 C 6.27 g/m*3 8.6 C 0 km/h
533 23-02-2008 10:31:01 8.9 C 6.31 g/m*3 8.9 C 0 km/h
534 23-02-2008 10:43:01 9.4 C 6.24 g/m*3 9.4 C 0 km/h
535 23-02-2008 10:55:02 9.7 C 5.99 g/m*3 9.7 C 0 km/h
536 23-02-2008 11:07:01 10 C 5.73 g/m*3 10 C 0 km/h
537 23-02-2008 11:19:02 10.1 C 5.58 g/m*3 10.1 C 0 km/h
538 23-02-2008 11:31:02 10.2 C 5.52 g/m*3 10.2 C 0 km/h
539 23-02-2008 11:43:02 10.4 C 5.59 g/m*3 10.4 C 0 km/h
540 23-02-2008 11:55:02 10.8 C 5.63 g/m*3 10.8 C 0 km/h
541 23-02-2008 12:07:02 11.2 C 5.27 g/m*3 11.2 C 0 km/h
542 23-02-2008 12:19:02 11.3 C 5.1 g/m*3 11.3 C 0 km/h
543 23-02-2008 12:31:02 11.3 C 5.1 g/m*3 11.3 C 0 km/h
544 23-02-2008 12:43:02 11.8 C 5.05 g/m*3 11.8 C 0 km/h
545 23-02-2008 12:55:02 12.3 C 4.89 g/m*3 12.3 C 0 km/h
546 23-02-2008 13:07:03 12.6 C 4.98 g/m*3 12.6 C 0 km/h
547 23-02-2008 13:19:02 12.7 C 4.79 g/m*3 12.7 C 0 km/h
548 23-02-2008 13:31:02 12.7 C 4.79 g/m*3 12.7 C 0 km/h
549 23-02-2008 13:43:02 12.7 C 4.79 g/m*3 12.7 C 0 km/h
550 23-02-2008 13:55:01 13.2 C 4.71 g/m*3 13.2 C 0 km/h
Sensor: Nr:Datum:Temp:Abs-Feuchte:Windchill:Wind:
Aussen-T/F 551 23-02-2008 14:07:03 13.4 C 4.65 g/m*3 13.4 C 0 km/h
552 23-02-2008 14:19:02 13.8 C 4.65 g/m*3 13.8 C 0 km/h
553 23-02-2008 14:31:01 14 C 4.46 g/m*3 14 C 0 km/h
554 23-02-2008 14:43:01 14.1 C 4.49 g/m*3 14.1 C 0 km/h
555 23-02-2008 14:55:01 14.1 C 4.61 g/m*3 14.1 C 0 km/h
556 23-02-2008 15:07:01 13.9 C 4.68 g/m*3 13.9 C 0 km/h
557 23-02-2008 15:19:02 14.1 C 4.61 g/m*3 14.1 C 0 km/h
558 23-02-2008 15:31:01 14.2 C 4.64 g/m*3 14.2 C 0 km/h
559 23-02-2008 15:43:01 13.9 C 4.56 g/m*3 13.9 C 0 km/h
560 23-02-2008 15:55:02 13.6 C 4.71 g/m*3 13.6 C 0 km/h
561 23-02-2008 16:07:01 13.5 C 4.68 g/m*3 13.5 C 0 km/h
562 23-02-2008 16:19:02 13.4 C 4.65 g/m*3 13.4 C 0 km/h
563 23-02-2008 16:31:02 13.4 C 4.65 g/m*3 13.4 C 0 km/h
564 23-02-2008 16:43:02 13.1 C 4.68 g/m*3 13.1 C 0 km/h
565 23-02-2008 16:55:02 12.8 C 4.82 g/m*3 12.8 C 0 km/h
566 23-02-2008 17:07:03 13 C 4.76 g/m*3 13 C 0 km/h
567 23-02-2008 17:19:02 12.9 C 4.96 g/m*3 12.9 C 0 km/h
568 23-02-2008 17:31:02 12.8 C 5.04 g/m*3 12.8 C 0 km/h
569 23-02-2008 17:43:02 12.4 C 5.03 g/m*3 12.4 C 0 km/h
570 23-02-2008 17:55:02 11.9 C 4.98 g/m*3 11.9 C 0 km/h
571 23-02-2008 18:07:02 11.4 C 5.13 g/m*3 11.4 C 0 km/h
572 23-02-2008 18:19:03 10.8 C 5.24 g/m*3 10.8 C 0 km/h
573 23-02-2008 18:31:03 10.2 C 5.23 g/m*3 10.2 C 0 km/h
574 23-02-2008 18:43:03 9.8 C 5.29 g/m*3 9.8 C 0 km/h
575 23-02-2008 18:55:02 9.6 C 5.31 g/m*3 9.6 C 0 km/h
Sensor: Nr:Datum:Temp:Abs-Feuchte:Windchill:Wind:
Aussen-T/F 576 23-02-2008 19:07:02 9.4 C 5.34 g/m*3 9.4 C 0 km/h
577 23-02-2008 19:19:02 9.3 C 5.39 g/m*3 9.3 C 0 km/h
578 23-02-2008 19:31:02 9.2 C 5.36 g/m*3 9.2 C 0 km/h
579 23-02-2008 19:43:02 8.8 C 5.31 g/m*3 8.8 C 0 km/h
580 23-02-2008 19:55:02 8.6 C 5.41 g/m*3 8.6 C 0 km/h
581 23-02-2008 20:07:02 8.4 C 5.43 g/m*3 8.4 C 0 km/h
582 23-02-2008 20:19:02 8.2 C 5.36 g/m*3 8.2 C 0 km/h
583 23-02-2008 20:31:03 8 C 5.37 g/m*3 8 C 0 km/h
584 23-02-2008 20:43:03 7.9 C 5.5 g/m*3 7.9 C 0 km/h
585 23-02-2008 20:55:02 7.7 C 5.43 g/m*3 7.7 C 0 km/h
586 23-02-2008 21:07:02 7.4 C 5.33 g/m*3 7.4 C 0 km/h
587 23-02-2008 21:19:01 7.3 C 5.37 g/m*3 7.3 C 0 km/h
588 23-02-2008 21:31:02 7.2 C 5.42 g/m*3 7.2 C 0 km/h
589 23-02-2008 21:43:02 7.1 C 5.38 g/m*3 7.1 C 0 km/h
590 23-02-2008 21:55:02 6.8 C 5.35 g/m*3 6.8 C 0 km/h
591 23-02-2008 22:07:01 6.6 C 5.36 g/m*3 6.6 C 0 km/h
592 23-02-2008 22:20:02 6.5 C 5.32 g/m*3 6.5 C 0 km/h
593 23-02-2008 22:32:02 6.2 C 5.29 g/m*3 6.2 C 0 km/h
594 23-02-2008 22:44:02 5.9 C 5.26 g/m*3 5.9 C 0 km/h
595 23-02-2008 22:56:02 5.9 C 5.34 g/m*3 5.9 C 0 km/h
596 23-02-2008 23:08:02 5.8 C 5.3 g/m*3 5.8 C 0 km/h
597 23-02-2008 23:20:02 5.7 C 5.34 g/m*3 5.7 C 0 km/h
598 23-02-2008 23:32:02 5.7 C 5.41 g/m*3 5.7 C 0 km/h
599 23-02-2008 23:44:02 5.7 C 5.48 g/m*3 5.7 C 0 km/h
600 23-02-2008 23:56:02 5.4 C 5.37 g/m*3 5.4 C 0 km/h
Sensor: Nr:Datum:Temp:Abs-Feuchte:Windchill:Wind:
Aussen-T/F 601 24-02-2008 00:08:02 5.3 C 5.34 g/m*3 5.3 C 0 km/h
602 24-02-2008 00:20:02 5.3 C 5.41 g/m*3 5.3 C 0 km/h
603 24-02-2008 00:32:02 5.3 C 5.48 g/m*3 5.3 C 0 km/h
604 24-02-2008 00:44:02 5.1 C 5.4 g/m*3 5.1 C 0 km/h
605 24-02-2008 00:56:02 4.8 C 5.3 g/m*3 4.8 C 0 km/h
606 24-02-2008 01:08:02 4.8 C 5.3 g/m*3 4.8 C 0 km/h
607 24-02-2008 01:20:02 4.6 C 5.29 g/m*3 4.6 C 0 km/h
608 24-02-2008 01:32:02 4.6 C 5.36 g/m*3 4.6 C 0 km/h
609 24-02-2008 01:44:02 4.5 C 5.32 g/m*3 4.5 C 0 km/h
610 24-02-2008 01:56:03 4.3 C 5.25 g/m*3 4.3 C 0 km/h
611 24-02-2008 02:08:03 4.3 C 5.32 g/m*3 4.3 C 0 km/h
612 24-02-2008 02:20:03 4.1 C 5.25 g/m*3 4.1 C 0 km/h
613 24-02-2008 02:32:03 4 C 5.21 g/m*3 4 C 0 km/h
614 24-02-2008 02:44:03 3.8 C 5.21 g/m*3 3.8 C 0 km/h
615 24-02-2008 02:56:03 3.6 C 5.14 g/m*3 3.6 C 0 km/h
616 24-02-2008 03:08:03 3.5 C 5.1 g/m*3 3.5 C 0 km/h
617 24-02-2008 03:20:03 3.4 C 5.13 g/m*3 3.4 C 0 km/h
618 24-02-2008 03:32:03 3.3 C 5.1 g/m*3 3.3 C 0 km/h
619 24-02-2008 03:44:03 3.1 C 5.03 g/m*3 3.1 C 0 km/h
620 24-02-2008 03:56:03 3 C 4.99 g/m*3 3 C 0 km/h
621 24-02-2008 04:08:03 2.8 C 4.99 g/m*3 2.8 C 0 km/h
622 24-02-2008 04:20:03 2.7 C 4.95 g/m*3 2.7 C 0 km/h
623 24-02-2008 04:32:03 2.6 C 4.86 g/m*3 2.6 C 0 km/h
624 24-02-2008 04:44:03 2.5 C 4.83 g/m*3 2.5 C 0 km/h
625 24-02-2008 04:56:03 2.6 C 4.92 g/m*3 2.6 C 0 km/h
Sensor: Nr:Datum:Temp:Abs-Feuchte:Windchill:Wind:
Aussen-T/F 626 24-02-2008 05:08:03 2.5 C 4.94 g/m*3 2.5 C 0 km/h
627 24-02-2008 05:20:03 2.4 C 4.91 g/m*3 2.4 C 0 km/h
628 24-02-2008 05:32:03 2.3 C 4.88 g/m*3 2.3 C 0 km/h
629 24-02-2008 05:44:03 2.1 C 4.81 g/m*3 2.1 C 0 km/h
630 24-02-2008 05:56:03 2.1 C 4.81 g/m*3 2.1 C 0 km/h
631 24-02-2008 06:08:04 2.1 C 4.81 g/m*3 2.1 C 0 km/h
632 24-02-2008 06:20:04 1.9 C 4.8 g/m*3 1.9 C 0 km/h
633 24-02-2008 06:32:04 1.8 C 4.77 g/m*3 1.8 C 0 km/h
634 24-02-2008 06:44:04 1.9 C 4.86 g/m*3 1.9 C 0 km/h
635 24-02-2008 06:56:04 1.8 C 4.82 g/m*3 1.8 C 0 km/h
636 24-02-2008 07:08:04 1.8 C 4.82 g/m*3 1.8 C 0 km/h
637 24-02-2008 07:20:04 1.8 C 4.88 g/m*3 1.8 C 0 km/h
638 24-02-2008 07:32:04 1.6 C 4.81 g/m*3 1.6 C 0 km/h
639 24-02-2008 07:44:04 1.7 C 4.85 g/m*3 1.7 C 0 km/h
640 24-02-2008 07:56:04 1.8 C 4.88 g/m*3 1.8 C 0 km/h
641 24-02-2008 08:08:04 2.1 C 4.98 g/m*3 2.1 C 0 km/h
642 24-02-2008 08:20:04 2.2 C 5.01 g/m*3 2.2 C 0 km/h
643 24-02-2008 08:32:04 2.7 C 5.24 g/m*3 2.7 C 0 km/h
644 24-02-2008 08:44:04 3.2 C 5.42 g/m*3 3.2 C 0 km/h
645 24-02-2008 08:56:04 3.6 C 5.63 g/m*3 3.6 C 0 km/h
646 24-02-2008 09:08:04 4.1 C 5.76 g/m*3 4.1 C 0 km/h
647 24-02-2008 09:20:04 4.5 C 5.98 g/m*3 4.5 C 0 km/h
648 24-02-2008 09:32:04 4.8 C 6.1 g/m*3 4.8 C 0 km/h
649 24-02-2008 09:44:04 5 C 6.05 g/m*3 5 C 0 km/h
650 24-02-2008 09:56:02 5.1 C 6.02 g/m*3 5.1 C 0 km/h
Sensor: Nr:Datum:Temp:Abs-Feuchte:Windchill:Wind:
Aussen-T/F 651 24-02-2008 10:08:02 5.2 C 5.99 g/m*3 5.2 C 0 km/h
652 24-02-2008 10:20:02 5.6 C 6.08 g/m*3 5.6 C 0 km/h
653 24-02-2008 10:32:02 5.7 C 5.98 g/m*3 5.7 C 0 km/h
654 24-02-2008 10:44:02 5.8 C 6.02 g/m*3 5.8 C 0 km/h
655 24-02-2008 10:56:01 6.1 C 5.92 g/m*3 6.1 C 0 km/h
656 24-02-2008 11:08:02 6.9 C 6.08 g/m*3 6.9 C 0 km/h
657 24-02-2008 11:20:02 7 C 5.89 g/m*3 7 C 0 km/h
658 24-02-2008 11:32:02 7.4 C 6.04 g/m*3 7.4 C 0 km/h
659 24-02-2008 11:44:02 7.9 C 5.91 g/m*3 7.9 C 0 km/h
660 24-02-2008 11:56:02 8.2 C 5.86 g/m*3 8.2 C 0 km/h
661 24-02-2008 12:08:02 8.4 C 5.85 g/m*3 8.4 C 0 km/h
662 24-02-2008 12:20:02 8.9 C 5.87 g/m*3 8.9 C 0 km/h
663 24-02-2008 12:32:02 8.2 C 5.44 g/m*3 8.2 C 0 km/h
664 24-02-2008 12:44:02 8.3 C 5.65 g/m*3 8.3 C 0 km/h
665 24-02-2008 12:56:02 8.4 C 5.68 g/m*3 8.4 C 0 km/h
666 24-02-2008 13:08:02 8.2 C 5.69 g/m*3 8.2 C 0 km/h
667 24-02-2008 13:20:02 8.7 C 5.88 g/m*3 8.7 C 0 km/h
668 24-02-2008 13:32:01 9 C 5.73 g/m*3 9 C 0 km/h
669 24-02-2008 13:44:01 9.9 C 5.98 g/m*3 9.9 C 0 km/h
670 24-02-2008 13:56:02 10.8 C 6.03 g/m*3 10.8 C 0 km/h
671 24-02-2008 14:08:03 11.5 C 5.89 g/m*3 11.5 C 0 km/h
672 24-02-2008 14:20:02 12 C 5.75 g/m*3 12 C 0 km/h
673 24-02-2008 14:32:02 12.7 C 5.79 g/m*3 12.7 C 0 km/h
674 24-02-2008 14:44:02 13.3 C 5.55 g/m*3 13.3 C 0 km/h
675 24-02-2008 14:56:02 13.7 C 5.45 g/m*3 13.7 C 0 km/h
Sensor: Nr:Datum:Temp:Abs-Feuchte:Windchill:Wind:
Aussen-T/F 676 24-02-2008 15:08:02 14.3 C 5.41 g/m*3 14.3 C 0 km/h
677 24-02-2008 15:20:02 14.2 C 5.49 g/m*3 14.2 C 0 km/h
678 24-02-2008 15:32:02 14.3 C 5.41 g/m*3 14.3 C 0 km/h
679 24-02-2008 15:44:02 14.7 C 5.41 g/m*3 14.7 C 0 km/h
680 24-02-2008 15:56:02 14.4 C 5.32 g/m*3 14.4 C 0 km/h
681 24-02-2008 16:08:02 15.1 C 5.42 g/m*3 15.1 C 0 km/h
682 24-02-2008 16:20:02 14.8 C 5.45 g/m*3 14.8 C 0 km/h
683 24-02-2008 16:32:02 14.5 C 5.6 g/m*3 14.5 C 0 km/h
684 24-02-2008 16:44:02 14 C 5.55 g/m*3 14 C 0 km/h
685 24-02-2008 16:56:01 13.9 C 5.63 g/m*3 13.9 C 0 km/h
686 24-02-2008 17:08:02 14.1 C 5.46 g/m*3 14.1 C 0 km/h
687 24-02-2008 17:20:03 13.6 C 5.53 g/m*3 13.6 C 0 km/h
688 24-02-2008 17:32:02 13 C 5.56 g/m*3 13 C 0 km/h
689 24-02-2008 17:44:02 12.4 C 5.68 g/m*3 12.4 C 0 km/h
690 24-02-2008 17:56:02 11.4 C 5.85 g/m*3 11.4 C 0 km/h
691 24-02-2008 18:08:01 10.3 C 5.84 g/m*3 10.3 C 0 km/h
692 24-02-2008 18:20:01 9.7 C 5.99 g/m*3 9.7 C 0 km/h
693 24-02-2008 18:32:01 9.4 C 5.97 g/m*3 9.4 C 0 km/h
694 24-02-2008 18:44:01 9.1 C 6.12 g/m*3 9.1 C 0 km/h
695 24-02-2008 18:56:02 9 C 6.08 g/m*3 9 C 0 km/h
696 24-02-2008 19:08:02 8.7 C 6.14 g/m*3 8.7 C 0 km/h
697 24-02-2008 19:20:02 8.4 C 6.02 g/m*3 8.4 C 0 km/h
698 24-02-2008 19:32:02 8.1 C 5.91 g/m*3 8.1 C 0 km/h
699 24-02-2008 19:44:02 8 C 6.04 g/m*3 8 C 0 km/h
700 24-02-2008 19:56:02 7.9 C 6.24 g/m*3 7.9 C 0 km/h
Sensor: Nr:Datum:Temp:Abs-Feuchte:Windchill:Wind:
Aussen-T/F 701 24-02-2008 20:08:02 7.7 C 6.08 g/m*3 7.7 C 0 km/h
702 24-02-2008 20:20:02 7.5 C 5.92 g/m*3 7.5 C 0 km/h
703 24-02-2008 20:32:02 7.3 C 6 g/m*3 7.3 C 0 km/h
704 24-02-2008 20:44:02 6.9 C 6 g/m*3 6.9 C 0 km/h
705 24-02-2008 20:56:02 6.6 C 5.81 g/m*3 6.6 C 0 km/h
706 24-02-2008 21:08:02 6.4 C 5.89 g/m*3 6.4 C 0 km/h
707 24-02-2008 21:20:03 6.2 C 5.81 g/m*3 6.2 C 0 km/h
708 24-02-2008 21:32:02 6 C 5.73 g/m*3 6 C 0 km/h
709 24-02-2008 21:44:03 6 C 5.88 g/m*3 6 C 0 km/h
710 24-02-2008 21:56:02 5.9 C 5.91 g/m*3 5.9 C 0 km/h
711 24-02-2008 22:08:02 5.7 C 5.84 g/m*3 5.7 C 0 km/h
712 24-02-2008 22:21:02 5.5 C 5.83 g/m*3 5.5 C 0 km/h
713 24-02-2008 22:33:02 5.5 C 5.83 g/m*3 5.5 C 0 km/h
714 24-02-2008 22:45:03 5.6 C 5.94 g/m*3 5.6 C 0 km/h
715 24-02-2008 22:57:03 5.2 C 5.71 g/m*3 5.2 C 0 km/h
716 24-02-2008 23:09:03 5.1 C 5.68 g/m*3 5.1 C 0 km/h
717 24-02-2008 23:21:03 4.9 C 5.6 g/m*3 4.9 C 0 km/h
718 24-02-2008 23:33:03 4.9 C 5.67 g/m*3 4.9 C 0 km/h
719 24-02-2008 23:45:03 5 C 5.64 g/m*3 5 C 0 km/h
720 24-02-2008 23:57:03 4.9 C 5.74 g/m*3 4.9 C 0 km/h
721 25-02-2008 00:09:03 4.8 C 5.77 g/m*3 4.8 C 0 km/h
722 25-02-2008 00:21:03 5.1 C 5.88 g/m*3 5.1 C 0 km/h
723 25-02-2008 00:33:03 5.3 C 6.03 g/m*3 5.3 C 0 km/h
724 25-02-2008 00:45:03 5.2 C 5.99 g/m*3 5.2 C 0 km/h
725 25-02-2008 00:57:03 5.2 C 5.99 g/m*3 5.2 C 0 km/h
Sensor: Nr:Datum:Temp:Abs-Feuchte:Windchill:Wind:
Aussen-T/F 726 25-02-2008 01:09:03 5.4 C 6.14 g/m*3 5.4 C 0 km/h
727 25-02-2008 01:21:03 5.3 C 6.03 g/m*3 5.3 C 0 km/h
728 25-02-2008 01:33:03 5.5 C 6.18 g/m*3 5.5 C 0 km/h
729 25-02-2008 01:45:03 5.3 C 6.03 g/m*3 5.3 C 0 km/h
730 25-02-2008 01:57:03 6.7 C 6.61 g/m*3 6.7 C 0 km/h
731 25-02-2008 02:09:03 7.1 C 6.4 g/m*3 7.1 C 0 km/h
732 25-02-2008 02:21:03 7.3 C 6.16 g/m*3 7.3 C 0 km/h
733 25-02-2008 02:33:03 7.5 C 6.16 g/m*3 7.5 C 0 km/h
734 25-02-2008 02:45:04 7.6 C 6.12 g/m*3 7.6 C 0 km/h
735 25-02-2008 02:57:04 7.6 C 6.12 g/m*3 7.6 C 0 km/h
736 25-02-2008 03:09:04 7.6 C 6.04 g/m*3 7.6 C 0 km/h
737 25-02-2008 03:21:04 7.8 C 6.04 g/m*3 7.8 C 0 km/h
738 25-02-2008 03:33:04 7.9 C 6 g/m*3 7.9 C 0 km/h
739 25-02-2008 03:45:04 8 C 5.87 g/m*3 8 C 0 km/h
740 25-02-2008 03:57:04 8 C 5.87 g/m*3 8 C 0 km/h
741 25-02-2008 04:09:04 8.1 C 5.91 g/m*3 8.1 C 0 km/h
742 25-02-2008 04:21:04 8 C 6.04 g/m*3 8 C 0 km/h
743 25-02-2008 04:33:04 8.2 C 6.11 g/m*3 8.2 C 0 km/h
744 25-02-2008 04:45:04 8.2 C 6.11 g/m*3 8.2 C 0 km/h
745 25-02-2008 04:57:04 8 C 6.28 g/m*3 8 C 0 km/h
746 25-02-2008 05:09:04 8 C 6.45 g/m*3 8 C 0 km/h
747 25-02-2008 05:21:04 7.9 C 6.65 g/m*3 7.9 C 0 km/h
748 25-02-2008 05:33:04 8 C 6.7 g/m*3 8 C 0 km/h
749 25-02-2008 05:45:04 7.9 C 6.82 g/m*3 7.9 C 0 km/h
750 25-02-2008 05:57:04 7.9 C 6.9 g/m*3 7.9 C 0 km/h
Sensor: Nr:Datum:Temp:Abs-Feuchte:Windchill:Wind:
Aussen-T/F 751 25-02-2008 06:09:04 7.8 C 6.86 g/m*3 7.8 C 0 km/h
752 25-02-2008 06:21:04 7.8 C 6.86 g/m*3 7.8 C 0 km/h
753 25-02-2008 06:33:05 7.9 C 6.98 g/m*3 7.9 C 0 km/h
754 25-02-2008 06:45:05 8.1 C 6.91 g/m*3 8.1 C 0 km/h
755 25-02-2008 06:57:05 8.2 C 6.87 g/m*3 8.2 C 0 km/h
756 25-02-2008 07:09:02 8.2 C 6.78 g/m*3 8.2 C 0 km/h
757 25-02-2008 07:21:02 8.2 C 6.78 g/m*3 8.2 C 0 km/h
758 25-02-2008 07:33:03 8.1 C 6.74 g/m*3 8.1 C 0 km/h
759 25-02-2008 07:45:03 8.1 C 6.82 g/m*3 8.1 C 0 km/h
760 25-02-2008 07:57:03 8.1 C 6.82 g/m*3 8.1 C 0 km/h
761 25-02-2008 08:09:02 8.2 C 6.87 g/m*3 8.2 C 0 km/h
762 25-02-2008 08:21:02 8.2 C 6.95 g/m*3 8.2 C 0 km/h
763 25-02-2008 08:33:02 8.2 C 6.87 g/m*3 8.2 C 0 km/h
764 25-02-2008 08:45:02 8.5 C 7 g/m*3 8.5 C 0 km/h
765 25-02-2008 08:57:02 8.5 C 6.83 g/m*3 8.5 C 0 km/h
766 25-02-2008 09:09:03 8.7 C 6.4 g/m*3 8.7 C 0 km/h
767 25-02-2008 09:21:02 8.9 C 6.31 g/m*3 8.9 C 0 km/h
768 25-02-2008 09:33:02 8.9 C 6.13 g/m*3 8.9 C 0 km/h
769 25-02-2008 09:45:02 9.1 C 6.12 g/m*3 9.1 C 0 km/h
770 25-02-2008 09:57:02 9.1 C 5.94 g/m*3 9.1 C 0 km/h
771 25-02-2008 10:09:02 9 C 5.82 g/m*3 9 C 0 km/h
772 25-02-2008 10:21:02 9 C 5.73 g/m*3 9 C 0 km/h
773 25-02-2008 10:33:02 9.1 C 5.86 g/m*3 9.1 C 0 km/h
774 25-02-2008 10:45:02 9.3 C 5.84 g/m*3 9.3 C 0 km/h
775 25-02-2008 10:57:03 9.5 C 5.92 g/m*3 9.5 C 0 km/h
Sensor: Nr:Datum:Temp:Abs-Feuchte:Windchill:Wind:
Aussen-T/F 776 25-02-2008 11:09:01 9.5 C 5.73 g/m*3 9.5 C 0 km/h
777 25-02-2008 11:21:02 9.8 C 5.57 g/m*3 9.8 C 0 km/h
778 25-02-2008 11:33:01 9.8 C 5.29 g/m*3 9.8 C 0 km/h
779 25-02-2008 11:45:02 10.2 C 5.42 g/m*3 10.2 C 0 km/h
780 25-02-2008 11:57:02 10.9 C 5.17 g/m*3 10.9 C 0 km/h
781 25-02-2008 12:09:02 10.4 C 5.11 g/m*3 10.4 C 0 km/h
782 25-02-2008 12:21:02 10.4 C 5.3 g/m*3 10.4 C 0 km/h
783 25-02-2008 12:33:02 11 C 5.1 g/m*3 11 C 0 km/h
784 25-02-2008 12:45:03 11 C 5.1 g/m*3 11 C 0 km/h
785 25-02-2008 12:57:04 11.2 C 5.07 g/m*3 11.2 C 0 km/h
786 25-02-2008 13:09:02 11.5 C 5.06 g/m*3 11.5 C 0 km/h
787 25-02-2008 13:21:02 12.4 C 5.03 g/m*3 12.4 C 0 km/h
788 25-02-2008 13:33:03 12.8 C 5.04 g/m*3 12.8 C 0 km/h
789 25-02-2008 13:45:02 13.1 C 4.79 g/m*3 13.1 C 0 km/h
790 25-02-2008 13:57:02 14 C 4.95 g/m*3 14 C 0 km/h
791 25-02-2008 14:09:02 14.7 C 4.78 g/m*3 14.7 C 0 km/h
792 25-02-2008 14:21:02 14.8 C 4.81 g/m*3 14.8 C 0 km/h
793 25-02-2008 14:33:02 14.6 C 4.63 g/m*3 14.6 C 0 km/h
794 25-02-2008 14:45:02 14.9 C 4.59 g/m*3 14.9 C 0 km/h
795 25-02-2008 14:57:02 15 C 4.49 g/m*3 15 C 0 km/h
796 25-02-2008 15:09:02 14.8 C 4.56 g/m*3 14.8 C 0 km/h
797 25-02-2008 15:21:01 15 C 4.74 g/m*3 15 C 0 km/h
798 25-02-2008 15:33:02 15.3 C 4.57 g/m*3 15.3 C 0 km/h
799 25-02-2008 15:45:02 15.6 C 4.52 g/m*3 15.6 C 0 km/h
800 25-02-2008 15:57:02 15.8 C 4.44 g/m*3 15.8 C 0 km/h
Sensor: Nr:Datum:Temp:Abs-Feuchte:Windchill:Wind:
Aussen-T/F 801 25-02-2008 16:09:02 15.9 C 4.47 g/m*3 15.9 C 0 km/h
802 25-02-2008 16:21:02 15.9 C 4.33 g/m*3 15.9 C 0 km/h
803 25-02-2008 16:33:02 14.8 C 4.43 g/m*3 14.8 C 0 km/h
804 25-02-2008 16:45:02 14.3 C 4.55 g/m*3 14.3 C 0 km/h
805 25-02-2008 16:57:02 13.9 C 5.15 g/m*3 13.9 C 0 km/h
806 25-02-2008 17:09:02 13.5 C 5.26 g/m*3 13.5 C 0 km/h
807 25-02-2008 17:21:02 13.2 C 5.51 g/m*3 13.2 C 0 km/h
808 25-02-2008 17:33:02 12.7 C 5.57 g/m*3 12.7 C 0 km/h
809 25-02-2008 17:45:01 12.2 C 5.61 g/m*3 12.2 C 0 km/h
810 25-02-2008 17:57:01 11.7 C 5.75 g/m*3 11.7 C 0 km/h
811 25-02-2008 18:09:02 11.1 C 5.74 g/m*3 11.1 C 0 km/h
812 25-02-2008 18:21:01 10.8 C 5.83 g/m*3 10.8 C 0 km/h
813 25-02-2008 18:33:02 10.7 C 5.89 g/m*3 10.7 C 0 km/h
814 25-02-2008 18:45:02 10.4 C 5.88 g/m*3 10.4 C 0 km/h
815 25-02-2008 18:57:02 10.4 C 5.98 g/m*3 10.4 C 0 km/h
816 25-02-2008 19:09:02 10.6 C 5.95 g/m*3 10.6 C 0 km/h
817 25-02-2008 19:21:01 10.6 C 5.95 g/m*3 10.6 C 0 km/h
818 25-02-2008 19:33:01 10.5 C 5.92 g/m*3 10.5 C 0 km/h
819 25-02-2008 19:45:03 10.5 C 6.01 g/m*3 10.5 C 0 km/h
820 25-02-2008 19:57:03 10.5 C 6.01 g/m*3 10.5 C 0 km/h
821 25-02-2008 20:09:02 10.7 C 6.09 g/m*3 10.7 C 0 km/h
822 25-02-2008 20:21:02 10.7 C 6.09 g/m*3 10.7 C 0 km/h
823 25-02-2008 20:33:03 10.6 C 6.05 g/m*3 10.6 C 0 km/h
824 25-02-2008 20:45:02 10.6 C 6.15 g/m*3 10.6 C 0 km/h
825 25-02-2008 20:57:02 10.7 C 6.09 g/m*3 10.7 C 0 km/h
Sensor: Nr:Datum:Temp:Abs-Feuchte:Windchill:Wind:
Aussen-T/F 826 25-02-2008 21:09:02 10.8 C 6.13 g/m*3 10.8 C 0 km/h
827 25-02-2008 21:21:02 10.8 C 6.03 g/m*3 10.8 C 0 km/h
828 25-02-2008 21:33:02 10.5 C 6.01 g/m*3 10.5 C 0 km/h
829 25-02-2008 21:45:02 10.1 C 6.05 g/m*3 10.1 C 0 km/h
830 25-02-2008 21:57:02 10.1 C 6.15 g/m*3 10.1 C 0 km/h
831 25-02-2008 22:09:02 10 C 6.11 g/m*3 10 C 0 km/h
832 25-02-2008 22:21:02 10.1 C 6.24 g/m*3 10.1 C 0 km/h
833 25-02-2008 22:33:02 10.1 C 6.24 g/m*3 10.1 C 0 km/h
834 25-02-2008 22:45:02 10.2 C 6.38 g/m*3 10.2 C 0 km/h
835 25-02-2008 22:57:02 10.2 C 6.38 g/m*3 10.2 C 0 km/h
836 25-02-2008 23:09:02 10.2 C 6.38 g/m*3 10.2 C 0 km/h
837 25-02-2008 23:21:02 10.1 C 6.34 g/m*3 10.1 C 0 km/h
838 25-02-2008 23:33:02 10 C 6.3 g/m*3 10 C 0 km/h
839 25-02-2008 23:45:02 10.1 C 6.43 g/m*3 10.1 C 0 km/h
840 25-02-2008 23:57:02 10.2 C 6.38 g/m*3 10.2 C 0 km/h
841 26-02-2008 00:09:02 10.3 C 6.42 g/m*3 10.3 C 0 km/h
842 26-02-2008 00:21:02 10.4 C 6.55 g/m*3 10.4 C 0 km/h
843 26-02-2008 00:33:02 10.5 C 6.6 g/m*3 10.5 C 0 km/h
844 26-02-2008 00:45:02 10.4 C 6.55 g/m*3 10.4 C 0 km/h
845 26-02-2008 00:57:02 10.5 C 6.6 g/m*3 10.5 C 0 km/h
846 26-02-2008 01:09:02 10.1 C 6.52 g/m*3 10.1 C 0 km/h
847 26-02-2008 01:21:02 9.7 C 6.55 g/m*3 9.7 C 0 km/h
848 26-02-2008 01:33:02 9.4 C 6.6 g/m*3 9.4 C 0 km/h
849 26-02-2008 01:45:01 9.7 C 6.82 g/m*3 9.7 C 0 km/h
850 26-02-2008 01:57:01 10 C 6.77 g/m*3 10 C 0 km/h
Sensor: Nr:Datum:Temp:Abs-Feuchte:Windchill:Wind:
Aussen-T/F 851 26-02-2008 02:09:01 9.8 C 6.77 g/m*3 9.8 C 0 km/h
852 26-02-2008 02:21:02 9.7 C 6.82 g/m*3 9.7 C 0 km/h
853 26-02-2008 02:33:02 9.9 C 6.82 g/m*3 9.9 C 0 km/h
854 26-02-2008 02:46:03 10.2 C 6.85 g/m*3 10.2 C 0 km/h
855 26-02-2008 02:58:03 10.4 C 6.84 g/m*3 10.4 C 0 km/h
856 26-02-2008 03:10:03 10.8 C 6.82 g/m*3 10.8 C 0 km/h
857 26-02-2008 03:22:03 10.7 C 6.68 g/m*3 10.7 C 0 km/h
858 26-02-2008 03:34:02 10.7 C 6.78 g/m*3 10.7 C 0 km/h
859 26-02-2008 03:46:02 10.6 C 6.73 g/m*3 10.6 C 0 km/h
860 26-02-2008 03:58:02 10.5 C 6.69 g/m*3 10.5 C 0 km/h
861 26-02-2008 04:10:02 10.4 C 6.75 g/m*3 10.4 C 0 km/h
862 26-02-2008 04:22:02 10.5 C 6.89 g/m*3 10.5 C 0 km/h
863 26-02-2008 04:34:02 10.5 C 6.89 g/m*3 10.5 C 0 km/h
864 26-02-2008 04:46:02 10.5 C 6.79 g/m*3 10.5 C 0 km/h
865 26-02-2008 04:58:02 10.4 C 6.75 g/m*3 10.4 C 0 km/h
866 26-02-2008 05:10:01 10.3 C 6.7 g/m*3 10.3 C 0 km/h
867 26-02-2008 05:22:02 10.6 C 6.83 g/m*3 10.6 C 0 km/h
868 26-02-2008 05:34:02 10.6 C 6.73 g/m*3 10.6 C 0 km/h
869 26-02-2008 05:46:02 10.5 C 6.69 g/m*3 10.5 C 0 km/h
870 26-02-2008 05:58:02 10.4 C 6.75 g/m*3 10.4 C 0 km/h
871 26-02-2008 06:10:03 10.4 C 6.75 g/m*3 10.4 C 0 km/h
872 26-02-2008 06:22:02 10.4 C 6.65 g/m*3 10.4 C 0 km/h
873 26-02-2008 06:34:02 10.4 C 6.55 g/m*3 10.4 C 0 km/h
874 26-02-2008 06:46:01 10.4 C 6.55 g/m*3 10.4 C 0 km/h
875 26-02-2008 06:58:01 10.3 C 6.51 g/m*3 10.3 C 0 km/h
Sensor: Nr:Datum:Temp:Abs-Feuchte:Windchill:Wind:
Aussen-T/F 876 26-02-2008 07:10:01 10.1 C 6.43 g/m*3 10.1 C 0 km/h
877 26-02-2008 07:22:02 10 C 6.39 g/m*3 10 C 0 km/h
878 26-02-2008 07:34:01 10 C 6.39 g/m*3 10 C 0 km/h
879 26-02-2008 07:46:02 10 C 6.39 g/m*3 10 C 0 km/h
880 26-02-2008 07:58:02 10 C 6.39 g/m*3 10 C 0 km/h
881 26-02-2008 08:10:01 10.2 C 6.47 g/m*3 10.2 C 0 km/h
882 26-02-2008 08:22:02 10.5 C 6.5 g/m*3 10.5 C 0 km/h
883 26-02-2008 08:34:02 10.8 C 6.42 g/m*3 10.8 C 0 km/h
884 26-02-2008 08:46:02 11 C 6.31 g/m*3 11 C 0 km/h
885 26-02-2008 08:58:02 11.1 C 6.14 g/m*3 11.1 C 0 km/h
886 26-02-2008 09:10:02 11.4 C 5.95 g/m*3 11.4 C 0 km/h
887 26-02-2008 09:22:02 11.7 C 5.86 g/m*3 11.7 C 0 km/h
888 26-02-2008 09:34:02 11.9 C 5.82 g/m*3 11.9 C 0 km/h
889 26-02-2008 09:46:02 12.2 C 5.5 g/m*3 12.2 C 0 km/h
890 26-02-2008 09:58:02 12.6 C 5.42 g/m*3 12.6 C 0 km/h
891 26-02-2008 10:10:02 13.1 C 5.25 g/m*3 13.1 C 0 km/h
892 26-02-2008 10:22:02 13.5 C 5.26 g/m*3 13.5 C 0 km/h
893 26-02-2008 10:34:02 13.5 C 5.26 g/m*3 13.5 C 0 km/h
894 26-02-2008 10:46:01 13.5 C 5.26 g/m*3 13.5 C 0 km/h
895 26-02-2008 10:58:01 13.7 C 5.33 g/m*3 13.7 C 0 km/h
896 26-02-2008 11:10:01 13.7 C 5.33 g/m*3 13.7 C 0 km/h
897 26-02-2008 11:22:02 13.8 C 5.36 g/m*3 13.8 C 0 km/h
898 26-02-2008 11:34:01 13.7 C 5.45 g/m*3 13.7 C 0 km/h
899 26-02-2008 11:46:02 13.7 C 5.45 g/m*3 13.7 C 0 km/h
900 26-02-2008 11:58:02 13.6 C 5.41 g/m*3 13.6 C 0 km/h
Sensor: Nr:Datum:Temp:Abs-Feuchte:Windchill:Wind:
Aussen-T/F 901 26-02-2008 12:10:01 13.5 C 5.5 g/m*3 13.5 C 0 km/h
902 26-02-2008 12:22:02 13.4 C 5.46 g/m*3 13.4 C 0 km/h
903 26-02-2008 12:34:02 13.4 C 5.58 g/m*3 13.4 C 0 km/h
904 26-02-2008 12:46:02 13.4 C 5.58 g/m*3 13.4 C 0 km/h
905 26-02-2008 12:58:02 13.4 C 5.58 g/m*3 13.4 C 0 km/h
906 26-02-2008 13:10:02 13.4 C 5.7 g/m*3 13.4 C 0 km/h
907 26-02-2008 13:22:02 13.4 C 5.81 g/m*3 13.4 C 0 km/h
908 26-02-2008 13:34:02 13.4 C 5.81 g/m*3 13.4 C 0 km/h
909 26-02-2008 13:46:02 13.5 C 5.97 g/m*3 13.5 C 0 km/h
910 26-02-2008 13:58:02 13.5 C 6.08 g/m*3 13.5 C 0 km/h
911 26-02-2008 14:10:02 13.5 C 6.08 g/m*3 13.5 C 0 km/h
912 26-02-2008 14:22:03 13.4 C 6.04 g/m*3 13.4 C 0 km/h
913 26-02-2008 14:34:02 13.4 C 6.16 g/m*3 13.4 C 0 km/h
914 26-02-2008 14:46:02 13.4 C 6.16 g/m*3 13.4 C 0 km/h
915 26-02-2008 14:58:02 13.4 C 6.16 g/m*3 13.4 C 0 km/h
916 26-02-2008 15:10:01 13.2 C 6.09 g/m*3 13.2 C 0 km/h
917 26-02-2008 15:22:02 13.2 C 6.2 g/m*3 13.2 C 0 km/h
918 26-02-2008 15:34:01 13.1 C 6.05 g/m*3 13.1 C 0 km/h
919 26-02-2008 15:46:02 13 C 6.12 g/m*3 13 C 0 km/h
920 26-02-2008 15:58:02 12.9 C 6.2 g/m*3 12.9 C 0 km/h
921 26-02-2008 16:10:01 12.8 C 6.16 g/m*3 12.8 C 0 km/h
922 26-02-2008 16:22:02 12.7 C 6.23 g/m*3 12.7 C 0 km/h
923 26-02-2008 16:34:02 12.4 C 6.45 g/m*3 12.4 C 0 km/h
924 26-02-2008 16:46:02 12 C 6.5 g/m*3 12 C 0 km/h
925 26-02-2008 16:58:02 12 C 6.5 g/m*3 12 C 0 km/h
Sensor: Nr:Datum:Temp:Abs-Feuchte:Windchill:Wind:
Aussen-T/F 926 26-02-2008 17:10:02 11.8 C 6.63 g/m*3 11.8 C 0 km/h
927 26-02-2008 17:22:02 11.8 C 6.74 g/m*3 11.8 C 0 km/h
928 26-02-2008 17:34:02 11.2 C 6.99 g/m*3 11.2 C 0 km/h
929 26-02-2008 17:46:01 10.9 C 7.16 g/m*3 10.9 C 0 km/h
930 26-02-2008 17:58:01 10.8 C 7.22 g/m*3 10.8 C 0 km/h
931 26-02-2008 18:10:01 10.5 C 7.37 g/m*3 10.5 C 0 km/h
932 26-02-2008 18:22:01 10.4 C 7.61 g/m*3 10.4 C 0 km/h
933 26-02-2008 18:34:02 10.4 C 7.61 g/m*3 10.4 C 0 km/h
934 26-02-2008 18:46:02 10.5 C 7.57 g/m*3 10.5 C 0 km/h
935 26-02-2008 18:58:02 10.4 C 7.52 g/m*3 10.4 C 0 km/h
936 26-02-2008 19:10:02 10.4 C 7.52 g/m*3 10.4 C 0 km/h
937 26-02-2008 19:22:02 10.5 C 7.57 g/m*3 10.5 C 0 km/h
938 26-02-2008 19:34:02 10.5 C 7.57 g/m*3 10.5 C 0 km/h
939 26-02-2008 19:46:02 10.3 C 7.57 g/m*3 10.3 C 0 km/h
940 26-02-2008 19:58:02 10.1 C 7.66 g/m*3 10.1 C 0 km/h
941 26-02-2008 20:10:02 10.1 C 7.75 g/m*3 10.1 C 0 km/h
942 26-02-2008 20:22:02 10.1 C 7.75 g/m*3 10.1 C 0 km/h
943 26-02-2008 20:34:02 10.2 C 7.8 g/m*3 10.2 C 0 km/h
944 26-02-2008 20:46:02 10.1 C 7.75 g/m*3 10.1 C 0 km/h
945 26-02-2008 20:58:02 9.8 C 7.33 g/m*3 9.8 C 0 km/h
946 26-02-2008 21:10:03 9.7 C 6.27 g/m*3 9.7 C 0 km/h
947 26-02-2008 21:22:03 9.3 C 6.2 g/m*3 9.3 C 0 km/h
948 26-02-2008 21:34:02 9.4 C 6.15 g/m*3 9.4 C 0 km/h
949 26-02-2008 21:46:02 9.2 C 6.16 g/m*3 9.2 C 0 km/h
950 26-02-2008 21:58:02 9.3 C 6.2 g/m*3 9.3 C 0 km/h
Sensor: Nr:Datum:Temp:Abs-Feuchte:Windchill:Wind:
Aussen-T/F 951 26-02-2008 22:10:02 9.3 C 6.29 g/m*3 9.3 C 0 km/h
952 26-02-2008 22:23:03 9.2 C 6.16 g/m*3 9.2 C 0 km/h
953 26-02-2008 22:35:04 9 C 6.17 g/m*3 9 C 0 km/h
954 26-02-2008 22:47:04 8.9 C 6.22 g/m*3 8.9 C 0 km/h
955 26-02-2008 22:59:04 8.6 C 6.02 g/m*3 8.6 C 0 km/h
956 26-02-2008 23:11:04 8.7 C 5.97 g/m*3 8.7 C 0 km/h
957 26-02-2008 23:23:04 8.4 C 5.94 g/m*3 8.4 C 0 km/h
958 26-02-2008 23:35:04 8.1 C 5.91 g/m*3 8.1 C 0 km/h
959 26-02-2008 23:47:04 8.1 C 5.74 g/m*3 8.1 C 0 km/h
960 26-02-2008 23:59:04 8 C 5.79 g/m*3 8 C 0 km/h
961 27-02-2008 00:11:04 7.8 C 5.63 g/m*3 7.8 C 0 km/h
962 27-02-2008 00:23:04 7.8 C 5.14 g/m*3 7.8 C 0 km/h
963 27-02-2008 00:35:04 7.6 C 5.08 g/m*3 7.6 C 0 km/h
964 27-02-2008 00:47:04 7.6 C 4.91 g/m*3 7.6 C 0 km/h
965 27-02-2008 00:59:04 7.8 C 4.82 g/m*3 7.8 C 0 km/h
966 27-02-2008 01:11:04 7.6 C 4.67 g/m*3 7.6 C 0 km/h
967 27-02-2008 01:23:04 7.4 C 4.69 g/m*3 7.4 C 0 km/h
968 27-02-2008 01:35:04 7.4 C 4.69 g/m*3 7.4 C 0 km/h
969 27-02-2008 01:47:04 7.5 C 4.72 g/m*3 7.5 C 0 km/h
970 27-02-2008 01:59:04 7.4 C 4.69 g/m*3 7.4 C 0 km/h
971 27-02-2008 02:11:04 7.4 C 4.69 g/m*3 7.4 C 0 km/h
972 27-02-2008 02:23:04 7.4 C 4.69 g/m*3 7.4 C 0 km/h
973 27-02-2008 02:35:04 7.3 C 4.66 g/m*3 7.3 C 0 km/h
974 27-02-2008 02:47:05 7.1 C 4.68 g/m*3 7.1 C 0 km/h
975 27-02-2008 02:59:05 6.9 C 4.77 g/m*3 6.9 C 0 km/h
Sensor: Nr:Datum:Temp:Abs-Feuchte:Windchill:Wind:
Aussen-T/F 976 27-02-2008 03:11:05 6.9 C 4.77 g/m*3 6.9 C 0 km/h
977 27-02-2008 03:23:05 6.9 C 4.62 g/m*3 6.9 C 0 km/h
978 27-02-2008 03:35:05 6.9 C 4.54 g/m*3 6.9 C 0 km/h
979 27-02-2008 03:47:05 7 C 4.42 g/m*3 7 C 0 km/h
980 27-02-2008 03:59:05 6.9 C 4.46 g/m*3 6.9 C 0 km/h
981 27-02-2008 04:11:05 6.9 C 4.54 g/m*3 6.9 C 0 km/h
982 27-02-2008 04:23:05 6.9 C 4.54 g/m*3 6.9 C 0 km/h
983 27-02-2008 04:35:05 6.9 C 4.54 g/m*3 6.9 C 0 km/h
984 27-02-2008 04:47:05 6.7 C 4.64 g/m*3 6.7 C 0 km/h
985 27-02-2008 04:59:05 6.4 C 4.69 g/m*3 6.4 C 0 km/h
986 27-02-2008 05:11:05 6.3 C 4.74 g/m*3 6.3 C 0 km/h
987 27-02-2008 05:23:05 6.2 C 4.78 g/m*3 6.2 C 0 km/h
988 27-02-2008 05:35:05 5.9 C 4.76 g/m*3 5.9 C 0 km/h
989 27-02-2008 05:47:05 5.9 C 4.76 g/m*3 5.9 C 0 km/h
990 27-02-2008 05:59:05 5.7 C 4.77 g/m*3 5.7 C 0 km/h
991 27-02-2008 06:11:05 5.4 C 4.81 g/m*3 5.4 C 0 km/h
992 27-02-2008 06:23:05 5.4 C 4.81 g/m*3 5.4 C 0 km/h
993 27-02-2008 06:35:05 5.6 C 4.81 g/m*3 5.6 C 0 km/h
994 27-02-2008 06:47:06 5.6 C 4.81 g/m*3 5.6 C 0 km/h
995 27-02-2008 06:59:06 5.6 C 4.81 g/m*3 5.6 C 0 km/h
996 27-02-2008 07:11:03 5.6 C 4.81 g/m*3 5.6 C 0 km/h
997 27-02-2008 07:23:02 5.4 C 4.81 g/m*3 5.4 C 0 km/h
998 27-02-2008 07:35:03 5.2 C 4.75 g/m*3 5.2 C 0 km/h
999 27-02-2008 07:47:03 5.1 C 4.79 g/m*3 5.1 C 0 km/h
1000 27-02-2008 07:59:03 5.1 C 4.86 g/m*3 5.1 C 0 km/h
Sensor: Nr:Datum:Temp:Abs-Feuchte:Windchill:Wind:
Aussen-T/F 1001 27-02-2008 08:11:02 5.2 C 4.82 g/m*3 5.2 C 0 km/h
1002 27-02-2008 08:23:02 5.9 C 4.83 g/m*3 5.9 C 0 km/h
1003 27-02-2008 08:35:03 6.3 C 4.66 g/m*3 6.3 C 0 km/h
1004 27-02-2008 08:47:03 6.4 C 4.69 g/m*3 6.4 C 0 km/h
1005 27-02-2008 08:59:03 6.8 C 4.82 g/m*3 6.8 C 0 km/h
1006 27-02-2008 09:11:02 6.7 C 4.71 g/m*3 6.7 C 0 km/h
1007 27-02-2008 09:23:02 6.8 C 4.74 g/m*3 6.8 C 0 km/h
1008 27-02-2008 09:35:03 6.9 C 4.7 g/m*3 6.9 C 0 km/h
1009 27-02-2008 09:47:02 7 C 4.65 g/m*3 7 C 0 km/h
1010 27-02-2008 09:59:02 7.4 C 4.69 g/m*3 7.4 C 0 km/h
1011 27-02-2008 10:11:02 7.5 C 4.64 g/m*3 7.5 C 0 km/h
1012 27-02-2008 10:23:02 7.8 C 4.57 g/m*3 7.8 C 0 km/h
1013 27-02-2008 10:35:02 8.5 C 4.53 g/m*3 8.5 C 0 km/h
1014 27-02-2008 10:47:02 8.9 C 4.47 g/m*3 8.9 C 0 km/h
1015 27-02-2008 10:59:02 8.8 C 4.35 g/m*3 8.8 C 0 km/h
1016 27-02-2008 11:11:02 8.7 C 4.41 g/m*3 8.7 C 0 km/h
1017 27-02-2008 11:23:02 8.9 C 4.38 g/m*3 8.9 C 0 km/h
1018 27-02-2008 11:35:01 9 C 4.32 g/m*3 9 C 0 km/h
1019 27-02-2008 11:47:01 9.2 C 4.38 g/m*3 9.2 C 0 km/h
1020 27-02-2008 11:59:01 9.4 C 4.25 g/m*3 9.4 C 0 km/h
1021 27-02-2008 12:11:02 9.8 C 4.18 g/m*3 9.8 C 0 km/h
1022 27-02-2008 12:23:02 9.6 C 3.94 g/m*3 9.6 C 0 km/h
1023 27-02-2008 12:35:01 9.8 C 4.18 g/m*3 9.8 C 0 km/h
1024 27-02-2008 12:47:01 9.8 C 4.18 g/m*3 9.8 C 0 km/h
1025 27-02-2008 12:59:01 10 C 4.04 g/m*3 10 C 0 km/h
Sensor: Nr:Datum:Temp:Abs-Feuchte:Windchill:Wind:
Aussen-T/F 1026 27-02-2008 13:11:02 10.1 C 4.07 g/m*3 10.1 C 0 km/h
1027 27-02-2008 13:23:01 10 C 3.85 g/m*3 10 C 0 km/h
1028 27-02-2008 13:35:02 10 C 3.95 g/m*3 10 C 0 km/h
1029 27-02-2008 13:47:03 10.4 C 3.86 g/m*3 10.4 C 0 km/h
1030 27-02-2008 13:59:03 10.4 C 3.95 g/m*3 10.4 C 0 km/h
1031 27-02-2008 14:11:02 10.1 C 3.97 g/m*3 10.1 C 0 km/h
1032 27-02-2008 14:23:02 10.1 C 3.88 g/m*3 10.1 C 0 km/h
1033 27-02-2008 14:35:03 10.1 C 3.88 g/m*3 10.1 C 0 km/h
1034 27-02-2008 14:47:02 11.3 C 3.98 g/m*3 11.3 C 0 km/h
1035 27-02-2008 14:59:02 10.9 C 3.98 g/m*3 10.9 C 0 km/h
1036 27-02-2008 15:11:02 11.8 C 3.89 g/m*3 11.8 C 0 km/h
1037 27-02-2008 15:23:02 11.2 C 3.75 g/m*3 11.2 C 0 km/h
1038 27-02-2008 15:35:02 10.9 C 3.68 g/m*3 10.9 C 0 km/h
1039 27-02-2008 15:47:02 11.1 C 3.73 g/m*3 11.1 C 0 km/h
1040 27-02-2008 15:59:02 10.6 C 3.9 g/m*3 10.6 C 0 km/h
1041 27-02-2008 16:11:02 10.7 C 3.83 g/m*3 10.7 C 0 km/h
1042 27-02-2008 16:23:02 10.6 C 3.71 g/m*3 10.6 C 0 km/h
1043 27-02-2008 16:35:02 10.8 C 3.66 g/m*3 10.8 C 0 km/h
1044 27-02-2008 16:47:02 11 C 3.5 g/m*3 11 C 0 km/h
1045 27-02-2008 16:59:02 10.7 C 3.54 g/m*3 10.7 C 0 km/h
1046 27-02-2008 17:11:01 10.8 C 3.85 g/m*3 10.8 C 0 km/h
1047 27-02-2008 17:23:02 10.6 C 3.71 g/m*3 10.6 C 0 km/h
1048 27-02-2008 17:35:02 10.4 C 3.66 g/m*3 10.4 C 0 km/h
1049 27-02-2008 17:47:02 10.1 C 3.69 g/m*3 10.1 C 0 km/h
1050 27-02-2008 17:59:02 9.7 C 3.87 g/m*3 9.7 C 0 km/h
Sensor: Nr:Datum:Temp:Abs-Feuchte:Windchill:Wind:
Aussen-T/F 1051 27-02-2008 18:11:01 9.3 C 4.04 g/m*3 9.3 C 0 km/h
1052 27-02-2008 18:23:01 8.8 C 4.09 g/m*3 8.8 C 0 km/h
1053 27-02-2008 18:35:02 8.6 C 4.04 g/m*3 8.6 C 0 km/h
1054 27-02-2008 18:47:01 8.3 C 4.05 g/m*3 8.3 C 0 km/h
1055 27-02-2008 18:59:01 7.9 C 4.11 g/m*3 7.9 C 0 km/h
1056 27-02-2008 19:11:02 7.6 C 4.11 g/m*3 7.6 C 0 km/h
1057 27-02-2008 19:23:01 7.3 C 4.03 g/m*3 7.3 C 0 km/h
1058 27-02-2008 19:35:01 7.1 C 4.06 g/m*3 7.1 C 0 km/h
1059 27-02-2008 19:47:01 6.9 C 4.08 g/m*3 6.9 C 0 km/h
1060 27-02-2008 19:59:01 6.7 C 4.1 g/m*3 6.7 C 0 km/h
1061 27-02-2008 20:11:02 6.6 C 4.08 g/m*3 6.6 C 0 km/h
1062 27-02-2008 20:23:01 6.8 C 4.13 g/m*3 6.8 C 0 km/h
1063 27-02-2008 20:35:01 6.6 C 4.15 g/m*3 6.6 C 0 km/h
1064 27-02-2008 20:47:01 6.3 C 4.15 g/m*3 6.3 C 0 km/h
1065 27-02-2008 20:59:01 6 C 4.14 g/m*3 6 C 0 km/h
1066 27-02-2008 21:11:01 5.9 C 4.33 g/m*3 5.9 C 0 km/h
1067 27-02-2008 21:23:02 5.8 C 4.37 g/m*3 5.8 C 0 km/h
1068 27-02-2008 21:35:01 5.7 C 4.34 g/m*3 5.7 C 0 km/h
1069 27-02-2008 21:47:02 5.7 C 4.34 g/m*3 5.7 C 0 km/h
1070 27-02-2008 21:59:02 5.3 C 4.3 g/m*3 5.3 C 0 km/h
1071 27-02-2008 22:11:02 5.1 C 4.31 g/m*3 5.1 C 0 km/h
1072 27-02-2008 22:23:01 5 C 4.35 g/m*3 5 C 0 km/h
1073 27-02-2008 22:35:02 5 C 4.35 g/m*3 5 C 0 km/h
1074 27-02-2008 22:47:02 5 C 4.35 g/m*3 5 C 0 km/h
1075 27-02-2008 22:59:02 5.1 C 4.38 g/m*3 5.1 C 0 km/h
Sensor: Nr:Datum:Temp:Abs-Feuchte:Windchill:Wind:
Aussen-T/F 1076 27-02-2008 23:11:01 5.4 C 4.4 g/m*3 5.4 C 0 km/h
1077 27-02-2008 23:24:02 5.5 C 4.42 g/m*3 5.5 C 0 km/h
1078 27-02-2008 23:36:02 5.6 C 4.45 g/m*3 5.6 C 0 km/h
1079 27-02-2008 23:48:02 5.7 C 4.41 g/m*3 5.7 C 0 km/h
1080 28-02-2008 00:00:02 5.7 C 4.41 g/m*3 5.7 C 0 km/h
1081 28-02-2008 00:12:02 5.7 C 4.48 g/m*3 5.7 C 0 km/h
1082 28-02-2008 00:24:02 5.7 C 4.48 g/m*3 5.7 C 0 km/h
1083 28-02-2008 00:36:02 5.8 C 4.51 g/m*3 5.8 C 0 km/h
1084 28-02-2008 00:48:02 5.8 C 4.51 g/m*3 5.8 C 0 km/h
1085 28-02-2008 01:00:02 5.8 C 4.51 g/m*3 5.8 C 0 km/h
1086 28-02-2008 01:12:02 5.9 C 4.54 g/m*3 5.9 C 0 km/h
1087 28-02-2008 01:24:03 6 C 4.5 g/m*3 6 C 0 km/h
1088 28-02-2008 01:36:03 6 C 4.5 g/m*3 6 C 0 km/h
1089 28-02-2008 01:48:03 5.9 C 4.54 g/m*3 5.9 C 0 km/h
1090 28-02-2008 02:00:03 5.9 C 4.61 g/m*3 5.9 C 0 km/h
1091 28-02-2008 02:12:03 5.8 C 4.58 g/m*3 5.8 C 0 km/h
1092 28-02-2008 02:24:03 5.7 C 4.63 g/m*3 5.7 C 0 km/h
1093 28-02-2008 02:36:03 5.3 C 4.57 g/m*3 5.3 C 0 km/h
1094 28-02-2008 02:48:03 5 C 4.48 g/m*3 5 C 0 km/h
1095 28-02-2008 03:00:03 4.9 C 4.59 g/m*3 4.9 C 0 km/h
1096 28-02-2008 03:12:03 4.8 C 4.56 g/m*3 4.8 C 0 km/h
1097 28-02-2008 03:24:03 4.7 C 4.53 g/m*3 4.7 C 0 km/h
1098 28-02-2008 03:36:03 4.5 C 4.47 g/m*3 4.5 C 0 km/h
1099 28-02-2008 03:48:03 4.4 C 4.51 g/m*3 4.4 C 0 km/h
1100 28-02-2008 04:00:03 4 C 4.39 g/m*3 4 C 0 km/h
Sensor: Nr:Datum:Temp:Abs-Feuchte:Windchill:Wind:
Aussen-T/F 1101 28-02-2008 04:12:03 3.9 C 4.48 g/m*3 3.9 C 0 km/h
1102 28-02-2008 04:24:03 4.1 C 4.48 g/m*3 4.1 C 0 km/h
1103 28-02-2008 04:36:03 4.2 C 4.57 g/m*3 4.2 C 0 km/h
1104 28-02-2008 04:48:03 4.3 C 4.67 g/m*3 4.3 C 0 km/h
1105 28-02-2008 05:00:03 4.4 C 4.7 g/m*3 4.4 C 0 km/h
1106 28-02-2008 05:12:04 4.3 C 4.67 g/m*3 4.3 C 0 km/h
1107 28-02-2008 05:24:04 4.5 C 4.73 g/m*3 4.5 C 0 km/h
1108 28-02-2008 05:36:04 4.1 C 4.61 g/m*3 4.1 C 0 km/h
1109 28-02-2008 05:48:04 4.3 C 4.67 g/m*3 4.3 C 0 km/h
1110 28-02-2008 06:00:04 4.5 C 4.67 g/m*3 4.5 C 0 km/h
1111 28-02-2008 06:12:04 4.4 C 4.57 g/m*3 4.4 C 0 km/h
1112 28-02-2008 06:24:04 4.7 C 4.66 g/m*3 4.7 C 0 km/h
1113 28-02-2008 06:36:04 4.8 C 4.56 g/m*3 4.8 C 0 km/h
1114 28-02-2008 06:48:04 4.9 C 4.59 g/m*3 4.9 C 0 km/h
1115 28-02-2008 07:00:04 4.9 C 4.66 g/m*3 4.9 C 0 km/h
1116 28-02-2008 07:12:02 5 C 4.55 g/m*3 5 C 0 km/h
1117 28-02-2008 07:24:02 5.1 C 4.58 g/m*3 5.1 C 0 km/h
1118 28-02-2008 07:36:01 5.2 C 4.54 g/m*3 5.2 C 0 km/h
1119 28-02-2008 07:48:02 5.1 C 4.58 g/m*3 5.1 C 0 km/h
1120 28-02-2008 08:00:02 5.3 C 4.64 g/m*3 5.3 C 0 km/h
1121 28-02-2008 08:12:02 5.5 C 4.64 g/m*3 5.5 C 0 km/h
1122 28-02-2008 08:24:02 5.6 C 4.67 g/m*3 5.6 C 0 km/h
1123 28-02-2008 08:36:02 5.8 C 4.66 g/m*3 5.8 C 0 km/h
1124 28-02-2008 08:48:02 5.8 C 4.73 g/m*3 5.8 C 0 km/h
1125 28-02-2008 09:00:02 5.9 C 4.69 g/m*3 5.9 C 0 km/h
Sensor: Nr:Datum:Temp:Abs-Feuchte:Windchill:Wind:
Aussen-T/F 1126 28-02-2008 09:12:02 6 C 4.65 g/m*3 6 C 0 km/h
1127 28-02-2008 09:24:01 6.2 C 4.56 g/m*3 6.2 C 0 km/h
1128 28-02-2008 09:36:01 6.6 C 4.6 g/m*3 6.6 C 0 km/h
1129 28-02-2008 09:48:01 6.9 C 4.7 g/m*3 6.9 C 0 km/h
1130 28-02-2008 10:00:01 7.1 C 4.6 g/m*3 7.1 C 0 km/h
1131 28-02-2008 10:12:02 7.4 C 4.61 g/m*3 7.4 C 0 km/h
1132 28-02-2008 10:24:01 7.6 C 4.59 g/m*3 7.6 C 0 km/h
1133 28-02-2008 10:36:01 8 C 4.55 g/m*3 8 C 0 km/h
1134 28-02-2008 10:48:01 8.2 C 4.61 g/m*3 8.2 C 0 km/h
1135 28-02-2008 11:00:01 8.5 C 4.53 g/m*3 8.5 C 0 km/h
1136 28-02-2008 11:12:01 9 C 4.58 g/m*3 9 C 0 km/h
1137 28-02-2008 11:24:02 9.3 C 4.22 g/m*3 9.3 C 0 km/h
1138 28-02-2008 11:36:01 9.3 C 4.04 g/m*3 9.3 C 0 km/h
1139 28-02-2008 11:48:02 9.6 C 3.76 g/m*3 9.6 C 0 km/h
1140 28-02-2008 12:00:02 9.8 C 3.34 g/m*3 9.8 C 0 km/h
1141 28-02-2008 12:12:02 9.8 C 2.97 g/m*3 9.8 C 0 km/h
1142 28-02-2008 12:24:02 10 C 3.01 g/m*3 10 C 0 km/h
1143 28-02-2008 12:36:01 10.3 C 3.06 g/m*3 10.3 C 0 km/h
1144 28-02-2008 12:48:01 10.8 C 3.06 g/m*3 10.8 C 0 km/h
1145 28-02-2008 13:00:01 11 C 2.9 g/m*3 11 C 0 km/h
1146 28-02-2008 13:12:02 11.2 C 2.94 g/m*3 11.2 C 0 km/h
1147 28-02-2008 13:24:02 11.4 C 3.08 g/m*3 11.4 C 0 km/h
1148 28-02-2008 13:36:02 11.6 C 3.01 g/m*3 11.6 C 0 km/h
1149 28-02-2008 13:48:02 11.5 C 3 g/m*3 11.5 C 0 km/h
1150 28-02-2008 14:00:02 11.7 C 3.14 g/m*3 11.7 C 0 km/h
Sensor: Nr:Datum:Temp:Abs-Feuchte:Windchill:Wind:
Aussen-T/F 1151 28-02-2008 14:12:02 11.8 C 3.16 g/m*3 11.8 C 0 km/h
1152 28-02-2008 14:24:02 11.8 C 3.05 g/m*3 11.8 C 0 km/h
1153 28-02-2008 14:36:02 11.8 C 3.05 g/m*3 11.8 C 0 km/h
1154 28-02-2008 14:48:02 12.2 C 3.13 g/m*3 12.2 C 0 km/h
1155 28-02-2008 15:00:02 12.4 C 3.06 g/m*3 12.4 C 0 km/h
1156 28-02-2008 15:12:02 12.4 C 3.06 g/m*3 12.4 C 0 km/h
1157 28-02-2008 15:24:02 12.3 C 3.15 g/m*3 12.3 C 0 km/h
1158 28-02-2008 15:36:01 11.9 C 3.28 g/m*3 11.9 C 0 km/h
1159 28-02-2008 15:48:01 11.8 C 3.26 g/m*3 11.8 C 0 km/h
1160 28-02-2008 16:00:01 11.7 C 3.35 g/m*3 11.7 C 0 km/h
1161 28-02-2008 16:12:02 11.7 C 3.35 g/m*3 11.7 C 0 km/h
1162 28-02-2008 16:24:02 11.8 C 3.37 g/m*3 11.8 C 0 km/h
1163 28-02-2008 16:36:02 11.7 C 3.45 g/m*3 11.7 C 0 km/h
1164 28-02-2008 16:48:02 11.4 C 3.49 g/m*3 11.4 C 0 km/h
1165 28-02-2008 17:00:02 11.4 C 3.59 g/m*3 11.4 C 0 km/h
1166 28-02-2008 17:12:02 11.3 C 3.57 g/m*3 11.3 C 0 km/h
1167 28-02-2008 17:24:02 11.2 C 3.65 g/m*3 11.2 C 0 km/h
1168 28-02-2008 17:36:02 11.1 C 3.63 g/m*3 11.1 C 0 km/h
1169 28-02-2008 17:48:02 10.7 C 4.22 g/m*3 10.7 C 0 km/h
1170 28-02-2008 18:00:02 10 C 4.79 g/m*3 10 C 0 km/h
1171 28-02-2008 18:12:02 9.1 C 5.23 g/m*3 9.1 C 0 km/h
1172 28-02-2008 18:24:02 8.7 C 5.36 g/m*3 8.7 C 0 km/h
1173 28-02-2008 18:36:01 8.5 C 5.64 g/m*3 8.5 C 0 km/h
1174 28-02-2008 18:48:01 8.2 C 5.78 g/m*3 8.2 C 0 km/h
1175 28-02-2008 19:00:01 7.9 C 6.16 g/m*3 7.9 C 0 km/h
Sensor: Nr:Datum:Temp:Abs-Feuchte:Windchill:Wind:
Aussen-T/F 1176 28-02-2008 19:12:02 7.5 C 6.32 g/m*3 7.5 C 0 km/h
1177 28-02-2008 19:24:02 7.5 C 6.56 g/m*3 7.5 C 0 km/h
1178 28-02-2008 19:36:02 7.5 C 6.72 g/m*3 7.5 C 0 km/h
1179 28-02-2008 19:48:02 7.5 C 6.72 g/m*3 7.5 C 0 km/h
1180 28-02-2008 20:00:02 7.7 C 6.81 g/m*3 7.7 C 0 km/h
1181 28-02-2008 20:12:02 7.5 C 6.8 g/m*3 7.5 C 0 km/h
1182 28-02-2008 20:24:02 7.6 C 6.93 g/m*3 7.6 C 0 km/h
1183 28-02-2008 20:36:02 7.5 C 6.96 g/m*3 7.5 C 0 km/h
1184 28-02-2008 20:48:01 7.5 C 6.96 g/m*3 7.5 C 0 km/h
1185 28-02-2008 21:00:01 7.4 C 6.92 g/m*3 7.4 C 0 km/h
1186 28-02-2008 21:12:01 7.4 C 7 g/m*3 7.4 C 0 km/h
1187 28-02-2008 21:24:01 7.3 C 6.95 g/m*3 7.3 C 0 km/h
1188 28-02-2008 21:36:02 7.3 C 6.95 g/m*3 7.3 C 0 km/h
1189 28-02-2008 21:48:02 7.2 C 6.99 g/m*3 7.2 C 0 km/h
1190 28-02-2008 22:00:02 7.2 C 6.99 g/m*3 7.2 C 0 km/h
1191 28-02-2008 22:12:02 7.2 C 6.99 g/m*3 7.2 C 0 km/h
1192 28-02-2008 22:24:02 7.2 C 6.99 g/m*3 7.2 C 0 km/h
1193 28-02-2008 22:36:03 7.2 C 7.06 g/m*3 7.2 C 0 km/h
1194 28-02-2008 22:49:04 7.2 C 7.06 g/m*3 7.2 C 0 km/h
1195 28-02-2008 23:01:04 7.2 C 7.06 g/m*3 7.2 C 0 km/h
1196 28-02-2008 23:13:04 7.1 C 7.02 g/m*3 7.1 C 0 km/h
1197 28-02-2008 23:25:04 7.1 C 7.02 g/m*3 7.1 C 0 km/h
1198 28-02-2008 23:37:04 7.1 C 7.02 g/m*3 7.1 C 0 km/h
1199 28-02-2008 23:49:04 7.1 C 7.1 g/m*3 7.1 C 0 km/h
1200 29-02-2008 00:01:04 7.2 C 7.14 g/m*3 7.2 C 0 km/h
Sensor: Nr:Datum:Temp:Abs-Feuchte:Windchill:Wind:
Aussen-T/F 1201 29-02-2008 00:13:04 7.1 C 7.1 g/m*3 7.1 C 0 km/h
1202 29-02-2008 00:25:04 7 C 7.05 g/m*3 7 C 0 km/h
1203 29-02-2008 00:37:04 7 C 7.05 g/m*3 7 C 0 km/h
1204 29-02-2008 00:49:04 7 C 7.05 g/m*3 7 C 0 km/h
1205 29-02-2008 01:01:04 6.8 C 7.04 g/m*3 6.8 C 0 km/h
1206 29-02-2008 01:13:05 6.9 C 7.16 g/m*3 6.9 C 0 km/h
1207 29-02-2008 01:25:05 6.9 C 7.16 g/m*3 6.9 C 0 km/h
1208 29-02-2008 01:37:05 7 C 7.13 g/m*3 7 C 0 km/h
1209 29-02-2008 01:49:05 7 C 7.21 g/m*3 7 C 0 km/h
1210 29-02-2008 02:01:05 7 C 7.21 g/m*3 7 C 0 km/h
1211 29-02-2008 02:13:05 7 C 7.21 g/m*3 7 C 0 km/h
1212 29-02-2008 02:25:05 7 C 7.21 g/m*3 7 C 0 km/h
1213 29-02-2008 02:37:05 7.1 C 7.25 g/m*3 7.1 C 0 km/h
1214 29-02-2008 02:49:05 7.1 C 7.25 g/m*3 7.1 C 0 km/h
1215 29-02-2008 03:01:05 7.1 C 7.25 g/m*3 7.1 C 0 km/h
1216 29-02-2008 03:13:05 7.1 C 7.25 g/m*3 7.1 C 0 km/h
1217 29-02-2008 03:25:05 7 C 7.21 g/m*3 7 C 0 km/h
1218 29-02-2008 03:37:05 7 C 7.21 g/m*3 7 C 0 km/h
1219 29-02-2008 03:49:05 7 C 7.21 g/m*3 7 C 0 km/h
1220 29-02-2008 04:01:05 7 C 7.21 g/m*3 7 C 0 km/h
1221 29-02-2008 04:13:05 6.9 C 7.24 g/m*3 6.9 C 0 km/h
1222 29-02-2008 04:25:05 6.9 C 7.24 g/m*3 6.9 C 0 km/h
1223 29-02-2008 04:37:05 7 C 7.28 g/m*3 7 C 0 km/h
1224 29-02-2008 04:49:05 7 C 7.28 g/m*3 7 C 0 km/h
1225 29-02-2008 05:01:06 6.9 C 7.24 g/m*3 6.9 C 0 km/h
Sensor: Nr:Datum:Temp:Abs-Feuchte:Windchill:Wind:
Aussen-T/F 1226 29-02-2008 05:13:06 6.9 C 7.31 g/m*3 6.9 C 0 km/h
1227 29-02-2008 05:25:06 7 C 7.28 g/m*3 7 C 0 km/h
1228 29-02-2008 05:37:06 7 C 7.28 g/m*3 7 C 0 km/h
1229 29-02-2008 05:49:06 7.1 C 7.33 g/m*3 7.1 C 0 km/h
1230 29-02-2008 06:01:06 7.1 C 7.33 g/m*3 7.1 C 0 km/h
1231 29-02-2008 06:13:06 7.1 C 7.33 g/m*3 7.1 C 0 km/h
1232 29-02-2008 06:25:06 7.1 C 7.41 g/m*3 7.1 C 0 km/h
1233 29-02-2008 06:37:06 7.1 C 7.41 g/m*3 7.1 C 0 km/h
1234 29-02-2008 06:49:01 7.1 C 7.41 g/m*3 7.1 C 0 km/h
1235 29-02-2008 07:01:02 7.1 C 7.41 g/m*3 7.1 C 0 km/h
1236 29-02-2008 07:13:02 7 C 7.36 g/m*3 7 C 0 km/h
1237 29-02-2008 07:25:01 7.1 C 7.41 g/m*3 7.1 C 0 km/h
1238 29-02-2008 07:37:01 7.2 C 7.46 g/m*3 7.2 C 0 km/h
1239 29-02-2008 07:49:01 7.3 C 7.51 g/m*3 7.3 C 0 km/h
1240 29-02-2008 08:01:02 7.4 C 7.55 g/m*3 7.4 C 0 km/h
1241 29-02-2008 08:13:02 7.3 C 7.51 g/m*3 7.3 C 0 km/h
1242 29-02-2008 08:25:01 7.4 C 7.55 g/m*3 7.4 C 0 km/h
1243 29-02-2008 08:37:01 7.4 C 7.55 g/m*3 7.4 C 0 km/h
1244 29-02-2008 08:49:02 7.4 C 7.55 g/m*3 7.4 C 0 km/h
1245 29-02-2008 09:01:02 7.4 C 7.55 g/m*3 7.4 C 0 km/h
1246 29-02-2008 09:13:03 7.4 C 7.55 g/m*3 7.4 C 0 km/h
1247 29-02-2008 09:25:02 7.8 C 7.75 g/m*3 7.8 C 0 km/h
1248 29-02-2008 09:37:03 7.8 C 7.75 g/m*3 7.8 C 0 km/h
1249 29-02-2008 09:49:02 7.7 C 7.7 g/m*3 7.7 C 0 km/h
1250 29-02-2008 10:01:02 7.9 C 7.8 g/m*3 7.9 C 0 km/h
Sensor: Nr:Datum:Temp:Abs-Feuchte:Windchill:Wind:
Aussen-T/F 1251 29-02-2008 10:13:02 8 C 7.85 g/m*3 8 C 0 km/h
1252 29-02-2008 10:25:02 8.3 C 8.01 g/m*3 8.3 C 0 km/h
1253 29-02-2008 10:37:02 8.6 C 8.16 g/m*3 8.6 C 0 km/h
1254 29-02-2008 10:49:02 8.8 C 8.27 g/m*3 8.8 C 0 km/h
1255 29-02-2008 11:01:02 8.8 C 8.27 g/m*3 8.8 C 0 km/h
1256 29-02-2008 11:13:02 9 C 8.38 g/m*3 9 C 0 km/h
1257 29-02-2008 11:25:01 9.1 C 8.43 g/m*3 9.1 C 0 km/h
1258 29-02-2008 11:37:02 9.1 C 8.43 g/m*3 9.1 C 0 km/h
1259 29-02-2008 11:49:02 9.1 C 8.43 g/m*3 9.1 C 0 km/h
1260 29-02-2008 12:01:01 9.5 C 8.65 g/m*3 9.5 C 0 km/h
1261 29-02-2008 12:13:01 9.8 C 8.81 g/m*3 9.8 C 0 km/h
1262 29-02-2008 12:25:01 10 C 8.83 g/m*3 10 C 0 km/h
1263 29-02-2008 12:37:02 9.9 C 8.78 g/m*3 9.9 C 0 km/h
1264 29-02-2008 12:49:02 10.2 C 8.85 g/m*3 10.2 C 0 km/h
1265 29-02-2008 13:01:02 10 C 8.64 g/m*3 10 C 0 km/h
1266 29-02-2008 13:13:02 9.9 C 8.68 g/m*3 9.9 C 0 km/h
1267 29-02-2008 13:25:02 10 C 8.64 g/m*3 10 C 0 km/h
1268 29-02-2008 13:37:02 10.2 C 8.76 g/m*3 10.2 C 0 km/h
1269 29-02-2008 13:49:02 10.6 C 8.88 g/m*3 10.6 C 0 km/h
1270 29-02-2008 14:01:02 11 C 9.01 g/m*3 11 C 0 km/h
1271 29-02-2008 14:13:02 11.1 C 8.86 g/m*3 11.1 C 0 km/h
1272 29-02-2008 14:25:01 11.1 C 8.46 g/m*3 11.1 C 0 km/h
1273 29-02-2008 14:37:02 11.1 C 8.26 g/m*3 11.1 C 0 km/h
1274 29-02-2008 14:49:02 11 C 8.11 g/m*3 11 C 0 km/h
1275 29-02-2008 15:01:03 10.9 C 6.86 g/m*3 10.9 C 0 km/h
Sensor: Nr:Datum:Temp:Abs-Feuchte:Windchill:Wind:
Aussen-T/F 1276 29-02-2008 15:13:03 10.8 C 6.23 g/m*3 10.8 C 0 km/h
1277 29-02-2008 15:25:02 10.7 C 6.09 g/m*3 10.7 C 0 km/h
1278 29-02-2008 15:37:02 10.7 C 6.09 g/m*3 10.7 C 0 km/h
1279 29-02-2008 15:49:01 10.7 C 5.89 g/m*3 10.7 C 0 km/h
1280 29-02-2008 16:01:02 10.8 C 5.83 g/m*3 10.8 C 0 km/h
1281 29-02-2008 16:13:02 10.8 C 5.83 g/m*3 10.8 C 0 km/h
1282 29-02-2008 16:25:02 10.6 C 5.56 g/m*3 10.6 C 0 km/h
1283 29-02-2008 16:37:01 10.5 C 5.63 g/m*3 10.5 C 0 km/h
1284 29-02-2008 16:49:01 10.5 C 5.53 g/m*3 10.5 C 0 km/h
1285 29-02-2008 17:01:02 10.4 C 5.49 g/m*3 10.4 C 0 km/h
1286 29-02-2008 17:13:02 10.4 C 5.49 g/m*3 10.4 C 0 km/h
1287 29-02-2008 17:25:02 10.3 C 5.55 g/m*3 10.3 C 0 km/h
1288 29-02-2008 17:37:02 10.2 C 5.61 g/m*3 10.2 C 0 km/h
1289 29-02-2008 17:49:02 10.2 C 5.61 g/m*3 10.2 C 0 km/h
1290 29-02-2008 18:01:02 10.1 C 5.77 g/m*3 10.1 C 0 km/h
1291 29-02-2008 18:13:02 9.9 C 5.88 g/m*3 9.9 C 0 km/h
1292 29-02-2008 18:25:02 9.8 C 5.94 g/m*3 9.8 C 0 km/h
1293 29-02-2008 18:37:02 9.8 C 6.12 g/m*3 9.8 C 0 km/h
1294 29-02-2008 18:49:02 9.7 C 5.99 g/m*3 9.7 C 0 km/h
1295 29-02-2008 19:01:02 9.6 C 6.05 g/m*3 9.6 C 0 km/h
1296 29-02-2008 19:13:02 9.6 C 6.14 g/m*3 9.6 C 0 km/h
1297 29-02-2008 19:25:02 9.6 C 6.14 g/m*3 9.6 C 0 km/h
1298 29-02-2008 19:37:02 9.5 C 6.28 g/m*3 9.5 C 0 km/h
1299 29-02-2008 19:49:02 9.5 C 6.37 g/m*3 9.5 C 0 km/h
1300 29-02-2008 20:01:02 9.5 C 6.37 g/m*3 9.5 C 0 km/h
Sensor: Nr:Datum:Temp:Abs-Feuchte:Windchill:Wind:
Aussen-T/F 1301 29-02-2008 20:13:02 9.5 C 6.37 g/m*3 9.5 C 0 km/h
1302 29-02-2008 20:25:02 9.6 C 6.5 g/m*3 9.6 C 0 km/h
1303 29-02-2008 20:37:02 9.6 C 6.5 g/m*3 9.6 C 0 km/h
1304 29-02-2008 20:49:02 9.7 C 6.55 g/m*3 9.7 C 0 km/h
1305 29-02-2008 21:01:02 9.8 C 6.49 g/m*3 9.8 C 0 km/h
1306 29-02-2008 21:13:02 10 C 6.39 g/m*3 10 C 0 km/h
1307 29-02-2008 21:25:03 10.2 C 6.38 g/m*3 10.2 C 0 km/h
1308 29-02-2008 21:37:02 10.3 C 6.32 g/m*3 10.3 C 0 km/h
1309 29-02-2008 21:49:01 10.3 C 6.42 g/m*3 10.3 C 0 km/h
1310 29-02-2008 22:01:01 10.4 C 6.26 g/m*3 10.4 C 0 km/h
1311 29-02-2008 22:13:01 10.3 C 6.22 g/m*3 10.3 C 0 km/h
1312 29-02-2008 22:25:02 10.2 C 6.09 g/m*3 10.2 C 0 km/h
1313 29-02-2008 22:37:02 10 C 6.11 g/m*3 10 C 0 km/h
1314 29-02-2008 22:49:02 9.9 C 6.26 g/m*3 9.9 C 0 km/h
1315 29-02-2008 23:01:02 9.9 C 6.26 g/m*3 9.9 C 0 km/h
1316 29-02-2008 23:13:02 9.8 C 6.03 g/m*3 9.8 C 0 km/h
1317 29-02-2008 23:25:02 9.7 C 5.99 g/m*3 9.7 C 0 km/h
1318 29-02-2008 23:37:02 9.5 C 6.01 g/m*3 9.5 C 0 km/h
1319 29-02-2008 23:49:01 9.4 C 6.15 g/m*3 9.4 C 0 km/h
1320 01-03-2008 00:01:01 9.2 C 6.25 g/m*3 9.2 C 0 km/h
1321 01-03-2008 00:13:01 9.2 C 6.43 g/m*3 9.2 C 0 km/h
1322 01-03-2008 00:25:01 9.3 C 6.47 g/m*3 9.3 C 0 km/h
1323 01-03-2008 00:37:01 9.4 C 6.6 g/m*3 9.4 C 0 km/h
1324 01-03-2008 00:49:01 9.6 C 6.5 g/m*3 9.6 C 0 km/h
1325 01-03-2008 01:01:02 9.6 C 6.5 g/m*3 9.6 C 0 km/h
Sensor: Nr:Datum:Temp:Abs-Feuchte:Windchill:Wind:
Aussen-T/F 1326 01-03-2008 01:13:02 9.6 C 6.6 g/m*3 9.6 C 0 km/h
1327 01-03-2008 01:25:01 9.8 C 6.68 g/m*3 9.8 C 0 km/h
1328 01-03-2008 01:37:01 9.9 C 6.72 g/m*3 9.9 C 0 km/h
1329 01-03-2008 01:49:01 10.1 C 6.62 g/m*3 10.1 C 0 km/h
1330 01-03-2008 02:01:02 10.2 C 6.76 g/m*3 10.2 C 0 km/h
1331 01-03-2008 02:13:02 10.3 C 6.9 g/m*3 10.3 C 0 km/h
1332 01-03-2008 02:25:01 10.1 C 7.09 g/m*3 10.1 C 0 km/h
1333 01-03-2008 02:37:01 10.2 C 7.04 g/m*3 10.2 C 0 km/h
1334 01-03-2008 02:50:02 10.3 C 7.09 g/m*3 10.3 C 0 km/h
1335 01-03-2008 03:02:02 10.3 C 7.09 g/m*3 10.3 C 0 km/h
1336 01-03-2008 03:14:03 10.2 C 7.04 g/m*3 10.2 C 0 km/h
1337 01-03-2008 03:26:03 10 C 7.14 g/m*3 10 C 0 km/h
1338 01-03-2008 03:38:01 10.1 C 7.19 g/m*3 10.1 C 0 km/h
1339 01-03-2008 03:50:01 10 C 7.05 g/m*3 10 C 0 km/h
1340 01-03-2008 04:02:02 10 C 7.14 g/m*3 10 C 0 km/h
1341 01-03-2008 04:14:02 10 C 7.05 g/m*3 10 C 0 km/h
1342 01-03-2008 04:26:02 10.1 C 7 g/m*3 10.1 C 0 km/h
1343 01-03-2008 04:38:01 9.9 C 7.19 g/m*3 9.9 C 0 km/h
1344 01-03-2008 04:50:01 9.8 C 7.42 g/m*3 9.8 C 0 km/h
1345 01-03-2008 05:02:02 9.8 C 7.42 g/m*3 9.8 C 0 km/h
1346 01-03-2008 05:14:02 9.9 C 7.47 g/m*3 9.9 C 0 km/h
1347 01-03-2008 05:26:02 9.9 C 7.56 g/m*3 9.9 C 0 km/h
1348 01-03-2008 05:38:01 10 C 7.42 g/m*3 10 C 0 km/h
1349 01-03-2008 05:50:02 10 C 7.42 g/m*3 10 C 0 km/h
1350 01-03-2008 06:02:02 10 C 7.71 g/m*3 10 C 0 km/h
Sensor: Nr:Datum:Temp:Abs-Feuchte:Windchill:Wind:
Aussen-T/F 1351 01-03-2008 06:14:02 9.6 C 7.79 g/m*3 9.6 C 0 km/h
1352 01-03-2008 06:26:01 10.1 C 7.47 g/m*3 10.1 C 0 km/h
1353 01-03-2008 06:38:02 10.7 C 6.97 g/m*3 10.7 C 0 km/h
1354 01-03-2008 06:50:53 11.1 C 6.55 g/m*3 11.1 C 0 km/h
1355 01-03-2008 07:02:53 7 C 5.5 g/m*3 7 C 0 km/h
1356 01-03-2008 07:14:53 5.8 C 5.8 g/m*3 5.8 C 0 km/h
1357 01-03-2008 07:26:53 6.1 C 5.84 g/m*3 6.1 C 0 km/h
1358 01-03-2008 07:38:53 6.6 C 5.28 g/m*3 6.6 C 0 km/h
1359 01-03-2008 07:50:53 7.1 C 4.76 g/m*3 7.1 C 0 km/h
1360 01-03-2008 08:02:03 7.4 C 4.69 g/m*3 7.4 C 0 km/h
1361 01-03-2008 08:14:03 7.7 C 4.62 g/m*3 7.7 C 0 km/h
1362 01-03-2008 08:26:03 7.9 C 4.52 g/m*3 7.9 C 0 km/h
1363 01-03-2008 08:38:02 8.2 C 4.35 g/m*3 8.2 C 0 km/h
1364 01-03-2008 08:50:02 8.5 C 4.27 g/m*3 8.5 C 0 km/h
1365 01-03-2008 09:02:02 8.5 C 4.18 g/m*3 8.5 C 0 km/h
1366 01-03-2008 09:14:02 8.6 C 3.87 g/m*3 8.6 C 0 km/h
1367 01-03-2008 09:26:02 8.7 C 3.89 g/m*3 8.7 C 0 km/h
1368 01-03-2008 09:38:02 9 C 3.61 g/m*3 9 C 0 km/h
1369 01-03-2008 09:50:02 9 C 3.7 g/m*3 9 C 0 km/h
1370 01-03-2008 10:02:02 9.2 C 3.75 g/m*3 9.2 C 0 km/h
1371 01-03-2008 10:14:02 9.2 C 3.75 g/m*3 9.2 C 0 km/h
1372 01-03-2008 10:26:01 9.3 C 3.77 g/m*3 9.3 C 0 km/h
1373 01-03-2008 10:38:01 9.2 C 3.75 g/m*3 9.2 C 0 km/h
1374 01-03-2008 10:50:02 9.1 C 3.73 g/m*3 9.1 C 0 km/h
1375 01-03-2008 11:02:01 9.2 C 3.75 g/m*3 9.2 C 0 km/h
Sensor: Nr:Datum:Temp:Abs-Feuchte:Windchill:Wind:
Aussen-T/F 1376 01-03-2008 11:14:01 9.2 C 3.75 g/m*3 9.2 C 0 km/h
1377 01-03-2008 11:26:01 9.1 C 3.9 g/m*3 9.1 C 0 km/h
1378 01-03-2008 11:38:02 9.2 C 3.93 g/m*3 9.2 C 0 km/h
1379 01-03-2008 11:50:01 9.3 C 3.95 g/m*3 9.3 C 0 km/h
1380 01-03-2008 12:02:02 9.3 C 4.13 g/m*3 9.3 C 0 km/h
1381 01-03-2008 12:14:02 9.4 C 4.16 g/m*3 9.4 C 0 km/h
1382 01-03-2008 12:26:02 9.4 C 4.07 g/m*3 9.4 C 0 km/h
1383 01-03-2008 12:38:01 9.5 C 4.01 g/m*3 9.5 C 0 km/h
1384 01-03-2008 12:50:02 9.4 C 4.07 g/m*3 9.4 C 0 km/h
1385 01-03-2008 13:02:01 9.3 C 4.13 g/m*3 9.3 C 0 km/h
1386 01-03-2008 13:14:01 9.2 C 4.11 g/m*3 9.2 C 0 km/h
1387 01-03-2008 13:26:01 9.1 C 4.17 g/m*3 9.1 C 0 km/h
1388 01-03-2008 13:38:02 9.2 C 4.11 g/m*3 9.2 C 0 km/h
1389 01-03-2008 13:50:01 9.3 C 4.04 g/m*3 9.3 C 0 km/h
1390 01-03-2008 14:02:02 9.6 C 4.12 g/m*3 9.6 C 0 km/h
1391 01-03-2008 14:14:02 9.7 C 3.96 g/m*3 9.7 C 0 km/h
1392 01-03-2008 14:26:02 9.9 C 3.92 g/m*3 9.9 C 0 km/h
1393 01-03-2008 14:38:01 10.4 C 3.86 g/m*3 10.4 C 0 km/h
1394 01-03-2008 14:50:02 11.1 C 3.63 g/m*3 11.1 C 0 km/h
1395 01-03-2008 15:02:01 11.3 C 3.57 g/m*3 11.3 C 0 km/h
1396 01-03-2008 15:14:01 11.5 C 3.41 g/m*3 11.5 C 0 km/h
1397 01-03-2008 15:26:01 11.3 C 3.26 g/m*3 11.3 C 0 km/h
1398 01-03-2008 15:38:02 11.5 C 3.31 g/m*3 11.5 C 0 km/h
1399 01-03-2008 15:50:02 11.3 C 3.06 g/m*3 11.3 C 0 km/h
1400 01-03-2008 16:02:02 11.4 C 2.98 g/m*3 11.4 C 0 km/h
Sensor: Nr:Datum:Temp:Abs-Feuchte:Windchill:Wind:
Aussen-T/F 1401 01-03-2008 16:14:02 11.5 C 2.89 g/m*3 11.5 C 0 km/h
1402 01-03-2008 16:26:02 11.1 C 2.82 g/m*3 11.1 C 0 km/h
1403 01-03-2008 16:38:03 10.8 C 2.87 g/m*3 10.8 C 0 km/h
1404 01-03-2008 16:50:01 10.6 C 2.93 g/m*3 10.6 C 0 km/h
1405 01-03-2008 17:02:02 10.7 C 3.04 g/m*3 10.7 C 0 km/h
1406 01-03-2008 17:14:02 10.8 C 2.97 g/m*3 10.8 C 0 km/h
1407 01-03-2008 17:26:02 10.5 C 3.01 g/m*3 10.5 C 0 km/h
1408 01-03-2008 17:38:01 10.4 C 2.99 g/m*3 10.4 C 0 km/h
1409 01-03-2008 17:50:02 10.1 C 3.22 g/m*3 10.1 C 0 km/h
1410 01-03-2008 18:02:02 10 C 3.29 g/m*3 10 C 0 km/h
1411 01-03-2008 18:14:02 9.8 C 3.34 g/m*3 9.8 C 0 km/h
1412 01-03-2008 18:26:02 9.7 C 3.5 g/m*3 9.7 C 0 km/h
1413 01-03-2008 18:38:02 9.6 C 3.48 g/m*3 9.6 C 0 km/h
1414 01-03-2008 18:50:02 9.5 C 3.55 g/m*3 9.5 C 0 km/h
1415 01-03-2008 19:02:02 9.5 C 3.55 g/m*3 9.5 C 0 km/h
1416 01-03-2008 19:14:02 9.3 C 3.59 g/m*3 9.3 C 0 km/h
1417 01-03-2008 19:26:02 9.3 C 3.59 g/m*3 9.3 C 0 km/h
1418 01-03-2008 19:38:01 9.3 C 3.68 g/m*3 9.3 C 0 km/h
1419 01-03-2008 19:50:02 9.2 C 3.75 g/m*3 9.2 C 0 km/h
1420 01-03-2008 20:02:01 8.6 C 4.3 g/m*3 8.6 C 0 km/h
1421 01-03-2008 20:14:01 8.4 C 4.41 g/m*3 8.4 C 0 km/h
1422 01-03-2008 20:26:02 8.6 C 4.38 g/m*3 8.6 C 0 km/h
1423 01-03-2008 20:38:02 8.8 C 4.35 g/m*3 8.8 C 0 km/h
1424 01-03-2008 20:50:02 8.9 C 4.38 g/m*3 8.9 C 0 km/h
1425 01-03-2008 21:02:01 8.9 C 4.47 g/m*3 8.9 C 0 km/h
Sensor: Nr:Datum:Temp:Abs-Feuchte:Windchill:Wind:
Aussen-T/F 1426 01-03-2008 21:14:01 8.9 C 4.38 g/m*3 8.9 C 0 km/h
1427 01-03-2008 21:26:01 9 C 4.32 g/m*3 9 C 0 km/h
1428 01-03-2008 21:38:02 9 C 4.32 g/m*3 9 C 0 km/h
1429 01-03-2008 21:50:02 8.9 C 4.29 g/m*3 8.9 C 0 km/h
1430 01-03-2008 22:02:02 8.8 C 4.35 g/m*3 8.8 C 0 km/h
1431 01-03-2008 22:14:02 8.7 C 4.41 g/m*3 8.7 C 0 km/h
1432 01-03-2008 22:26:02 8.7 C 4.41 g/m*3 8.7 C 0 km/h
1433 01-03-2008 22:38:03 8.9 C 4.29 g/m*3 8.9 C 0 km/h
1434 01-03-2008 22:50:02 8.9 C 4.2 g/m*3 8.9 C 0 km/h
1435 01-03-2008 23:02:02 8.9 C 4.2 g/m*3 8.9 C 0 km/h
1436 01-03-2008 23:14:03 8.8 C 4.09 g/m*3 8.8 C 0 km/h
1437 01-03-2008 23:26:02 8.7 C 4.06 g/m*3 8.7 C 0 km/h
1438 01-03-2008 23:38:01 8.8 C 4 g/m*3 8.8 C 0 km/h
1439 01-03-2008 23:50:01 8.7 C 4.06 g/m*3 8.7 C 0 km/h
1440 02-03-2008 00:02:02 8.7 C 4.06 g/m*3 8.7 C 0 km/h
1441 02-03-2008 00:14:02 8.7 C 3.98 g/m*3 8.7 C 0 km/h
1442 02-03-2008 00:27:04 8.7 C 4.06 g/m*3 8.7 C 0 km/h
1443 02-03-2008 00:39:04 8.6 C 4.04 g/m*3 8.6 C 0 km/h
1444 02-03-2008 00:51:04 8.5 C 4.1 g/m*3 8.5 C 0 km/h
1445 02-03-2008 01:03:04 8.5 C 4.1 g/m*3 8.5 C 0 km/h
1446 02-03-2008 01:15:04 8.5 C 4.18 g/m*3 8.5 C 0 km/h
1447 02-03-2008 01:27:04 8.6 C 4.12 g/m*3 8.6 C 0 km/h
1448 02-03-2008 01:39:05 8.6 C 4.21 g/m*3 8.6 C 0 km/h
1449 02-03-2008 01:51:05 8.6 C 4.21 g/m*3 8.6 C 0 km/h
1450 02-03-2008 02:03:05 8.7 C 4.24 g/m*3 8.7 C 0 km/h
Sensor: Nr:Datum:Temp:Abs-Feuchte:Windchill:Wind:
Aussen-T/F 1451 02-03-2008 02:15:05 8.6 C 4.38 g/m*3 8.6 C 0 km/h
1452 02-03-2008 02:27:05 8.6 C 4.47 g/m*3 8.6 C 0 km/h
1453 02-03-2008 02:39:05 8.7 C 4.41 g/m*3 8.7 C 0 km/h
1454 02-03-2008 02:51:05 8.7 C 4.41 g/m*3 8.7 C 0 km/h
1455 02-03-2008 03:03:05 8.7 C 4.5 g/m*3 8.7 C 0 km/h
1456 02-03-2008 03:15:05 8.7 C 4.58 g/m*3 8.7 C 0 km/h
1457 02-03-2008 03:27:05 8.6 C 4.64 g/m*3 8.6 C 0 km/h
1458 02-03-2008 03:39:05 8.6 C 4.73 g/m*3 8.6 C 0 km/h
1459 02-03-2008 03:51:05 8.5 C 4.87 g/m*3 8.5 C 0 km/h
1460 02-03-2008 04:03:05 8.4 C 5.09 g/m*3 8.4 C 0 km/h
1461 02-03-2008 04:15:05 8.3 C 5.23 g/m*3 8.3 C 0 km/h
1462 02-03-2008 04:27:05 8.3 C 5.31 g/m*3 8.3 C 0 km/h
1463 02-03-2008 04:39:05 8.4 C 5.51 g/m*3 8.4 C 0 km/h
1464 02-03-2008 04:51:05 8.5 C 5.55 g/m*3 8.5 C 0 km/h
1465 02-03-2008 05:03:05 8.5 C 5.64 g/m*3 8.5 C 0 km/h
1466 02-03-2008 05:15:05 8.4 C 5.94 g/m*3 8.4 C 0 km/h
1467 02-03-2008 05:27:06 8.4 C 6.19 g/m*3 8.4 C 0 km/h
1468 02-03-2008 05:39:06 8.3 C 6.41 g/m*3 8.3 C 0 km/h
1469 02-03-2008 05:51:06 8.2 C 6.53 g/m*3 8.2 C 0 km/h
1470 02-03-2008 06:03:06 8.4 C 6.62 g/m*3 8.4 C 0 km/h
1471 02-03-2008 06:15:06 8.5 C 6.74 g/m*3 8.5 C 0 km/h
1472 02-03-2008 06:27:06 8.9 C 6.75 g/m*3 8.9 C 0 km/h
1473 02-03-2008 06:39:06 9 C 6.61 g/m*3 9 C 0 km/h
1474 02-03-2008 06:51:06 9.2 C 6.61 g/m*3 9.2 C 0 km/h
1475 02-03-2008 07:03:06 9.2 C 6.61 g/m*3 9.2 C 0 km/h
Sensor: Nr:Datum:Temp:Abs-Feuchte:Windchill:Wind:
Aussen-T/F 1476 02-03-2008 07:15:06 9 C 6.79 g/m*3 9 C 0 km/h
1477 02-03-2008 07:27:06 9 C 7.05 g/m*3 9 C 0 km/h
1478 02-03-2008 07:39:06 8.8 C 7.22 g/m*3 8.8 C 0 km/h
1479 02-03-2008 07:51:06 8.8 C 7.4 g/m*3 8.8 C 0 km/h
1480 02-03-2008 08:03:06 8.8 C 7.49 g/m*3 8.8 C 0 km/h
1481 02-03-2008 08:15:06 8.8 C 7.57 g/m*3 8.8 C 0 km/h
1482 02-03-2008 08:27:06 9 C 7.49 g/m*3 9 C 0 km/h
1483 02-03-2008 08:39:06 9.2 C 7.5 g/m*3 9.2 C 0 km/h
1484 02-03-2008 08:51:02 9.9 C 7.56 g/m*3 9.9 C 0 km/h
1485 02-03-2008 09:03:02 10.4 C 7.04 g/m*3 10.4 C 0 km/h
1486 02-03-2008 09:15:02 10.9 C 6.76 g/m*3 10.9 C 0 km/h
1487 02-03-2008 09:27:02 11.3 C 6.43 g/m*3 11.3 C 0 km/h
1488 02-03-2008 09:39:02 11.4 C 6.57 g/m*3 11.4 C 0 km/h
1489 02-03-2008 09:51:02 11.5 C 6.51 g/m*3 11.5 C 0 km/h
1490 02-03-2008 10:03:02 11.2 C 6.69 g/m*3 11.2 C 0 km/h
1491 02-03-2008 10:15:02 11.6 C 6.65 g/m*3 11.6 C 0 km/h
1492 02-03-2008 10:27:02 12 C 6.29 g/m*3 12 C 0 km/h
1493 02-03-2008 10:39:02 12.3 C 5.86 g/m*3 12.3 C 0 km/h
1494 02-03-2008 10:51:02 12.4 C 5.79 g/m*3 12.4 C 0 km/h
1495 02-03-2008 11:03:01 12.7 C 5.68 g/m*3 12.7 C 0 km/h
1496 02-03-2008 11:15:01 13 C 5.44 g/m*3 13 C 0 km/h
1497 02-03-2008 11:27:01 13.2 C 5.28 g/m*3 13.2 C 0 km/h
1498 02-03-2008 11:39:02 13.2 C 4.94 g/m*3 13.2 C 0 km/h
1499 02-03-2008 11:51:03 13.6 C 4.71 g/m*3 13.6 C 0 km/h
1500 02-03-2008 12:03:03 13.5 C 4.8 g/m*3 13.5 C 0 km/h
Sensor: Nr:Datum:Temp:Abs-Feuchte:Windchill:Wind:
Aussen-T/F 1501 02-03-2008 12:15:02 13.6 C 4.94 g/m*3 13.6 C 0 km/h
1502 02-03-2008 12:27:02 13.8 C 4.77 g/m*3 13.8 C 0 km/h
1503 02-03-2008 12:39:03 13.8 C 4.77 g/m*3 13.8 C 0 km/h
1504 02-03-2008 12:51:02 13.4 C 5.11 g/m*3 13.4 C 0 km/h
1505 02-03-2008 13:03:02 13.1 C 5.25 g/m*3 13.1 C 0 km/h
1506 02-03-2008 13:15:02 13.6 C 5.3 g/m*3 13.6 C 0 km/h
1507 02-03-2008 13:27:02 14.3 C 4.91 g/m*3 14.3 C 0 km/h
1508 02-03-2008 13:39:02 14.1 C 4.98 g/m*3 14.1 C 0 km/h
1509 02-03-2008 13:51:02 14 C 5.07 g/m*3 14 C 0 km/h
1510 02-03-2008 14:03:01 13.9 C 5.04 g/m*3 13.9 C 0 km/h
1511 02-03-2008 14:15:02 14 C 4.95 g/m*3 14 C 0 km/h
1512 02-03-2008 14:27:02 14.1 C 4.85 g/m*3 14.1 C 0 km/h
1513 02-03-2008 14:39:02 14.1 C 4.61 g/m*3 14.1 C 0 km/h
1514 02-03-2008 14:51:02 14 C 4.7 g/m*3 14 C 0 km/h
1515 02-03-2008 15:03:02 13.7 C 4.86 g/m*3 13.7 C 0 km/h
1516 02-03-2008 15:15:01 13.7 C 4.86 g/m*3 13.7 C 0 km/h
1517 02-03-2008 15:27:01 13.9 C 4.8 g/m*3 13.9 C 0 km/h
1518 02-03-2008 15:39:01 14.4 C 4.57 g/m*3 14.4 C 0 km/h
1519 02-03-2008 15:51:01 14.3 C 4.55 g/m*3 14.3 C 0 km/h
1520 02-03-2008 16:03:02 14.2 C 4.52 g/m*3 14.2 C 0 km/h
1521 02-03-2008 16:15:02 13.9 C 4.8 g/m*3 13.9 C 0 km/h
1522 02-03-2008 16:27:02 13.8 C 4.77 g/m*3 13.8 C 0 km/h
1523 02-03-2008 16:39:01 13.5 C 4.68 g/m*3 13.5 C 0 km/h
1524 02-03-2008 16:51:02 13.5 C 4.68 g/m*3 13.5 C 0 km/h
1525 02-03-2008 17:03:01 13.4 C 4.65 g/m*3 13.4 C 0 km/h
Sensor: Nr:Datum:Temp:Abs-Feuchte:Windchill:Wind:
Aussen-T/F 1526 02-03-2008 17:15:02 13.4 C 4.65 g/m*3 13.4 C 0 km/h
1527 02-03-2008 17:27:02 13.4 C 4.65 g/m*3 13.4 C 0 km/h
1528 02-03-2008 17:39:02 13.2 C 4.94 g/m*3 13.2 C 0 km/h
1529 02-03-2008 17:51:02 13.1 C 4.91 g/m*3 13.1 C 0 km/h
1530 02-03-2008 18:03:02 13.1 C 4.68 g/m*3 13.1 C 0 km/h
1531 02-03-2008 18:15:02 13 C 4.65 g/m*3 13 C 0 km/h
1532 02-03-2008 18:27:02 12.8 C 4.59 g/m*3 12.8 C 0 km/h
1533 02-03-2008 18:39:03 12.9 C 4.51 g/m*3 12.9 C 0 km/h
1534 02-03-2008 18:51:02 12.8 C 4.48 g/m*3 12.8 C 0 km/h
1535 02-03-2008 19:03:02 12.8 C 4.59 g/m*3 12.8 C 0 km/h
1536 02-03-2008 19:15:02 12.7 C 4.68 g/m*3 12.7 C 0 km/h
1537 02-03-2008 19:27:02 12.5 C 4.84 g/m*3 12.5 C 0 km/h
1538 02-03-2008 19:39:01 12.5 C 4.62 g/m*3 12.5 C 0 km/h
1539 02-03-2008 19:51:02 12.4 C 4.59 g/m*3 12.4 C 0 km/h
1540 02-03-2008 20:03:01 12.3 C 4.34 g/m*3 12.3 C 0 km/h
1541 02-03-2008 20:15:02 12.1 C 4.29 g/m*3 12.1 C 0 km/h
1542 02-03-2008 20:27:02 12.1 C 4.18 g/m*3 12.1 C 0 km/h
1543 02-03-2008 20:39:02 12 C 4.26 g/m*3 12 C 0 km/h
1544 02-03-2008 20:51:02 12 C 4.26 g/m*3 12 C 0 km/h
1545 02-03-2008 21:03:01 11.9 C 4.34 g/m*3 11.9 C 0 km/h
1546 02-03-2008 21:15:02 11.8 C 4.32 g/m*3 11.8 C 0 km/h
1547 02-03-2008 21:27:02 11.9 C 4.34 g/m*3 11.9 C 0 km/h
1548 02-03-2008 21:39:01 11.7 C 4.39 g/m*3 11.7 C 0 km/h
1549 02-03-2008 21:51:02 11.8 C 4.42 g/m*3 11.8 C 0 km/h
1550 02-03-2008 22:03:02 11.7 C 4.5 g/m*3 11.7 C 0 km/h
Sensor: Nr:Datum:Temp:Abs-Feuchte:Windchill:Wind:
Aussen-T/F 1551 02-03-2008 22:16:02 11.6 C 4.68 g/m*3 11.6 C 0 km/h
1552 02-03-2008 22:28:02 11.4 C 4.72 g/m*3 11.4 C 0 km/h
1553 02-03-2008 22:40:02 11.4 C 4.82 g/m*3 11.4 C 0 km/h
1554 02-03-2008 22:52:02 11.2 C 5.07 g/m*3 11.2 C 0 km/h
1555 02-03-2008 23:04:02 10.5 C 5.72 g/m*3 10.5 C 0 km/h
1556 02-03-2008 23:16:02 10.5 C 6.01 g/m*3 10.5 C 0 km/h
1557 02-03-2008 23:28:02 10.4 C 6.07 g/m*3 10.4 C 0 km/h
1558 02-03-2008 23:40:02 10.4 C 6.07 g/m*3 10.4 C 0 km/h
1559 02-03-2008 23:52:02 10.5 C 6.11 g/m*3 10.5 C 0 km/h
1560 03-03-2008 00:04:02 10.4 C 6.26 g/m*3 10.4 C 0 km/h
1561 03-03-2008 00:16:02 9.8 C 6.96 g/m*3 9.8 C 0 km/h
1562 03-03-2008 00:28:02 9.5 C 7.19 g/m*3 9.5 C 0 km/h
1563 03-03-2008 00:40:02 9.4 C 7.33 g/m*3 9.4 C 0 km/h
1564 03-03-2008 00:52:02 9.3 C 7.19 g/m*3 9.3 C 0 km/h
1565 03-03-2008 01:04:02 9.4 C 6.33 g/m*3 9.4 C 0 km/h
1566 03-03-2008 01:16:02 9.6 C 5.31 g/m*3 9.6 C 0 km/h
1567 03-03-2008 01:28:02 9.6 C 4.86 g/m*3 9.6 C 0 km/h
1568 03-03-2008 01:40:03 9.4 C 4.79 g/m*3 9.4 C 0 km/h
1569 03-03-2008 01:52:03 9.1 C 4.88 g/m*3 9.1 C 0 km/h
1570 03-03-2008 02:04:03 9 C 4.85 g/m*3 9 C 0 km/h
1571 03-03-2008 02:16:03 9 C 5.03 g/m*3 9 C 0 km/h
1572 03-03-2008 02:28:03 9 C 5.11 g/m*3 9 C 0 km/h
1573 03-03-2008 02:40:03 9 C 5.03 g/m*3 9 C 0 km/h
1574 03-03-2008 02:52:03 9 C 4.94 g/m*3 9 C 0 km/h
1575 03-03-2008 03:04:03 9 C 4.85 g/m*3 9 C 0 km/h
Sensor: Nr:Datum:Temp:Abs-Feuchte:Windchill:Wind:
Aussen-T/F 1576 03-03-2008 03:16:03 9.1 C 4.88 g/m*3 9.1 C 0 km/h
1577 03-03-2008 03:28:03 9 C 5.03 g/m*3 9 C 0 km/h
1578 03-03-2008 03:40:03 8.9 C 5.17 g/m*3 8.9 C 0 km/h
1579 03-03-2008 03:52:03 8.9 C 4.99 g/m*3 8.9 C 0 km/h
1580 03-03-2008 04:04:03 9 C 4.94 g/m*3 9 C 0 km/h
1581 03-03-2008 04:16:03 9 C 4.94 g/m*3 9 C 0 km/h
1582 03-03-2008 04:28:03 9 C 4.94 g/m*3 9 C 0 km/h
1583 03-03-2008 04:40:03 8.9 C 4.99 g/m*3 8.9 C 0 km/h
1584 03-03-2008 04:52:03 8.9 C 5.08 g/m*3 8.9 C 0 km/h
1585 03-03-2008 05:04:03 8.9 C 5.08 g/m*3 8.9 C 0 km/h
1586 03-03-2008 05:16:03 8.9 C 5.17 g/m*3 8.9 C 0 km/h
1587 03-03-2008 05:28:03 8.9 C 5.26 g/m*3 8.9 C 0 km/h
1588 03-03-2008 05:40:04 8.7 C 5.53 g/m*3 8.7 C 0 km/h
1589 03-03-2008 05:52:04 8.4 C 5.85 g/m*3 8.4 C 0 km/h
1590 03-03-2008 06:04:04 8.3 C 5.9 g/m*3 8.3 C 0 km/h
1591 03-03-2008 06:16:04 8.4 C 6.02 g/m*3 8.4 C 0 km/h
1592 03-03-2008 06:28:04 8.4 C 5.94 g/m*3 8.4 C 0 km/h
1593 03-03-2008 06:40:04 8.5 C 5.89 g/m*3 8.5 C 0 km/h
1594 03-03-2008 06:52:04 8.5 C 5.89 g/m*3 8.5 C 0 km/h
1595 03-03-2008 07:04:02 8.2 C 5.86 g/m*3 8.2 C 0 km/h
1596 03-03-2008 07:16:02 8 C 5.87 g/m*3 8 C 0 km/h
1597 03-03-2008 07:28:02 7.9 C 6 g/m*3 7.9 C 0 km/h
1598 03-03-2008 07:40:02 7.8 C 6.12 g/m*3 7.8 C 0 km/h
1599 03-03-2008 07:52:02 7.6 C 6.12 g/m*3 7.6 C 0 km/h
1600 03-03-2008 08:04:02 7.6 C 6.2 g/m*3 7.6 C 0 km/h
Sensor: Nr:Datum:Temp:Abs-Feuchte:Windchill:Wind:
Aussen-T/F 1601 03-03-2008 08:16:02 7.3 C 6 g/m*3 7.3 C 0 km/h
1602 03-03-2008 08:28:02 7.3 C 6.08 g/m*3 7.3 C 0 km/h
1603 03-03-2008 08:40:02 7.3 C 6.16 g/m*3 7.3 C 0 km/h
1604 03-03-2008 08:52:02 7.3 C 6.16 g/m*3 7.3 C 0 km/h
1605 03-03-2008 09:04:03 7.4 C 6.28 g/m*3 7.4 C 0 km/h
1606 03-03-2008 09:16:02 7.2 C 6.04 g/m*3 7.2 C 0 km/h
1607 03-03-2008 09:28:02 7.3 C 6 g/m*3 7.3 C 0 km/h
1608 03-03-2008 09:40:02 7.6 C 5.8 g/m*3 7.6 C 0 km/h
1609 03-03-2008 09:52:01 7.7 C 5.51 g/m*3 7.7 C 0 km/h
1610 03-03-2008 10:04:02 7.5 C 5.36 g/m*3 7.5 C 0 km/h
1611 03-03-2008 10:16:01 7 C 5.27 g/m*3 7 C 0 km/h
1612 03-03-2008 10:28:01 6.6 C 5.44 g/m*3 6.6 C 0 km/h
1613 03-03-2008 10:40:01 6.7 C 5.62 g/m*3 6.7 C 0 km/h
1614 03-03-2008 10:52:01 6.7 C 5.62 g/m*3 6.7 C 0 km/h
1615 03-03-2008 11:04:02 7.2 C 5.65 g/m*3 7.2 C 0 km/h
1616 03-03-2008 11:16:02 7.4 C 5.25 g/m*3 7.4 C 0 km/h
1617 03-03-2008 11:28:02 7.8 C 5.22 g/m*3 7.8 C 0 km/h
1618 03-03-2008 11:40:01 7.8 C 4.98 g/m*3 7.8 C 0 km/h
1619 03-03-2008 11:52:02 7.9 C 4.93 g/m*3 7.9 C 0 km/h
1620 03-03-2008 12:04:01 8.5 C 4.87 g/m*3 8.5 C 0 km/h
1621 03-03-2008 12:16:02 8.5 C 4.87 g/m*3 8.5 C 0 km/h
1622 03-03-2008 12:28:02 8.4 C 4.92 g/m*3 8.4 C 0 km/h
1623 03-03-2008 12:40:02 8.6 C 4.9 g/m*3 8.6 C 0 km/h
1624 03-03-2008 12:52:02 8.6 C 4.55 g/m*3 8.6 C 0 km/h
1625 03-03-2008 13:04:02 8.9 C 4.47 g/m*3 8.9 C 0 km/h
Sensor: Nr:Datum:Temp:Abs-Feuchte:Windchill:Wind:
Aussen-T/F 1626 03-03-2008 13:16:02 8.7 C 4.41 g/m*3 8.7 C 0 km/h
1627 03-03-2008 13:28:02 8.8 C 4.35 g/m*3 8.8 C 0 km/h
1628 03-03-2008 13:40:02 8.9 C 4.29 g/m*3 8.9 C 0 km/h
1629 03-03-2008 13:52:02 9 C 4.23 g/m*3 9 C 0 km/h
1630 03-03-2008 14:04:01 9.3 C 3.5 g/m*3 9.3 C 0 km/h
1631 03-03-2008 14:16:01 9.4 C 3.44 g/m*3 9.4 C 0 km/h
1632 03-03-2008 14:28:01 9.5 C 3.19 g/m*3 9.5 C 0 km/h
1633 03-03-2008 14:40:02 9.2 C 3.13 g/m*3 9.2 C 0 km/h
1634 03-03-2008 14:52:02 9.2 C 2.86 g/m*3 9.2 C 0 km/h
1635 03-03-2008 15:04:02 9.3 C 2.7 g/m*3 9.3 C 0 km/h
1636 03-03-2008 15:16:02 9.5 C 2.28 g/m*3 9.5 C 0 km/h
1637 03-03-2008 15:28:02 9.8 C 2.32 g/m*3 9.8 C 0 km/h
1638 03-03-2008 15:40:03 9.7 C 1.94 g/m*3 9.7 C 0 km/h
1639 03-03-2008 15:52:02 9.3 C 1.8 g/m*3 9.3 C 0 km/h
1640 03-03-2008 16:04:02 9 C 2.29 g/m*3 9 C 0 km/h
1641 03-03-2008 16:16:02 8.5 C 2.31 g/m*3 8.5 C 0 km/h
1642 03-03-2008 16:28:02 9.1 C 1.77 g/m*3 9.1 C 0 km/h
1643 03-03-2008 16:40:02 8.7 C 1.73 g/m*3 8.7 C 0 km/h
1644 03-03-2008 16:52:02 9.5 C 1.82 g/m*3 9.5 C 0 km/h
1645 03-03-2008 17:04:02 9 C 1.76 g/m*3 9 C 0 km/h
1646 03-03-2008 17:16:02 8.8 C 1.74 g/m*3 8.8 C 0 km/h
1647 03-03-2008 17:28:02 8.4 C 1.7 g/m*3 8.4 C 0 km/h
1648 03-03-2008 17:40:02 8.5 C 1.71 g/m*3 8.5 C 0 km/h
1649 03-03-2008 17:52:02 8.1 C 1.66 g/m*3 8.1 C 0 km/h
1650 03-03-2008 18:04:02 7.6 C 1.61 g/m*3 7.6 C 0 km/h
Sensor: Nr:Datum:Temp:Abs-Feuchte:Windchill:Wind:
Aussen-T/F 1651 03-03-2008 18:16:03 7.3 C 1.58 g/m*3 7.3 C 0 km/h
1652 03-03-2008 18:28:03 7.1 C 1.56 g/m*3 7.1 C 0 km/h
1653 03-03-2008 18:40:02 6.9 C 1.54 g/m*3 6.9 C 0 km/h
1654 03-03-2008 18:52:02 6.5 C 1.5 g/m*3 6.5 C 0 km/h
1655 03-03-2008 19:04:02 6.4 C 1.49 g/m*3 6.4 C 0 km/h
1656 03-03-2008 19:16:02 6.3 C 1.48 g/m*3 6.3 C 0 km/h
1657 03-03-2008 19:28:02 6.1 C 1.83 g/m*3 6.1 C 0 km/h
1658 03-03-2008 19:40:02 5.9 C 1.87 g/m*3 5.9 C 0 km/h
1659 03-03-2008 19:52:03 5.5 C 2.04 g/m*3 5.5 C 0 km/h
1660 03-03-2008 20:04:02 5.1 C 2.19 g/m*3 5.1 C 0 km/h
1661 03-03-2008 20:16:02 4.7 C 2.33 g/m*3 4.7 C 0 km/h
1662 03-03-2008 20:28:02 4.5 C 2.37 g/m*3 4.5 C 0 km/h
1663 03-03-2008 20:40:03 4.5 C 2.43 g/m*3 4.5 C 0 km/h
1664 03-03-2008 20:52:02 4.2 C 2.38 g/m*3 4.2 C 0 km/h
1665 03-03-2008 21:04:02 4.1 C 2.5 g/m*3 4.1 C 0 km/h
1666 03-03-2008 21:16:02 3.8 C 2.57 g/m*3 3.8 C 0 km/h
1667 03-03-2008 21:28:02 3.7 C 2.62 g/m*3 3.7 C 0 km/h
1668 03-03-2008 21:40:02 3.7 C 2.55 g/m*3 3.7 C 0 km/h
1669 03-03-2008 21:52:02 3.6 C 2.6 g/m*3 3.6 C 0 km/h
1670 03-03-2008 22:04:02 3.4 C 2.63 g/m*3 3.4 C 0 km/h
1671 03-03-2008 22:16:02 3.3 C 2.73 g/m*3 3.3 C 0 km/h
1672 03-03-2008 22:28:02 3.3 C 2.73 g/m*3 3.3 C 0 km/h
1673 03-03-2008 22:41:02 3.2 C 2.71 g/m*3 3.2 C 0 km/h
1674 03-03-2008 22:53:02 3.1 C 2.75 g/m*3 3.1 C 0 km/h
1675 03-03-2008 23:05:02 3.1 C 2.75 g/m*3 3.1 C 0 km/h
Sensor: Nr:Datum:Temp:Abs-Feuchte:Windchill:Wind:
Aussen-T/F 1676 03-03-2008 23:17:02 2.9 C 2.78 g/m*3 2.9 C 0 km/h
1677 03-03-2008 23:29:02 2.6 C 2.84 g/m*3 2.6 C 0 km/h
1678 03-03-2008 23:41:02 2.4 C 2.85 g/m*3 2.4 C 0 km/h
1679 03-03-2008 23:53:02 2.2 C 2.93 g/m*3 2.2 C 0 km/h
1680 04-03-2008 00:05:02 2.1 C 2.97 g/m*3 2.1 C 0 km/h
1681 04-03-2008 00:17:02 2 C 2.95 g/m*3 2 C 0 km/h
1682 04-03-2008 00:29:02 2 C 3 g/m*3 2 C 0 km/h
1683 04-03-2008 00:41:02 1.9 C 3.04 g/m*3 1.9 C 0 km/h
1684 04-03-2008 00:53:02 1.8 C 3.07 g/m*3 1.8 C 0 km/h
1685 04-03-2008 01:05:02 2 C 3.06 g/m*3 2 C 0 km/h
1686 04-03-2008 01:17:02 2.3 C 3.06 g/m*3 2.3 C 0 km/h
1687 04-03-2008 01:29:02 2.3 C 3.12 g/m*3 2.3 C 0 km/h
1688 04-03-2008 01:41:02 2.2 C 3.1 g/m*3 2.2 C 0 km/h
1689 04-03-2008 01:53:02 2.2 C 3.15 g/m*3 2.2 C 0 km/h
1690 04-03-2008 02:05:02 2.3 C 3.18 g/m*3 2.3 C 0 km/h
1691 04-03-2008 02:17:03 2.4 C 3.2 g/m*3 2.4 C 0 km/h
1692 04-03-2008 02:29:03 2.5 C 3.22 g/m*3 2.5 C 0 km/h
1693 04-03-2008 02:41:03 2.4 C 3.25 g/m*3 2.4 C 0 km/h
1694 04-03-2008 02:53:03 2.3 C 3.29 g/m*3 2.3 C 0 km/h
1695 04-03-2008 03:05:03 2.3 C 3.29 g/m*3 2.3 C 0 km/h
1696 04-03-2008 03:17:03 2.5 C 3.45 g/m*3 2.5 C 0 km/h
1697 04-03-2008 03:29:03 2.5 C 3.56 g/m*3 2.5 C 0 km/h
1698 04-03-2008 03:41:03 2.5 C 3.74 g/m*3 2.5 C 0 km/h
1699 04-03-2008 03:53:03 2.3 C 3.86 g/m*3 2.3 C 0 km/h
1700 04-03-2008 04:05:03 2.2 C 3.94 g/m*3 2.2 C 0 km/h
Sensor: Nr:Datum:Temp:Abs-Feuchte:Windchill:Wind:
Aussen-T/F 1701 04-03-2008 04:17:03 2 C 4.11 g/m*3 2 C 0 km/h
1702 04-03-2008 04:29:03 2.2 C 4.28 g/m*3 2.2 C 0 km/h
1703 04-03-2008 04:41:03 2 C 4.33 g/m*3 2 C 0 km/h
1704 04-03-2008 04:53:03 1.9 C 4.42 g/m*3 1.9 C 0 km/h
1705 04-03-2008 05:05:03 1.6 C 4.38 g/m*3 1.6 C 0 km/h
1706 04-03-2008 05:17:03 1.5 C 4.4 g/m*3 1.5 C 0 km/h
1707 04-03-2008 05:29:03 1.3 C 4.4 g/m*3 1.3 C 0 km/h
1708 04-03-2008 05:41:03 1.2 C 4.42 g/m*3 1.2 C 0 km/h
1709 04-03-2008 05:53:03 1.1 C 4.44 g/m*3 1.1 C 0 km/h
1710 04-03-2008 06:05:03 0.7 C 4.37 g/m*3 0.7 C 0 km/h
1711 04-03-2008 06:17:03 0.5 C 4.31 g/m*3 0.5 C 0 km/h
1712 04-03-2008 06:29:04 0.5 C 4.36 g/m*3 0.5 C 0 km/h
1713 04-03-2008 06:41:04 0.4 C 4.33 g/m*3 0.4 C 0 km/h
1714 04-03-2008 06:53:04 0.3 C 4.35 g/m*3 0.3 C 0 km/h
1715 04-03-2008 07:05:04 0.3 C 4.4 g/m*3 0.3 C 0 km/h
1716 04-03-2008 07:17:02 0.3 C 4.4 g/m*3 0.3 C 0 km/h
1717 04-03-2008 07:29:02 0.2 C 4.37 g/m*3 0.2 C 0 km/h
1718 04-03-2008 07:41:02 0.3 C 4.45 g/m*3 0.3 C 0 km/h
1719 04-03-2008 07:53:02 0.3 C 4.45 g/m*3 0.3 C 0 km/h
1720 04-03-2008 08:05:02 0.3 C 4.45 g/m*3 0.3 C 0 km/h
1721 04-03-2008 08:17:02 0.3 C 4.45 g/m*3 0.3 C 0 km/h
1722 04-03-2008 08:29:02 0.3 C 4.45 g/m*3 0.3 C 0 km/h
1723 04-03-2008 08:41:02 0.3 C 4.5 g/m*3 0.3 C 0 km/h
1724 04-03-2008 08:53:01 0.4 C 4.53 g/m*3 0.4 C 0 km/h
1725 04-03-2008 09:05:02 0.5 C 4.56 g/m*3 0.5 C 0 km/h
Sensor: Nr:Datum:Temp:Abs-Feuchte:Windchill:Wind:
Aussen-T/F 1726 04-03-2008 09:17:02 0.5 C 4.51 g/m*3 0.5 C 0 km/h
1727 04-03-2008 09:29:02 0.5 C 4.56 g/m*3 0.5 C 0 km/h
1728 04-03-2008 09:41:01 0.6 C 4.54 g/m*3 0.6 C 0 km/h
1729 04-03-2008 09:53:02 0.6 C 4.54 g/m*3 0.6 C 0 km/h
1730 04-03-2008 10:05:02 0.7 C 4.58 g/m*3 0.7 C 0 km/h
1731 04-03-2008 10:17:02 0.8 C 4.61 g/m*3 0.8 C 0 km/h
1732 04-03-2008 10:29:02 1 C 4.67 g/m*3 1 C 0 km/h
1733 04-03-2008 10:41:02 1.2 C 4.68 g/m*3 1.2 C 0 km/h
1734 04-03-2008 10:53:02 1.5 C 4.78 g/m*3 1.5 C 0 km/h
1735 04-03-2008 11:05:01 1.8 C 4.88 g/m*3 1.8 C 0 km/h
1736 04-03-2008 11:17:01 1.9 C 4.91 g/m*3 1.9 C 0 km/h
1737 04-03-2008 11:29:01 2.2 C 4.96 g/m*3 2.2 C 0 km/h
1738 04-03-2008 11:41:02 2.8 C 5.22 g/m*3 2.8 C 0 km/h
1739 04-03-2008 11:53:02 3.2 C 5.18 g/m*3 3.2 C 0 km/h
1740 04-03-2008 12:05:03 3.3 C 4.85 g/m*3 3.3 C 0 km/h
1741 04-03-2008 12:17:02 3.8 C 4.64 g/m*3 3.8 C 0 km/h
1742 04-03-2008 12:29:03 4 C 4.39 g/m*3 4 C 0 km/h
1743 04-03-2008 12:41:02 4.3 C 4.35 g/m*3 4.3 C 0 km/h
1744 04-03-2008 12:53:02 4.4 C 4.18 g/m*3 4.4 C 0 km/h
1745 04-03-2008 13:05:01 4.7 C 4.26 g/m*3 4.7 C 0 km/h
1746 04-03-2008 13:17:01 4.8 C 4.22 g/m*3 4.8 C 0 km/h
1747 04-03-2008 13:29:01 4.7 C 4.13 g/m*3 4.7 C 0 km/h
1748 04-03-2008 13:41:02 5.3 C 4.37 g/m*3 5.3 C 0 km/h
1749 04-03-2008 13:53:02 5 C 4.08 g/m*3 5 C 0 km/h
1750 04-03-2008 14:05:03 5 C 4.08 g/m*3 5 C 0 km/h
Sensor: Nr:Datum:Temp:Abs-Feuchte:Windchill:Wind:
Aussen-T/F 1751 04-03-2008 14:17:02 5.4 C 4.19 g/m*3 5.4 C 0 km/h
1752 04-03-2008 14:29:02 5.4 C 4.12 g/m*3 5.4 C 0 km/h
1753 04-03-2008 14:41:02 5 C 4.01 g/m*3 5 C 0 km/h
1754 04-03-2008 14:53:01 5.3 C 4.09 g/m*3 5.3 C 0 km/h
1755 04-03-2008 15:05:02 5.5 C 4.14 g/m*3 5.5 C 0 km/h
1756 04-03-2008 15:17:02 6.1 C 4.16 g/m*3 6.1 C 0 km/h
1757 04-03-2008 15:29:02 5.5 C 3.93 g/m*3 5.5 C 0 km/h
1758 04-03-2008 15:41:01 5.2 C 3.99 g/m*3 5.2 C 0 km/h
1759 04-03-2008 15:53:02 5.4 C 4.12 g/m*3 5.4 C 0 km/h
1760 04-03-2008 16:05:01 5.7 C 3.91 g/m*3 5.7 C 0 km/h
1761 04-03-2008 16:17:01 6 C 3.85 g/m*3 6 C 0 km/h
1762 04-03-2008 16:29:01 6.2 C 3.82 g/m*3 6.2 C 0 km/h
1763 04-03-2008 16:41:02 6.2 C 3.75 g/m*3 6.2 C 0 km/h
1764 04-03-2008 16:53:02 5.5 C 3.86 g/m*3 5.5 C 0 km/h
1765 04-03-2008 17:05:01 5.8 C 3.94 g/m*3 5.8 C 0 km/h
1766 04-03-2008 17:17:01 5.3 C 3.88 g/m*3 5.3 C 0 km/h
1767 04-03-2008 17:29:01 5.2 C 3.86 g/m*3 5.2 C 0 km/h
1768 04-03-2008 17:41:02 4.9 C 3.98 g/m*3 4.9 C 0 km/h
1769 04-03-2008 17:53:02 4.8 C 4.02 g/m*3 4.8 C 0 km/h
1770 04-03-2008 18:05:02 4.6 C 3.97 g/m*3 4.6 C 0 km/h
1771 04-03-2008 18:17:02 4.5 C 3.88 g/m*3 4.5 C 0 km/h
1772 04-03-2008 18:29:02 4.3 C 3.83 g/m*3 4.3 C 0 km/h
1773 04-03-2008 18:41:02 4.1 C 3.84 g/m*3 4.1 C 0 km/h
1774 04-03-2008 18:53:02 3.9 C 3.79 g/m*3 3.9 C 0 km/h
1775 04-03-2008 19:05:02 3.4 C 3.66 g/m*3 3.4 C 0 km/h
Sensor: Nr:Datum:Temp:Abs-Feuchte:Windchill:Wind:
Aussen-T/F 1776 04-03-2008 19:17:02 3.1 C 3.83 g/m*3 3.1 C 0 km/h
1777 04-03-2008 19:29:02 3 C 3.86 g/m*3 3 C 0 km/h
1778 04-03-2008 19:41:02 3.6 C 3.78 g/m*3 3.6 C 0 km/h
1779 04-03-2008 19:53:02 3.8 C 3.64 g/m*3 3.8 C 0 km/h
1780 04-03-2008 20:05:02 4 C 3.62 g/m*3 4 C 0 km/h
1781 04-03-2008 20:17:03 3.9 C 3.73 g/m*3 3.9 C 0 km/h
1782 04-03-2008 20:29:03 3.7 C 3.61 g/m*3 3.7 C 0 km/h
1783 04-03-2008 20:41:02 3.3 C 3.52 g/m*3 3.3 C 0 km/h
1784 04-03-2008 20:53:02 3 C 3.45 g/m*3 3 C 0 km/h
1785 04-03-2008 21:05:02 3 C 3.51 g/m*3 3 C 0 km/h
1786 04-03-2008 21:17:01 3.5 C 3.32 g/m*3 3.5 C 0 km/h
1787 04-03-2008 21:29:01 3.3 C 3.46 g/m*3 3.3 C 0 km/h
1788 04-03-2008 21:42:02 3.1 C 3.65 g/m*3 3.1 C 0 km/h
1789 04-03-2008 21:54:02 3 C 3.81 g/m*3 3 C 0 km/h
1790 04-03-2008 22:06:02 2.5 C 3.91 g/m*3 2.5 C 0 km/h
1791 04-03-2008 22:18:02 2 C 3.83 g/m*3 2 C 0 km/h
1792 04-03-2008 22:30:02 1.7 C 3.92 g/m*3 1.7 C 0 km/h
1793 04-03-2008 22:42:02 1.4 C 3.89 g/m*3 1.4 C 0 km/h
1794 04-03-2008 22:54:03 1.5 C 4.03 g/m*3 1.5 C 0 km/h
1795 04-03-2008 23:06:03 1.7 C 4.08 g/m*3 1.7 C 0 km/h
1796 04-03-2008 23:18:03 1.5 C 3.97 g/m*3 1.5 C 0 km/h
1797 04-03-2008 23:30:03 1.5 C 4.03 g/m*3 1.5 C 0 km/h
1798 04-03-2008 23:42:03 1.7 C 4.03 g/m*3 1.7 C 0 km/h
1799 04-03-2008 23:54:03 2 C 3.89 g/m*3 2 C 0 km/h
1800 05-03-2008 00:06:03 1.9 C 3.92 g/m*3 1.9 C 0 km/h
Sensor: Nr:Datum:Temp:Abs-Feuchte:Windchill:Wind:
Aussen-T/F 1801 05-03-2008 00:18:03 1.9 C 3.92 g/m*3 1.9 C 0 km/h
1802 05-03-2008 00:30:03 1.7 C 3.92 g/m*3 1.7 C 0 km/h
1803 05-03-2008 00:42:03 1.5 C 3.71 g/m*3 1.5 C 0 km/h
1804 05-03-2008 00:54:03 1.5 C 3.6 g/m*3 1.5 C 0 km/h
1805 05-03-2008 01:06:03 1.4 C 3.57 g/m*3 1.4 C 0 km/h
1806 05-03-2008 01:18:03 1.3 C 3.6 g/m*3 1.3 C 0 km/h
1807 05-03-2008 01:30:03 1.3 C 3.5 g/m*3 1.3 C 0 km/h
1808 05-03-2008 01:42:03 1.2 C 3.53 g/m*3 1.2 C 0 km/h
1809 05-03-2008 01:54:03 0.9 C 3.51 g/m*3 0.9 C 0 km/h
1810 05-03-2008 02:06:03 0.7 C 3.51 g/m*3 0.7 C 0 km/h
1811 05-03-2008 02:18:03 0.5 C 3.46 g/m*3 0.5 C 0 km/h
1812 05-03-2008 02:30:03 0.4 C 3.39 g/m*3 0.4 C 0 km/h
1813 05-03-2008 02:42:03 0.3 C 3.36 g/m*3 0.3 C 0 km/h
1814 05-03-2008 02:54:04 0.1 C 3.27 g/m*3 0.1 C 0 km/h
1815 05-03-2008 03:06:04 0.1 C 3.27 g/m*3 0.1 C 0 km/h
1816 05-03-2008 03:18:04 0 C 3.25 g/m*3 0 C 0 km/h
1817 05-03-2008 03:30:04 -0.2 C 3.3 g/m*3 -0.2 C 0 km/h
1818 05-03-2008 03:42:04 -0.4 C 3.25 g/m*3 -0.4 C 0 km/h
1819 05-03-2008 03:54:04 -0.5 C 3.32 g/m*3 -0.5 C 0 km/h
1820 05-03-2008 04:06:04 -0.5 C 3.37 g/m*3 -0.5 C 0 km/h
1821 05-03-2008 04:18:04 -0.4 C 3.35 g/m*3 -0.4 C 0 km/h
1822 05-03-2008 04:30:04 -0.4 C 3.35 g/m*3 -0.4 C 0 km/h
1823 05-03-2008 04:42:04 -0.6 C 3.3 g/m*3 -0.6 C 0 km/h
1824 05-03-2008 04:54:04 -0.6 C 3.39 g/m*3 -0.6 C 0 km/h
1825 05-03-2008 05:06:04 -0.5 C 3.46 g/m*3 -0.5 C 0 km/h
Sensor: Nr:Datum:Temp:Abs-Feuchte:Windchill:Wind:
Aussen-T/F 1826 05-03-2008 05:18:04 -0.3 C 3.51 g/m*3 -0.3 C 0 km/h
1827 05-03-2008 05:30:04 -0.4 C 3.44 g/m*3 -0.4 C 0 km/h
1828 05-03-2008 05:42:04 -0.4 C 3.44 g/m*3 -0.4 C 0 km/h
1829 05-03-2008 05:54:04 -0.7 C 3.42 g/m*3 -0.7 C 0 km/h
1830 05-03-2008 06:06:04 -0.7 C 3.42 g/m*3 -0.7 C 0 km/h
1831 05-03-2008 06:18:04 -0.5 C 3.42 g/m*3 -0.5 C 0 km/h
1832 05-03-2008 06:30:04 -0.9 C 3.32 g/m*3 -0.9 C 0 km/h
1833 05-03-2008 06:42:04 -0.9 C 3.37 g/m*3 -0.9 C 0 km/h
1834 05-03-2008 06:54:04 -0.8 C 3.39 g/m*3 -0.8 C 0 km/h
1835 05-03-2008 07:06:02 -0.8 C 3.35 g/m*3 -0.8 C 0 km/h
1836 05-03-2008 07:18:02 -1 C 3.35 g/m*3 -1 C 0 km/h
1837 05-03-2008 07:30:02 -0.9 C 3.37 g/m*3 -0.9 C 0 km/h
1838 05-03-2008 07:42:02 -0.5 C 3.42 g/m*3 -0.5 C 0 km/h
1839 05-03-2008 07:54:02 -0.4 C 3.35 g/m*3 -0.4 C 0 km/h
1840 05-03-2008 08:06:04 -0.2 C 3.35 g/m*3 -0.2 C 0 km/h
1841 05-03-2008 08:18:02 0 C 3.34 g/m*3 0 C 0 km/h
1842 05-03-2008 08:30:02 0 C 3.29 g/m*3 0 C 0 km/h
1843 05-03-2008 08:42:02 0 C 3.2 g/m*3 0 C 0 km/h
1844 05-03-2008 08:54:02 -0.1 C 3.18 g/m*3 -0.1 C 0 km/h
1845 05-03-2008 09:06:03 0.5 C 3.31 g/m*3 0.5 C 0 km/h
1846 05-03-2008 09:18:02 0.6 C 3.18 g/m*3 0.6 C 0 km/h
1847 05-03-2008 09:30:02 0.9 C 3.2 g/m*3 0.9 C 0 km/h
1848 05-03-2008 09:42:02 0.8 C 3.12 g/m*3 0.8 C 0 km/h
1849 05-03-2008 09:54:01 0.6 C 3.13 g/m*3 0.6 C 0 km/h
1850 05-03-2008 10:06:01 0.9 C 3.14 g/m*3 0.9 C 0 km/h
Sensor: Nr:Datum:Temp:Abs-Feuchte:Windchill:Wind:
Aussen-T/F 1851 05-03-2008 10:18:02 1.4 C 3.09 g/m*3 1.4 C 0 km/h
1852 05-03-2008 10:30:02 1.7 C 3.1 g/m*3 1.7 C 0 km/h
1853 05-03-2008 10:42:02 2.2 C 3.1 g/m*3 2.2 C 0 km/h
1854 05-03-2008 10:54:02 2.5 C 2.99 g/m*3 2.5 C 0 km/h
1855 05-03-2008 11:06:02 3.1 C 2.93 g/m*3 3.1 C 0 km/h
1856 05-03-2008 11:18:02 2.8 C 2.87 g/m*3 2.8 C 0 km/h
1857 05-03-2008 11:30:02 2.5 C 2.87 g/m*3 2.5 C 0 km/h
1858 05-03-2008 11:42:02 3.1 C 2.81 g/m*3 3.1 C 0 km/h
1859 05-03-2008 11:54:02 3.2 C 2.59 g/m*3 3.2 C 0 km/h
1860 05-03-2008 12:06:02 3 C 2.62 g/m*3 3 C 0 km/h
1861 05-03-2008 12:18:01 3.8 C 2.63 g/m*3 3.8 C 0 km/h
1862 05-03-2008 12:30:01 4.3 C 2.27 g/m*3 4.3 C 0 km/h
1863 05-03-2008 12:42:01 3.5 C 2.52 g/m*3 3.5 C 0 km/h
1864 05-03-2008 12:54:02 4.3 C 2.53 g/m*3 4.3 C 0 km/h
1865 05-03-2008 13:06:02 4.6 C 2.25 g/m*3 4.6 C 0 km/h
1866 05-03-2008 13:18:02 5.3 C 2.08 g/m*3 5.3 C 0 km/h
1867 05-03-2008 13:30:02 4.3 C 1.82 g/m*3 4.3 C 0 km/h
1868 05-03-2008 13:42:02 5.7 C 1.85 g/m*3 5.7 C 0 km/h
1869 05-03-2008 13:54:02 3.8 C 2.63 g/m*3 3.8 C 0 km/h
1870 05-03-2008 14:06:02 3.7 C 2.87 g/m*3 3.7 C 0 km/h
1871 05-03-2008 14:18:01 4.8 C 2.62 g/m*3 4.8 C 0 km/h
1872 05-03-2008 14:30:01 5.3 C 2.5 g/m*3 5.3 C 0 km/h
1873 05-03-2008 14:42:02 6 C 2.18 g/m*3 6 C 0 km/h
1874 05-03-2008 14:54:02 6.5 C 2.02 g/m*3 6.5 C 0 km/h
1875 05-03-2008 15:06:01 4.9 C 2.23 g/m*3 4.9 C 0 km/h
Sensor: Nr:Datum:Temp:Abs-Feuchte:Windchill:Wind:
Aussen-T/F 1876 05-03-2008 15:18:01 4.5 C 2.43 g/m*3 4.5 C 0 km/h
1877 05-03-2008 15:30:01 6.1 C 2.34 g/m*3 6.1 C 0 km/h
1878 05-03-2008 15:42:01 6.7 C 2.13 g/m*3 6.7 C 0 km/h
1879 05-03-2008 15:54:02 5.4 C 2.3 g/m*3 5.4 C 0 km/h
1880 05-03-2008 16:06:01 5.2 C 2.27 g/m*3 5.2 C 0 km/h
1881 05-03-2008 16:18:02 5.5 C 2.18 g/m*3 5.5 C 0 km/h
1882 05-03-2008 16:30:02 6.1 C 2.05 g/m*3 6.1 C 0 km/h
1883 05-03-2008 16:42:02 6.9 C 2.31 g/m*3 6.9 C 0 km/h
1884 05-03-2008 16:54:02 6.7 C 2.05 g/m*3 6.7 C 0 km/h
1885 05-03-2008 17:06:02 6.3 C 1.85 g/m*3 6.3 C 0 km/h
1886 05-03-2008 17:18:02 5.7 C 1.78 g/m*3 5.7 C 0 km/h
1887 05-03-2008 17:30:03 6.1 C 1.9 g/m*3 6.1 C 0 km/h
1888 05-03-2008 17:42:02 5.7 C 1.92 g/m*3 5.7 C 0 km/h
1889 05-03-2008 17:54:02 5 C 2.04 g/m*3 5 C 0 km/h
1890 05-03-2008 18:06:02 4.4 C 2.09 g/m*3 4.4 C 0 km/h
1891 05-03-2008 18:18:02 3.8 C 2.57 g/m*3 3.8 C 0 km/h
1892 05-03-2008 18:30:02 3.2 C 2.59 g/m*3 3.2 C 0 km/h
1893 05-03-2008 18:42:03 2.7 C 2.74 g/m*3 2.7 C 0 km/h
1894 05-03-2008 18:54:02 2.3 C 2.67 g/m*3 2.3 C 0 km/h
1895 05-03-2008 19:06:02 2 C 2.67 g/m*3 2 C 0 km/h
1896 05-03-2008 19:18:02 1.7 C 2.72 g/m*3 1.7 C 0 km/h
1897 05-03-2008 19:30:02 1.5 C 2.79 g/m*3 1.5 C 0 km/h
1898 05-03-2008 19:42:01 1.3 C 2.86 g/m*3 1.3 C 0 km/h
1899 05-03-2008 19:54:02 1.2 C 2.89 g/m*3 1.2 C 0 km/h
1900 05-03-2008 20:06:02 0.9 C 2.94 g/m*3 0.9 C 0 km/h
Sensor: Nr:Datum:Temp:Abs-Feuchte:Windchill:Wind:
Aussen-T/F 1901 05-03-2008 20:18:02 0.7 C 2.95 g/m*3 0.7 C 0 km/h
1902 05-03-2008 20:30:02 0.6 C 2.88 g/m*3 0.6 C 0 km/h
1903 05-03-2008 20:42:02 0.5 C 2.86 g/m*3 0.5 C 0 km/h
1904 05-03-2008 20:54:02 0.4 C 2.89 g/m*3 0.4 C 0 km/h
1905 05-03-2008 21:06:01 0.3 C 2.82 g/m*3 0.3 C 0 km/h
1906 05-03-2008 21:18:02 0.1 C 2.83 g/m*3 0.1 C 0 km/h
1907 05-03-2008 21:30:02 0 C 2.91 g/m*3 0 C 0 km/h
1908 05-03-2008 21:42:01 0 C 2.91 g/m*3 0 C 0 km/h
1909 05-03-2008 21:54:02 -0.2 C 2.91 g/m*3 -0.2 C 0 km/h
1910 05-03-2008 22:07:02 -0.2 C 2.91 g/m*3 -0.2 C 0 km/h
1911 05-03-2008 22:19:02 -0.3 C 2.94 g/m*3 -0.3 C 0 km/h
1912 05-03-2008 22:31:02 -0.5 C 2.9 g/m*3 -0.5 C 0 km/h
1913 05-03-2008 22:43:02 -0.7 C 2.86 g/m*3 -0.7 C 0 km/h
1914 05-03-2008 22:55:02 -0.8 C 2.89 g/m*3 -0.8 C 0 km/h
1915 05-03-2008 23:07:02 -0.9 C 2.91 g/m*3 -0.9 C 0 km/h
1916 05-03-2008 23:19:02 -1 C 2.89 g/m*3 -1 C 0 km/h
1917 05-03-2008 23:31:02 -1.1 C 2.87 g/m*3 -1.1 C 0 km/h
1918 05-03-2008 23:43:02 -1.1 C 2.92 g/m*3 -1.1 C 0 km/h
1919 05-03-2008 23:55:02 -1.2 C 2.94 g/m*3 -1.2 C 0 km/h
1920 06-03-2008 00:07:02 -1.1 C 2.92 g/m*3 -1.1 C 0 km/h
1921 06-03-2008 00:19:02 -1.3 C 2.92 g/m*3 -1.3 C 0 km/h
1922 06-03-2008 00:31:02 -1.4 C 2.9 g/m*3 -1.4 C 0 km/h
1923 06-03-2008 00:43:03 -1.3 C 2.92 g/m*3 -1.3 C 0 km/h
1924 06-03-2008 00:55:03 -1.3 C 2.97 g/m*3 -1.3 C 0 km/h
1925 06-03-2008 01:07:03 -1.3 C 2.97 g/m*3 -1.3 C 0 km/h
Sensor: Nr:Datum:Temp:Abs-Feuchte:Windchill:Wind:
Aussen-T/F 1926 06-03-2008 01:19:03 -1.3 C 2.97 g/m*3 -1.3 C 0 km/h
1927 06-03-2008 01:31:03 -1.2 C 2.94 g/m*3 -1.2 C 0 km/h
1928 06-03-2008 01:43:03 -1.2 C 2.94 g/m*3 -1.2 C 0 km/h
1929 06-03-2008 01:55:03 -1.2 C 2.94 g/m*3 -1.2 C 0 km/h
1930 06-03-2008 02:07:03 -1.2 C 2.9 g/m*3 -1.2 C 0 km/h
1931 06-03-2008 02:19:03 -1.1 C 2.92 g/m*3 -1.1 C 0 km/h
1932 06-03-2008 02:31:03 -1.1 C 2.92 g/m*3 -1.1 C 0 km/h
1933 06-03-2008 02:43:03 -1.2 C 2.9 g/m*3 -1.2 C 0 km/h
1934 06-03-2008 02:55:03 -1.3 C 2.88 g/m*3 -1.3 C 0 km/h
1935 06-03-2008 03:07:03 -1.3 C 2.92 g/m*3 -1.3 C 0 km/h
1936 06-03-2008 03:19:03 -1.3 C 2.88 g/m*3 -1.3 C 0 km/h
1937 06-03-2008 03:31:03 -1.3 C 2.88 g/m*3 -1.3 C 0 km/h
1938 06-03-2008 03:43:03 -1.3 C 2.88 g/m*3 -1.3 C 0 km/h
1939 06-03-2008 03:55:03 -1.4 C 2.86 g/m*3 -1.4 C 0 km/h
1940 06-03-2008 04:07:03 -1.3 C 2.88 g/m*3 -1.3 C 0 km/h
1941 06-03-2008 04:19:03 -1.4 C 2.86 g/m*3 -1.4 C 0 km/h
1942 06-03-2008 04:31:03 -1.2 C 2.85 g/m*3 -1.2 C 0 km/h
1943 06-03-2008 04:43:03 -1.2 C 2.85 g/m*3 -1.2 C 0 km/h
1944 06-03-2008 04:55:04 -1.5 C 2.79 g/m*3 -1.5 C 0 km/h
1945 06-03-2008 05:07:04 -1.4 C 2.81 g/m*3 -1.4 C 0 km/h
1946 06-03-2008 05:19:04 -1.5 C 2.75 g/m*3 -1.5 C 0 km/h
1947 06-03-2008 05:31:04 -1.3 C 2.79 g/m*3 -1.3 C 0 km/h
1948 06-03-2008 05:43:04 -1 C 2.71 g/m*3 -1 C 0 km/h
1949 06-03-2008 05:55:04 -0.5 C 2.62 g/m*3 -0.5 C 0 km/h
1950 06-03-2008 06:07:04 -0.2 C 2.58 g/m*3 -0.2 C 0 km/h
Sensor: Nr:Datum:Temp:Abs-Feuchte:Windchill:Wind:
Aussen-T/F 1951 06-03-2008 06:19:04 0.3 C 2.57 g/m*3 0.3 C 0 km/h
1952 06-03-2008 06:31:04 0.6 C 2.52 g/m*3 0.6 C 0 km/h
1953 06-03-2008 06:43:04 0.8 C 2.56 g/m*3 0.8 C 0 km/h
1954 06-03-2008 06:55:04 0.8 C 2.56 g/m*3 0.8 C 0 km/h
1955 06-03-2008 07:07:02 0.9 C 2.63 g/m*3 0.9 C 0 km/h
1956 06-03-2008 07:19:02 0.9 C 2.63 g/m*3 0.9 C 0 km/h
1957 06-03-2008 07:31:02 0.8 C 2.66 g/m*3 0.8 C 0 km/h
1958 06-03-2008 07:43:02 0.8 C 2.61 g/m*3 0.8 C 0 km/h
1959 06-03-2008 07:55:02 0.9 C 2.58 g/m*3 0.9 C 0 km/h
1960 06-03-2008 08:07:02 1 C 2.54 g/m*3 1 C 0 km/h
1961 06-03-2008 08:19:02 1.1 C 2.56 g/m*3 1.1 C 0 km/h
1962 06-03-2008 08:31:03 1.1 C 2.56 g/m*3 1.1 C 0 km/h
1963 06-03-2008 08:43:03 1.3 C 2.54 g/m*3 1.3 C 0 km/h
1964 06-03-2008 08:55:02 1.5 C 2.58 g/m*3 1.5 C 0 km/h
1965 06-03-2008 09:07:02 1.5 C 2.58 g/m*3 1.5 C 0 km/h
1966 06-03-2008 09:19:01 1.7 C 2.61 g/m*3 1.7 C 0 km/h
1967 06-03-2008 09:31:02 1.8 C 2.58 g/m*3 1.8 C 0 km/h
1968 06-03-2008 09:43:02 2 C 2.56 g/m*3 2 C 0 km/h
1969 06-03-2008 09:55:02 2.1 C 2.57 g/m*3 2.1 C 0 km/h
1970 06-03-2008 10:07:01 2.2 C 2.59 g/m*3 2.2 C 0 km/h
1971 06-03-2008 10:19:01 2.4 C 2.63 g/m*3 2.4 C 0 km/h
1972 06-03-2008 10:31:02 2.6 C 2.66 g/m*3 2.6 C 0 km/h
1973 06-03-2008 10:43:02 2.8 C 2.64 g/m*3 2.8 C 0 km/h
1974 06-03-2008 10:55:02 3 C 2.62 g/m*3 3 C 0 km/h
1975 06-03-2008 11:07:02 3.2 C 2.65 g/m*3 3.2 C 0 km/h
Sensor: Nr:Datum:Temp:Abs-Feuchte:Windchill:Wind:
Aussen-T/F 1976 06-03-2008 11:19:02 3.5 C 2.64 g/m*3 3.5 C 0 km/h
1977 06-03-2008 11:31:02 4 C 2.67 g/m*3 4 C 0 km/h
1978 06-03-2008 11:43:02 4 C 2.61 g/m*3 4 C 0 km/h
1979 06-03-2008 11:55:01 4 C 2.61 g/m*3 4 C 0 km/h
1980 06-03-2008 12:07:01 4.4 C 2.68 g/m*3 4.4 C 0 km/h
1981 06-03-2008 12:19:02 4.5 C 2.63 g/m*3 4.5 C 0 km/h
1982 06-03-2008 12:31:01 4.3 C 2.66 g/m*3 4.3 C 0 km/h
1983 06-03-2008 12:43:01 4.2 C 2.71 g/m*3 4.2 C 0 km/h
1984 06-03-2008 12:55:02 4.3 C 2.72 g/m*3 4.3 C 0 km/h
1985 06-03-2008 13:07:01 4.6 C 2.71 g/m*3 4.6 C 0 km/h
1986 06-03-2008 13:19:02 4.8 C 2.68 g/m*3 4.8 C 0 km/h
1987 06-03-2008 13:31:02 4.8 C 2.75 g/m*3 4.8 C 0 km/h
1988 06-03-2008 13:43:03 5.2 C 2.75 g/m*3 5.2 C 0 km/h
1989 06-03-2008 13:55:02 5.2 C 2.69 g/m*3 5.2 C 0 km/h
1990 06-03-2008 14:07:02 5.4 C 2.79 g/m*3 5.4 C 0 km/h
1991 06-03-2008 14:19:02 5.4 C 2.79 g/m*3 5.4 C 0 km/h
1992 06-03-2008 14:31:02 5.6 C 2.83 g/m*3 5.6 C 0 km/h
1993 06-03-2008 14:43:02 5.5 C 2.81 g/m*3 5.5 C 0 km/h
1994 06-03-2008 14:55:02 5.8 C 2.87 g/m*3 5.8 C 0 km/h
1995 06-03-2008 15:07:02 5.7 C 2.85 g/m*3 5.7 C 0 km/h
1996 06-03-2008 15:19:01 6.1 C 2.92 g/m*3 6.1 C 0 km/h
1997 06-03-2008 15:31:02 5.9 C 2.88 g/m*3 5.9 C 0 km/h
1998 06-03-2008 15:43:02 6 C 2.98 g/m*3 6 C 0 km/h
1999 06-03-2008 15:55:01 6.1 C 2.92 g/m*3 6.1 C 0 km/h
2000 06-03-2008 16:07:02 6.1 C 2.92 g/m*3 6.1 C 0 km/h
Sensor: Nr:Datum:Temp:Abs-Feuchte:Windchill:Wind:
Aussen-T/F 2001 06-03-2008 16:19:02 6.2 C 3.02 g/m*3 6.2 C 0 km/h
2002 06-03-2008 16:31:01 6.2 C 3.02 g/m*3 6.2 C 0 km/h
2003 06-03-2008 16:43:01 6.3 C 3.03 g/m*3 6.3 C 0 km/h
2004 06-03-2008 16:55:02 6.3 C 3.03 g/m*3 6.3 C 0 km/h
2005 06-03-2008 17:07:01 6.2 C 3.02 g/m*3 6.2 C 0 km/h
2006 06-03-2008 17:19:02 6.1 C 3.07 g/m*3 6.1 C 0 km/h
2007 06-03-2008 17:31:02 6.1 C 3.14 g/m*3 6.1 C 0 km/h
2008 06-03-2008 17:43:02 5.9 C 3.24 g/m*3 5.9 C 0 km/h
2009 06-03-2008 17:55:02 5.7 C 3.2 g/m*3 5.7 C 0 km/h
2010 06-03-2008 18:07:02 5.7 C 3.2 g/m*3 5.7 C 0 km/h
2011 06-03-2008 18:19:02 5.6 C 3.25 g/m*3 5.6 C 0 km/h
2012 06-03-2008 18:31:02 5.4 C 3.28 g/m*3 5.4 C 0 km/h
2013 06-03-2008 18:43:02 5.3 C 3.26 g/m*3 5.3 C 0 km/h
2014 06-03-2008 18:55:02 5.3 C 3.33 g/m*3 5.3 C 0 km/h
2015 06-03-2008 19:07:02 5.3 C 3.33 g/m*3 5.3 C 0 km/h
2016 06-03-2008 19:19:02 5.4 C 3.28 g/m*3 5.4 C 0 km/h
2017 06-03-2008 19:31:02 5.4 C 3.35 g/m*3 5.4 C 0 km/h
2018 06-03-2008 19:43:02 5.4 C 3.49 g/m*3 5.4 C 0 km/h
2019 06-03-2008 19:55:02 5.3 C 3.53 g/m*3 5.3 C 0 km/h
2020 06-03-2008 20:07:01 5.2 C 3.44 g/m*3 5.2 C 0 km/h
2021 06-03-2008 20:19:02 5.3 C 3.4 g/m*3 5.3 C 0 km/h
2022 06-03-2008 20:31:02 5.3 C 3.47 g/m*3 5.3 C 0 km/h
2023 06-03-2008 20:43:02 5.2 C 3.51 g/m*3 5.2 C 0 km/h
2024 06-03-2008 20:55:02 5.1 C 3.56 g/m*3 5.1 C 0 km/h
2025 06-03-2008 21:07:02 5.2 C 3.51 g/m*3 5.2 C 0 km/h
Sensor: Nr:Datum:Temp:Abs-Feuchte:Windchill:Wind:
Aussen-T/F 2026 06-03-2008 21:19:02 5.2 C 3.58 g/m*3 5.2 C 0 km/h
2027 06-03-2008 21:31:03 5.1 C 3.56 g/m*3 5.1 C 0 km/h
2028 06-03-2008 21:43:03 5.2 C 3.58 g/m*3 5.2 C 0 km/h
2029 06-03-2008 21:56:02 5.2 C 3.65 g/m*3 5.2 C 0 km/h
2030 06-03-2008 22:08:02 5.3 C 3.6 g/m*3 5.3 C 0 km/h
2031 06-03-2008 22:20:02 5.2 C 3.65 g/m*3 5.2 C 0 km/h
2032 06-03-2008 22:32:02 5.2 C 3.65 g/m*3 5.2 C 0 km/h
2033 06-03-2008 22:44:02 5.1 C 3.63 g/m*3 5.1 C 0 km/h
2034 06-03-2008 22:56:02 5.1 C 3.56 g/m*3 5.1 C 0 km/h
2035 06-03-2008 23:08:02 5.1 C 3.63 g/m*3 5.1 C 0 km/h
2036 06-03-2008 23:20:03 5.1 C 3.63 g/m*3 5.1 C 0 km/h
2037 06-03-2008 23:32:03 5.1 C 3.63 g/m*3 5.1 C 0 km/h
2038 06-03-2008 23:44:03 5 C 3.67 g/m*3 5 C 0 km/h
2039 06-03-2008 23:56:03 5.1 C 3.69 g/m*3 5.1 C 0 km/h
2040 07-03-2008 00:08:03 5 C 3.74 g/m*3 5 C 0 km/h
2041 07-03-2008 00:20:03 5 C 3.67 g/m*3 5 C 0 km/h
2042 07-03-2008 00:32:03 5 C 3.87 g/m*3 5 C 0 km/h
2043 07-03-2008 00:44:03 5 C 3.81 g/m*3 5 C 0 km/h
2044 07-03-2008 00:56:03 4.9 C 3.92 g/m*3 4.9 C 0 km/h
2045 07-03-2008 01:08:03 5 C 3.87 g/m*3 5 C 0 km/h
2046 07-03-2008 01:20:03 5 C 3.87 g/m*3 5 C 0 km/h
2047 07-03-2008 01:32:03 4.9 C 3.98 g/m*3 4.9 C 0 km/h
2048 07-03-2008 01:44:03 4.9 C 3.98 g/m*3 4.9 C 0 km/h
2049 07-03-2008 01:56:03 4.9 C 3.92 g/m*3 4.9 C 0 km/h
2050 07-03-2008 02:08:03 4.8 C 3.82 g/m*3 4.8 C 0 km/h
Sensor: Nr:Datum:Temp:Abs-Feuchte:Windchill:Wind:
Aussen-T/F 2051 07-03-2008 02:20:03 4.8 C 3.89 g/m*3 4.8 C 0 km/h
2052 07-03-2008 02:32:03 4.8 C 3.89 g/m*3 4.8 C 0 km/h
2053 07-03-2008 02:44:03 4.8 C 3.96 g/m*3 4.8 C 0 km/h
2054 07-03-2008 02:56:03 4.8 C 3.96 g/m*3 4.8 C 0 km/h
2055 07-03-2008 03:08:03 4.8 C 3.96 g/m*3 4.8 C 0 km/h
2056 07-03-2008 03:20:04 4.8 C 4.02 g/m*3 4.8 C 0 km/h
2057 07-03-2008 03:32:04 4.8 C 4.02 g/m*3 4.8 C 0 km/h
2058 07-03-2008 03:44:04 4.8 C 4.02 g/m*3 4.8 C 0 km/h
2059 07-03-2008 03:56:04 4.8 C 4.02 g/m*3 4.8 C 0 km/h
2060 07-03-2008 04:08:04 4.8 C 4.02 g/m*3 4.8 C 0 km/h
2061 07-03-2008 04:20:04 4.8 C 4.09 g/m*3 4.8 C 0 km/h
2062 07-03-2008 04:32:04 4.8 C 4.16 g/m*3 4.8 C 0 km/h
2063 07-03-2008 04:44:04 4.7 C 4.2 g/m*3 4.7 C 0 km/h
2064 07-03-2008 04:56:04 4.5 C 4.27 g/m*3 4.5 C 0 km/h
2065 07-03-2008 05:08:04 4.4 C 4.44 g/m*3 4.4 C 0 km/h
2066 07-03-2008 05:20:04 4.3 C 4.61 g/m*3 4.3 C 0 km/h
2067 07-03-2008 05:32:04 4.2 C 4.7 g/m*3 4.2 C 0 km/h
2068 07-03-2008 05:44:04 4.3 C 4.74 g/m*3 4.3 C 0 km/h
2069 07-03-2008 05:56:04 4.4 C 4.77 g/m*3 4.4 C 0 km/h
2070 07-03-2008 06:08:04 4.2 C 4.77 g/m*3 4.2 C 0 km/h
2071 07-03-2008 06:20:04 3.9 C 4.74 g/m*3 3.9 C 0 km/h
2072 07-03-2008 06:32:04 3.7 C 4.8 g/m*3 3.7 C 0 km/h
2073 07-03-2008 06:44:04 3.4 C 4.76 g/m*3 3.4 C 0 km/h
2074 07-03-2008 06:56:04 3.4 C 4.83 g/m*3 3.4 C 0 km/h
2075 07-03-2008 07:08:03 3.3 C 4.79 g/m*3 3.3 C 0 km/h
Sensor: Nr:Datum:Temp:Abs-Feuchte:Windchill:Wind:
Aussen-T/F 2076 07-03-2008 07:20:03 3 C 4.7 g/m*3 3 C 0 km/h
2077 07-03-2008 07:32:02 2.9 C 4.78 g/m*3 2.9 C 0 km/h
2078 07-03-2008 07:44:02 2.7 C 4.72 g/m*3 2.7 C 0 km/h
2079 07-03-2008 07:56:01 2.8 C 4.87 g/m*3 2.8 C 0 km/h
2080 07-03-2008 08:08:02 3 C 4.88 g/m*3 3 C 0 km/h
2081 07-03-2008 08:20:02 3.2 C 5 g/m*3 3.2 C 0 km/h
2082 07-03-2008 08:32:01 3.7 C 5.23 g/m*3 3.7 C 0 km/h
2083 07-03-2008 08:44:01 4.4 C 5.42 g/m*3 4.4 C 0 km/h
2084 07-03-2008 08:56:01 5 C 5.5 g/m*3 5 C 0 km/h
2085 07-03-2008 09:08:02 5.4 C 5.3 g/m*3 5.4 C 0 km/h
2086 07-03-2008 09:20:02 5.8 C 5.23 g/m*3 5.8 C 0 km/h
2087 07-03-2008 09:32:02 6.2 C 5.07 g/m*3 6.2 C 0 km/h
2088 07-03-2008 09:44:02 6.3 C 4.89 g/m*3 6.3 C 0 km/h
2089 07-03-2008 09:56:02 6.4 C 4.84 g/m*3 6.4 C 0 km/h
2090 07-03-2008 10:08:02 6.9 C 5 g/m*3 6.9 C 0 km/h
2091 07-03-2008 10:20:02 7 C 4.8 g/m*3 7 C 0 km/h
2092 07-03-2008 10:32:02 7.4 C 4.93 g/m*3 7.4 C 0 km/h
2093 07-03-2008 10:44:02 7.4 C 4.77 g/m*3 7.4 C 0 km/h
2094 07-03-2008 10:56:02 7.6 C 4.83 g/m*3 7.6 C 0 km/h
2095 07-03-2008 11:08:02 7.8 C 4.9 g/m*3 7.8 C 0 km/h
2096 07-03-2008 11:20:01 7.7 C 4.78 g/m*3 7.7 C 0 km/h
2097 07-03-2008 11:32:01 7.9 C 4.85 g/m*3 7.9 C 0 km/h
2098 07-03-2008 11:44:01 8.1 C 4.83 g/m*3 8.1 C 0 km/h
2099 07-03-2008 11:56:01 8.4 C 4.84 g/m*3 8.4 C 0 km/h
2100 07-03-2008 12:08:02 8.5 C 4.78 g/m*3 8.5 C 0 km/h
Sensor: Nr:Datum:Temp:Abs-Feuchte:Windchill:Wind:
Aussen-T/F 2101 07-03-2008 12:20:02 8.4 C 4.75 g/m*3 8.4 C 0 km/h
2102 07-03-2008 12:32:01 8.3 C 4.72 g/m*3 8.3 C 0 km/h
2103 07-03-2008 12:44:01 8.5 C 4.78 g/m*3 8.5 C 0 km/h
2104 07-03-2008 12:56:01 8.6 C 4.81 g/m*3 8.6 C 0 km/h
2105 07-03-2008 13:08:02 8.8 C 4.79 g/m*3 8.8 C 0 km/h
2106 07-03-2008 13:20:02 9.6 C 4.76 g/m*3 9.6 C 0 km/h
2107 07-03-2008 13:32:02 10.5 C 4.75 g/m*3 10.5 C 0 km/h
2108 07-03-2008 13:44:02 10.5 C 4.56 g/m*3 10.5 C 0 km/h
2109 07-03-2008 13:56:02 10.5 C 4.56 g/m*3 10.5 C 0 km/h
2110 07-03-2008 14:08:02 10.7 C 4.62 g/m*3 10.7 C 0 km/h
2111 07-03-2008 14:20:02 10.7 C 4.52 g/m*3 10.7 C 0 km/h
2112 07-03-2008 14:32:02 11 C 4.6 g/m*3 11 C 0 km/h
2113 07-03-2008 14:44:02 10.9 C 4.48 g/m*3 10.9 C 0 km/h
2114 07-03-2008 14:56:01 10.8 C 4.55 g/m*3 10.8 C 0 km/h
2115 07-03-2008 15:08:01 11.6 C 4.68 g/m*3 11.6 C 0 km/h
2116 07-03-2008 15:20:02 11.8 C 4.74 g/m*3 11.8 C 0 km/h
2117 07-03-2008 15:32:01 11.1 C 4.53 g/m*3 11.1 C 0 km/h
2118 07-03-2008 15:44:01 10.6 C 4.59 g/m*3 10.6 C 0 km/h
2119 07-03-2008 15:56:02 10.3 C 4.6 g/m*3 10.3 C 0 km/h
2120 07-03-2008 16:08:02 10.1 C 4.73 g/m*3 10.1 C 0 km/h
2121 07-03-2008 16:20:02 9.9 C 4.76 g/m*3 9.9 C 0 km/h
2122 07-03-2008 16:32:03 9.8 C 4.82 g/m*3 9.8 C 0 km/h
2123 07-03-2008 16:44:03 9.5 C 4.73 g/m*3 9.5 C 0 km/h
2124 07-03-2008 16:56:03 9.2 C 4.73 g/m*3 9.2 C 0 km/h
2125 07-03-2008 17:08:02 9.3 C 4.85 g/m*3 9.3 C 0 km/h
Sensor: Nr:Datum:Temp:Abs-Feuchte:Windchill:Wind:
Aussen-T/F 2126 07-03-2008 17:20:02 9.4 C 4.88 g/m*3 9.4 C 0 km/h
2127 07-03-2008 17:32:03 9.5 C 4.92 g/m*3 9.5 C 0 km/h
2128 07-03-2008 17:44:04 9.4 C 4.97 g/m*3 9.4 C 0 km/h
2129 07-03-2008 17:56:02 9.3 C 5.03 g/m*3 9.3 C 0 km/h
2130 07-03-2008 18:08:01 9.2 C 5.09 g/m*3 9.2 C 0 km/h
2131 07-03-2008 18:20:01 9 C 5.11 g/m*3 9 C 0 km/h
2132 07-03-2008 18:32:01 8.8 C 5.22 g/m*3 8.8 C 0 km/h
2133 07-03-2008 18:44:01 8.6 C 5.24 g/m*3 8.6 C 0 km/h
2134 07-03-2008 18:56:02 8.5 C 5.21 g/m*3 8.5 C 0 km/h
2135 07-03-2008 19:08:01 8.4 C 5.17 g/m*3 8.4 C 0 km/h
2136 07-03-2008 19:20:02 8.4 C 5.09 g/m*3 8.4 C 0 km/h
2137 07-03-2008 19:32:02 8.4 C 5.01 g/m*3 8.4 C 0 km/h
2138 07-03-2008 19:44:02 8.4 C 4.67 g/m*3 8.4 C 0 km/h
2139 07-03-2008 19:56:02 8.2 C 4.77 g/m*3 8.2 C 0 km/h
2140 07-03-2008 20:08:02 7.9 C 4.93 g/m*3 7.9 C 0 km/h
2141 07-03-2008 20:20:03 7.7 C 5.11 g/m*3 7.7 C 0 km/h
2142 07-03-2008 20:32:02 7.7 C 5.19 g/m*3 7.7 C 0 km/h
2143 07-03-2008 20:44:03 7.7 C 5.11 g/m*3 7.7 C 0 km/h
2144 07-03-2008 20:56:02 7.6 C 5.08 g/m*3 7.6 C 0 km/h
2145 07-03-2008 21:08:02 7.6 C 5.08 g/m*3 7.6 C 0 km/h
2146 07-03-2008 21:20:02 7.5 C 5.04 g/m*3 7.5 C 0 km/h
2147 07-03-2008 21:32:02 7.5 C 4.96 g/m*3 7.5 C 0 km/h
2148 07-03-2008 21:44:02 7.5 C 4.96 g/m*3 7.5 C 0 km/h
2149 07-03-2008 21:56:02 7.4 C 4.93 g/m*3 7.4 C 0 km/h
2150 07-03-2008 22:09:02 7.4 C 5.01 g/m*3 7.4 C 0 km/h
Sensor: Nr:Datum:Temp:Abs-Feuchte:Windchill:Wind:
Aussen-T/F 2151 07-03-2008 22:21:02 7.4 C 5.01 g/m*3 7.4 C 0 km/h
2152 07-03-2008 22:33:03 7.3 C 4.9 g/m*3 7.3 C 0 km/h
2153 07-03-2008 22:45:03 7.2 C 4.95 g/m*3 7.2 C 0 km/h
2154 07-03-2008 22:57:03 7.1 C 4.99 g/m*3 7.1 C 0 km/h
2155 07-03-2008 23:09:03 7.1 C 4.99 g/m*3 7.1 C 0 km/h
2156 07-03-2008 23:21:03 7 C 4.96 g/m*3 7 C 0 km/h
2157 07-03-2008 23:33:03 7.1 C 4.91 g/m*3 7.1 C 0 km/h
2158 07-03-2008 23:45:03 7.1 C 4.84 g/m*3 7.1 C 0 km/h
2159 07-03-2008 23:57:03 7.1 C 4.84 g/m*3 7.1 C 0 km/h
2160 08-03-2008 00:09:03 7 C 4.8 g/m*3 7 C 0 km/h
2161 08-03-2008 00:21:03 7.1 C 4.84 g/m*3 7.1 C 0 km/h
2162 08-03-2008 00:33:03 7 C 4.88 g/m*3 7 C 0 km/h
2163 08-03-2008 00:45:03 6.9 C 5 g/m*3 6.9 C 0 km/h
2164 08-03-2008 00:57:03 6.8 C 5.05 g/m*3 6.8 C 0 km/h
2165 08-03-2008 01:09:03 6.7 C 5.17 g/m*3 6.7 C 0 km/h
2166 08-03-2008 01:21:03 6.7 C 5.24 g/m*3 6.7 C 0 km/h
2167 08-03-2008 01:33:03 6.7 C 5.24 g/m*3 6.7 C 0 km/h
2168 08-03-2008 01:45:03 6.7 C 5.24 g/m*3 6.7 C 0 km/h
2169 08-03-2008 01:57:03 6.7 C 5.17 g/m*3 6.7 C 0 km/h
2170 08-03-2008 02:09:03 6.7 C 5.17 g/m*3 6.7 C 0 km/h
2171 08-03-2008 02:21:04 6.7 C 5.24 g/m*3 6.7 C 0 km/h
2172 08-03-2008 02:33:04 6.4 C 5.29 g/m*3 6.4 C 0 km/h
2173 08-03-2008 02:45:04 6.2 C 5.44 g/m*3 6.2 C 0 km/h
2174 08-03-2008 02:57:04 6.1 C 5.48 g/m*3 6.1 C 0 km/h
2175 08-03-2008 03:09:04 6.1 C 5.55 g/m*3 6.1 C 0 km/h
Sensor: Nr:Datum:Temp:Abs-Feuchte:Windchill:Wind:
Aussen-T/F 2176 08-03-2008 03:21:04 6 C 5.59 g/m*3 6 C 0 km/h
2177 08-03-2008 03:33:04 5.9 C 5.7 g/m*3 5.9 C 0 km/h
2178 08-03-2008 03:45:04 5.9 C 5.77 g/m*3 5.9 C 0 km/h
2179 08-03-2008 03:57:04 5.9 C 5.77 g/m*3 5.9 C 0 km/h
2180 08-03-2008 04:09:04 5.9 C 5.77 g/m*3 5.9 C 0 km/h
2181 08-03-2008 04:21:04 5.8 C 5.73 g/m*3 5.8 C 0 km/h
2182 08-03-2008 04:33:04 5.7 C 5.76 g/m*3 5.7 C 0 km/h
2183 08-03-2008 04:45:04 5.7 C 5.84 g/m*3 5.7 C 0 km/h
2184 08-03-2008 04:57:04 5.7 C 5.76 g/m*3 5.7 C 0 km/h
2185 08-03-2008 05:09:04 5.7 C 5.76 g/m*3 5.7 C 0 km/h
2186 08-03-2008 05:21:04 5.5 C 5.69 g/m*3 5.5 C 0 km/h
2187 08-03-2008 05:33:04 5.3 C 5.61 g/m*3 5.3 C 0 km/h
2188 08-03-2008 05:45:04 5.2 C 5.65 g/m*3 5.2 C 0 km/h
2189 08-03-2008 05:57:04 4.9 C 5.54 g/m*3 4.9 C 0 km/h
2190 08-03-2008 06:09:04 4.6 C 5.43 g/m*3 4.6 C 0 km/h
2191 08-03-2008 06:21:05 4.4 C 5.35 g/m*3 4.4 C 0 km/h
2192 08-03-2008 06:33:05 4.2 C 5.28 g/m*3 4.2 C 0 km/h
2193 08-03-2008 06:45:05 4.2 C 5.35 g/m*3 4.2 C 0 km/h
2194 08-03-2008 06:57:05 3.9 C 5.31 g/m*3 3.9 C 0 km/h
2195 08-03-2008 07:09:05 4.2 C 5.41 g/m*3 4.2 C 0 km/h
2196 08-03-2008 07:21:05 4.1 C 5.44 g/m*3 4.1 C 0 km/h
2197 08-03-2008 07:33:05 4.1 C 5.5 g/m*3 4.1 C 0 km/h
2198 08-03-2008 07:45:05 4.1 C 5.5 g/m*3 4.1 C 0 km/h
2199 08-03-2008 07:57:05 4.4 C 5.68 g/m*3 4.4 C 0 km/h
2200 08-03-2008 08:09:05 4.4 C 5.62 g/m*3 4.4 C 0 km/h
Sensor: Nr:Datum:Temp:Abs-Feuchte:Windchill:Wind:
Aussen-T/F 2201 08-03-2008 08:21:05 4.3 C 5.58 g/m*3 4.3 C 0 km/h
2202 08-03-2008 08:33:05 4 C 5.4 g/m*3 4 C 0 km/h
2203 08-03-2008 08:45:05 4 C 5.53 g/m*3 4 C 0 km/h
2204 08-03-2008 08:57:05 4.1 C 5.63 g/m*3 4.1 C 0 km/h
2205 08-03-2008 09:09:05 4.4 C 5.75 g/m*3 4.4 C 0 km/h
2206 08-03-2008 09:21:05 4.5 C 5.72 g/m*3 4.5 C 0 km/h
2207 08-03-2008 09:33:05 4.8 C 5.77 g/m*3 4.8 C 0 km/h
2208 08-03-2008 09:45:02 5.2 C 5.58 g/m*3 5.2 C 0 km/h
2209 08-03-2008 09:57:02 5.6 C 5.37 g/m*3 5.6 C 0 km/h
2210 08-03-2008 10:09:02 6 C 4.94 g/m*3 6 C 0 km/h
2211 08-03-2008 10:21:02 6.4 C 4.62 g/m*3 6.4 C 0 km/h
2212 08-03-2008 10:33:02 6.8 C 4.13 g/m*3 6.8 C 0 km/h
2213 08-03-2008 10:45:01 6.9 C 4.16 g/m*3 6.9 C 0 km/h
2214 08-03-2008 10:57:01 7.3 C 3.87 g/m*3 7.3 C 0 km/h
2215 08-03-2008 11:09:02 7.4 C 3.9 g/m*3 7.4 C 0 km/h
2216 08-03-2008 11:21:01 7.6 C 3.63 g/m*3 7.6 C 0 km/h
2217 08-03-2008 11:33:01 8.1 C 3.33 g/m*3 8.1 C 0 km/h
2218 08-03-2008 11:45:02 8.2 C 3.18 g/m*3 8.2 C 0 km/h
2219 08-03-2008 11:57:02 8.6 C 3.27 g/m*3 8.6 C 0 km/h
2220 08-03-2008 12:09:03 8.8 C 3.22 g/m*3 8.8 C 0 km/h
2221 08-03-2008 12:21:02 9.1 C 3.28 g/m*3 9.1 C 0 km/h
2222 08-03-2008 12:33:02 9.1 C 3.37 g/m*3 9.1 C 0 km/h
2223 08-03-2008 12:45:01 9.4 C 3.35 g/m*3 9.4 C 0 km/h
2224 08-03-2008 12:57:01 9.7 C 3.41 g/m*3 9.7 C 0 km/h
2225 08-03-2008 13:09:01 10 C 3.29 g/m*3 10 C 0 km/h
Sensor: Nr:Datum:Temp:Abs-Feuchte:Windchill:Wind:
Aussen-T/F 2226 08-03-2008 13:21:01 10.3 C 3.26 g/m*3 10.3 C 0 km/h
2227 08-03-2008 13:33:01 10.9 C 3.08 g/m*3 10.9 C 0 km/h
2228 08-03-2008 13:45:02 11 C 3.1 g/m*3 11 C 0 km/h
2229 08-03-2008 13:57:02 11.2 C 3.14 g/m*3 11.2 C 0 km/h
2230 08-03-2008 14:09:02 11.3 C 3.26 g/m*3 11.3 C 0 km/h
2231 08-03-2008 14:21:02 11.1 C 3.22 g/m*3 11.1 C 0 km/h
2232 08-03-2008 14:33:01 11.1 C 3.22 g/m*3 11.1 C 0 km/h
2233 08-03-2008 14:45:01 10.6 C 3.42 g/m*3 10.6 C 0 km/h
2234 08-03-2008 14:57:01 10.3 C 3.35 g/m*3 10.3 C 0 km/h
2235 08-03-2008 15:09:02 10.7 C 3.44 g/m*3 10.7 C 0 km/h
2236 08-03-2008 15:21:01 11.2 C 3.34 g/m*3 11.2 C 0 km/h
2237 08-03-2008 15:33:01 10.8 C 3.46 g/m*3 10.8 C 0 km/h
2238 08-03-2008 15:45:01 11.2 C 3.45 g/m*3 11.2 C 0 km/h
2239 08-03-2008 15:57:01 11.3 C 3.37 g/m*3 11.3 C 0 km/h
2240 08-03-2008 16:09:01 10.9 C 3.18 g/m*3 10.9 C 0 km/h
2241 08-03-2008 16:21:02 10.6 C 3.22 g/m*3 10.6 C 0 km/h
2242 08-03-2008 16:33:01 10.4 C 3.28 g/m*3 10.4 C 0 km/h
2243 08-03-2008 16:45:02 10.4 C 3.28 g/m*3 10.4 C 0 km/h
2244 08-03-2008 16:57:02 10.1 C 3.31 g/m*3 10.1 C 0 km/h
2245 08-03-2008 17:09:01 9.9 C 3.36 g/m*3 9.9 C 0 km/h
2246 08-03-2008 17:21:02 9.7 C 3.23 g/m*3 9.7 C 0 km/h
2247 08-03-2008 17:33:02 9.7 C 3.23 g/m*3 9.7 C 0 km/h
2248 08-03-2008 17:45:02 9.6 C 3.21 g/m*3 9.6 C 0 km/h
2249 08-03-2008 17:57:02 9.5 C 3.28 g/m*3 9.5 C 0 km/h
2250 08-03-2008 18:09:02 8.9 C 3.5 g/m*3 8.9 C 0 km/h
Sensor: Nr:Datum:Temp:Abs-Feuchte:Windchill:Wind:
Aussen-T/F 2251 08-03-2008 18:21:02 8.3 C 3.54 g/m*3 8.3 C 0 km/h
2252 08-03-2008 18:33:02 7.6 C 3.71 g/m*3 7.6 C 0 km/h
2253 08-03-2008 18:45:01 7.5 C 3.6 g/m*3 7.5 C 0 km/h
2254 08-03-2008 18:57:01 7.4 C 3.5 g/m*3 7.4 C 0 km/h
2255 08-03-2008 19:09:02 7.3 C 3.48 g/m*3 7.3 C 0 km/h
2256 08-03-2008 19:21:02 7.1 C 3.43 g/m*3 7.1 C 0 km/h
2257 08-03-2008 19:33:01 6.9 C 3.46 g/m*3 6.9 C 0 km/h
2258 08-03-2008 19:45:02 6.8 C 3.44 g/m*3 6.8 C 0 km/h
2259 08-03-2008 19:57:02 6.7 C 3.57 g/m*3 6.7 C 0 km/h
2260 08-03-2008 20:09:02 6.2 C 3.6 g/m*3 6.2 C 0 km/h
2261 08-03-2008 20:21:02 6.1 C 3.65 g/m*3 6.1 C 0 km/h
2262 08-03-2008 20:33:01 6 C 3.63 g/m*3 6 C 0 km/h
2263 08-03-2008 20:45:02 6 C 3.63 g/m*3 6 C 0 km/h
2264 08-03-2008 20:57:02 5.8 C 3.72 g/m*3 5.8 C 0 km/h
2265 08-03-2008 21:09:02 5.5 C 3.79 g/m*3 5.5 C 0 km/h
2266 08-03-2008 21:21:02 5.6 C 3.68 g/m*3 5.6 C 0 km/h
2267 08-03-2008 21:33:02 5.4 C 3.7 g/m*3 5.4 C 0 km/h
2268 08-03-2008 21:45:03 5.4 C 3.7 g/m*3 5.4 C 0 km/h
2269 08-03-2008 21:57:03 5.2 C 3.79 g/m*3 5.2 C 0 km/h
2270 08-03-2008 22:09:02 5 C 3.74 g/m*3 5 C 0 km/h
2271 08-03-2008 22:21:02 4.8 C 3.76 g/m*3 4.8 C 0 km/h
2272 08-03-2008 22:34:03 4.6 C 3.77 g/m*3 4.6 C 0 km/h
2273 08-03-2008 22:46:03 4.5 C 3.81 g/m*3 4.5 C 0 km/h
2274 08-03-2008 22:58:03 4.5 C 3.88 g/m*3 4.5 C 0 km/h
2275 08-03-2008 23:10:03 4.5 C 3.88 g/m*3 4.5 C 0 km/h
Sensor: Nr:Datum:Temp:Abs-Feuchte:Windchill:Wind:
Aussen-T/F 2276 08-03-2008 23:22:04 4.5 C 3.94 g/m*3 4.5 C 0 km/h
2277 08-03-2008 23:34:04 4.3 C 3.96 g/m*3 4.3 C 0 km/h
2278 08-03-2008 23:46:04 4.4 C 4.05 g/m*3 4.4 C 0 km/h
2279 08-03-2008 23:58:04 4.5 C 4.14 g/m*3 4.5 C 0 km/h
2280 09-03-2008 00:10:04 4.4 C 4.11 g/m*3 4.4 C 0 km/h
2281 09-03-2008 00:22:04 4.4 C 4.11 g/m*3 4.4 C 0 km/h
2282 09-03-2008 00:34:04 4.1 C 4.1 g/m*3 4.1 C 0 km/h
2283 09-03-2008 00:46:04 4 C 4.13 g/m*3 4 C 0 km/h
2284 09-03-2008 00:58:04 3.8 C 4.2 g/m*3 3.8 C 0 km/h
2285 09-03-2008 01:10:04 4 C 4.26 g/m*3 4 C 0 km/h
2286 09-03-2008 01:22:04 4.1 C 4.29 g/m*3 4.1 C 0 km/h
2287 09-03-2008 01:34:04 4.2 C 4.38 g/m*3 4.2 C 0 km/h
2288 09-03-2008 01:46:04 4.2 C 4.32 g/m*3 4.2 C 0 km/h
2289 09-03-2008 01:58:04 4 C 4.32 g/m*3 4 C 0 km/h
2290 09-03-2008 02:10:04 4.1 C 4.48 g/m*3 4.1 C 0 km/h
2291 09-03-2008 02:22:04 4.6 C 4.7 g/m*3 4.6 C 0 km/h
2292 09-03-2008 02:34:04 4.8 C 4.69 g/m*3 4.8 C 0 km/h
2293 09-03-2008 02:46:04 5 C 4.69 g/m*3 5 C 0 km/h
2294 09-03-2008 02:58:04 5.3 C 4.57 g/m*3 5.3 C 0 km/h
2295 09-03-2008 03:10:05 5.5 C 4.49 g/m*3 5.5 C 0 km/h
2296 09-03-2008 03:22:05 5.7 C 4.48 g/m*3 5.7 C 0 km/h
2297 09-03-2008 03:34:05 5.7 C 4.41 g/m*3 5.7 C 0 km/h
2298 09-03-2008 03:46:05 5.8 C 4.37 g/m*3 5.8 C 0 km/h
2299 09-03-2008 03:58:05 5.9 C 4.25 g/m*3 5.9 C 0 km/h
2300 09-03-2008 04:10:05 5.9 C 4.25 g/m*3 5.9 C 0 km/h
Sensor: Nr:Datum:Temp:Abs-Feuchte:Windchill:Wind:
Aussen-T/F 2301 09-03-2008 04:22:05 5.9 C 4.25 g/m*3 5.9 C 0 km/h
2302 09-03-2008 04:34:05 5.8 C 4.3 g/m*3 5.8 C 0 km/h
2303 09-03-2008 04:46:05 5.8 C 4.3 g/m*3 5.8 C 0 km/h
2304 09-03-2008 04:58:05 5.8 C 4.3 g/m*3 5.8 C 0 km/h
2305 09-03-2008 05:10:05 5.7 C 4.27 g/m*3 5.7 C 0 km/h
2306 09-03-2008 05:22:05 5.5 C 4.21 g/m*3 5.5 C 0 km/h
2307 09-03-2008 05:34:05 5.4 C 4.19 g/m*3 5.4 C 0 km/h
2308 09-03-2008 05:46:05 5.3 C 4.23 g/m*3 5.3 C 0 km/h
2309 09-03-2008 05:58:05 5.2 C 4.27 g/m*3 5.2 C 0 km/h
2310 09-03-2008 06:10:05 5.2 C 4.27 g/m*3 5.2 C 0 km/h
2311 09-03-2008 06:22:05 5.2 C 4.34 g/m*3 5.2 C 0 km/h
2312 09-03-2008 06:34:05 5.2 C 4.34 g/m*3 5.2 C 0 km/h
2313 09-03-2008 06:46:05 5.4 C 4.33 g/m*3 5.4 C 0 km/h
2314 09-03-2008 06:58:05 5.5 C 4.28 g/m*3 5.5 C 0 km/h
2315 09-03-2008 07:10:06 5.6 C 4.31 g/m*3 5.6 C 0 km/h
2316 09-03-2008 07:22:06 5.8 C 4.3 g/m*3 5.8 C 0 km/h
2317 09-03-2008 07:34:06 6 C 4.21 g/m*3 6 C 0 km/h
2318 09-03-2008 07:46:06 6.1 C 4.24 g/m*3 6.1 C 0 km/h
2319 09-03-2008 07:58:06 6.2 C 4.19 g/m*3 6.2 C 0 km/h
2320 09-03-2008 08:10:06 6.5 C 4.27 g/m*3 6.5 C 0 km/h
2321 09-03-2008 08:22:06 6.7 C 4.26 g/m*3 6.7 C 0 km/h
2322 09-03-2008 08:34:06 6.8 C 4.21 g/m*3 6.8 C 0 km/h
2323 09-03-2008 08:46:01 7 C 4.18 g/m*3 7 C 0 km/h
2324 09-03-2008 08:58:01 7.2 C 4.16 g/m*3 7.2 C 0 km/h
2325 09-03-2008 09:10:02 7.7 C 4.14 g/m*3 7.7 C 0 km/h
Sensor: Nr:Datum:Temp:Abs-Feuchte:Windchill:Wind:
Aussen-T/F 2326 09-03-2008 09:22:02 8 C 4.05 g/m*3 8 C 0 km/h
2327 09-03-2008 09:34:01 7.9 C 4.11 g/m*3 7.9 C 0 km/h
2328 09-03-2008 09:46:03 7.8 C 4.08 g/m*3 7.8 C 0 km/h
2329 09-03-2008 09:58:03 8 C 4.05 g/m*3 8 C 0 km/h
2330 09-03-2008 10:10:02 8.1 C 3.99 g/m*3 8.1 C 0 km/h
2331 09-03-2008 10:22:02 8.4 C 4.07 g/m*3 8.4 C 0 km/h
2332 09-03-2008 10:34:02 9 C 4.06 g/m*3 9 C 0 km/h
2333 09-03-2008 10:46:02 9.3 C 3.95 g/m*3 9.3 C 0 km/h
2334 09-03-2008 10:58:02 10.1 C 3.97 g/m*3 10.1 C 0 km/h
2335 09-03-2008 11:10:03 10 C 3.85 g/m*3 10 C 0 km/h
2336 09-03-2008 11:22:02 9.9 C 3.92 g/m*3 9.9 C 0 km/h
2337 09-03-2008 11:34:02 10.1 C 3.97 g/m*3 10.1 C 0 km/h
2338 09-03-2008 11:46:02 10 C 3.95 g/m*3 10 C 0 km/h
2339 09-03-2008 11:58:02 9.9 C 4.01 g/m*3 9.9 C 0 km/h
2340 09-03-2008 12:10:02 10 C 3.95 g/m*3 10 C 0 km/h
2341 09-03-2008 12:22:03 9.8 C 3.99 g/m*3 9.8 C 0 km/h
2342 09-03-2008 12:34:02 9.8 C 3.99 g/m*3 9.8 C 0 km/h
2343 09-03-2008 12:46:02 9.9 C 4.01 g/m*3 9.9 C 0 km/h
2344 09-03-2008 12:58:02 9.8 C 3.99 g/m*3 9.8 C 0 km/h
2345 09-03-2008 13:10:01 10.3 C 3.93 g/m*3 10.3 C 0 km/h
2346 09-03-2008 13:22:02 10.1 C 3.88 g/m*3 10.1 C 0 km/h
2347 09-03-2008 13:34:02 10.1 C 3.88 g/m*3 10.1 C 0 km/h
2348 09-03-2008 13:46:02 10.1 C 3.88 g/m*3 10.1 C 0 km/h
2349 09-03-2008 13:58:02 10 C 3.85 g/m*3 10 C 0 km/h
2350 09-03-2008 14:10:02 10 C 3.85 g/m*3 10 C 0 km/h
Sensor: Nr:Datum:Temp:Abs-Feuchte:Windchill:Wind:
Aussen-T/F 2351 09-03-2008 14:22:02 10.2 C 3.9 g/m*3 10.2 C 0 km/h
2352 09-03-2008 14:34:02 10.5 C 3.98 g/m*3 10.5 C 0 km/h
2353 09-03-2008 14:46:02 10.6 C 3.81 g/m*3 10.6 C 0 km/h
2354 09-03-2008 14:58:02 10.9 C 3.68 g/m*3 10.9 C 0 km/h
2355 09-03-2008 15:10:01 11.2 C 3.55 g/m*3 11.2 C 0 km/h
2356 09-03-2008 15:22:01 11.2 C 3.55 g/m*3 11.2 C 0 km/h
2357 09-03-2008 15:34:02 11.3 C 3.47 g/m*3 11.3 C 0 km/h
2358 09-03-2008 15:46:03 11.4 C 3.49 g/m*3 11.4 C 0 km/h
2359 09-03-2008 15:58:03 11.1 C 3.32 g/m*3 11.1 C 0 km/h
2360 09-03-2008 16:10:03 10.8 C 3.46 g/m*3 10.8 C 0 km/h
2361 09-03-2008 16:22:02 10.9 C 3.48 g/m*3 10.9 C 0 km/h
2362 09-03-2008 16:34:02 10.8 C 3.46 g/m*3 10.8 C 0 km/h
2363 09-03-2008 16:46:02 10.6 C 3.42 g/m*3 10.6 C 0 km/h
2364 09-03-2008 16:58:03 10.5 C 3.49 g/m*3 10.5 C 0 km/h
2365 09-03-2008 17:10:01 10.4 C 3.57 g/m*3 10.4 C 0 km/h
2366 09-03-2008 17:22:02 10.3 C 3.54 g/m*3 10.3 C 0 km/h
2367 09-03-2008 17:34:02 10.2 C 3.52 g/m*3 10.2 C 0 km/h
2368 09-03-2008 17:46:02 10.1 C 3.69 g/m*3 10.1 C 0 km/h
2369 09-03-2008 17:58:02 10 C 3.57 g/m*3 10 C 0 km/h
2370 09-03-2008 18:10:02 10 C 3.57 g/m*3 10 C 0 km/h
2371 09-03-2008 18:22:02 10 C 3.57 g/m*3 10 C 0 km/h
2372 09-03-2008 18:34:02 9.8 C 3.62 g/m*3 9.8 C 0 km/h
2373 09-03-2008 18:46:02 9.6 C 3.66 g/m*3 9.6 C 0 km/h
2374 09-03-2008 18:58:02 9.4 C 3.62 g/m*3 9.4 C 0 km/h
2375 09-03-2008 19:10:02 9.3 C 3.59 g/m*3 9.3 C 0 km/h
Sensor: Nr:Datum:Temp:Abs-Feuchte:Windchill:Wind:
Aussen-T/F 2376 09-03-2008 19:22:02 9.4 C 3.71 g/m*3 9.4 C 0 km/h
2377 09-03-2008 19:34:02 9.1 C 3.73 g/m*3 9.1 C 0 km/h
2378 09-03-2008 19:46:02 9.1 C 3.73 g/m*3 9.1 C 0 km/h
2379 09-03-2008 19:58:02 9.1 C 3.73 g/m*3 9.1 C 0 km/h
2380 09-03-2008 20:10:02 9.1 C 3.82 g/m*3 9.1 C 0 km/h
2381 09-03-2008 20:22:02 9.1 C 3.73 g/m*3 9.1 C 0 km/h
2382 09-03-2008 20:34:02 9.1 C 3.73 g/m*3 9.1 C 0 km/h
2383 09-03-2008 20:46:02 9.1 C 3.73 g/m*3 9.1 C 0 km/h
2384 09-03-2008 20:58:02 9.2 C 3.66 g/m*3 9.2 C 0 km/h
2385 09-03-2008 21:10:02 9.3 C 3.77 g/m*3 9.3 C 0 km/h
2386 09-03-2008 21:22:02 9.4 C 3.71 g/m*3 9.4 C 0 km/h
2387 09-03-2008 21:34:02 9.7 C 3.78 g/m*3 9.7 C 0 km/h
2388 09-03-2008 21:46:02 9.7 C 3.78 g/m*3 9.7 C 0 km/h
2389 09-03-2008 21:58:02 9.6 C 3.94 g/m*3 9.6 C 0 km/h
2390 09-03-2008 22:10:03 9.6 C 4.12 g/m*3 9.6 C 0 km/h
2391 09-03-2008 22:23:02 9.5 C 4.19 g/m*3 9.5 C 0 km/h
2392 09-03-2008 22:35:02 9.5 C 4.19 g/m*3 9.5 C 0 km/h
2393 09-03-2008 22:47:02 9.5 C 4.28 g/m*3 9.5 C 0 km/h
2394 09-03-2008 22:59:02 9.3 C 4.31 g/m*3 9.3 C 0 km/h
2395 09-03-2008 23:11:02 9.1 C 4.26 g/m*3 9.1 C 0 km/h
2396 09-03-2008 23:23:02 9.1 C 4.44 g/m*3 9.1 C 0 km/h
2397 09-03-2008 23:35:02 9.1 C 4.44 g/m*3 9.1 C 0 km/h
2398 09-03-2008 23:47:02 8.9 C 4.47 g/m*3 8.9 C 0 km/h
2399 09-03-2008 23:59:02 8.9 C 4.47 g/m*3 8.9 C 0 km/h
2400 10-03-2008 00:11:03 8.7 C 4.41 g/m*3 8.7 C 0 km/h
Sensor: Nr:Datum:Temp:Abs-Feuchte:Windchill:Wind:
Aussen-T/F 2401 10-03-2008 00:23:03 8.6 C 4.38 g/m*3 8.6 C 0 km/h
2402 10-03-2008 00:35:03 8.2 C 4.27 g/m*3 8.2 C 0 km/h
2403 10-03-2008 00:47:03 7.9 C 4.35 g/m*3 7.9 C 0 km/h
2404 10-03-2008 00:59:03 7.9 C 4.35 g/m*3 7.9 C 0 km/h
2405 10-03-2008 01:11:03 7.5 C 4.32 g/m*3 7.5 C 0 km/h
2406 10-03-2008 01:23:03 7.3 C 4.42 g/m*3 7.3 C 0 km/h
2407 10-03-2008 01:35:03 7.3 C 4.42 g/m*3 7.3 C 0 km/h
2408 10-03-2008 01:47:03 7.6 C 4.51 g/m*3 7.6 C 0 km/h
2409 10-03-2008 01:59:03 7.8 C 4.49 g/m*3 7.8 C 0 km/h
2410 10-03-2008 02:11:03 7.8 C 4.49 g/m*3 7.8 C 0 km/h
2411 10-03-2008 02:23:03 7.9 C 4.44 g/m*3 7.9 C 0 km/h
2412 10-03-2008 02:35:03 8 C 4.38 g/m*3 8 C 0 km/h
2413 10-03-2008 02:47:03 8 C 4.3 g/m*3 8 C 0 km/h
2414 10-03-2008 02:59:03 7.7 C 4.62 g/m*3 7.7 C 0 km/h
2415 10-03-2008 03:11:03 7.2 C 4.87 g/m*3 7.2 C 0 km/h
2416 10-03-2008 03:23:03 7.1 C 4.91 g/m*3 7.1 C 0 km/h
2417 10-03-2008 03:35:03 7.1 C 4.91 g/m*3 7.1 C 0 km/h
2418 10-03-2008 03:47:03 7.5 C 4.88 g/m*3 7.5 C 0 km/h
2419 10-03-2008 03:59:03 7.7 C 4.62 g/m*3 7.7 C 0 km/h
2420 10-03-2008 04:11:04 7.8 C 4.57 g/m*3 7.8 C 0 km/h
2421 10-03-2008 04:23:04 7.6 C 4.51 g/m*3 7.6 C 0 km/h
2422 10-03-2008 04:35:04 7.4 C 4.53 g/m*3 7.4 C 0 km/h
2423 10-03-2008 04:47:04 7.2 C 4.4 g/m*3 7.2 C 0 km/h
2424 10-03-2008 04:59:04 7.1 C 4.29 g/m*3 7.1 C 0 km/h
2425 10-03-2008 05:11:04 6.8 C 4.36 g/m*3 6.8 C 0 km/h
Sensor: Nr:Datum:Temp:Abs-Feuchte:Windchill:Wind:
Aussen-T/F 2426 10-03-2008 05:23:04 6.6 C 4.23 g/m*3 6.6 C 0 km/h
2427 10-03-2008 05:35:04 6.7 C 4.26 g/m*3 6.7 C 0 km/h
2428 10-03-2008 05:47:04 7.1 C 4.21 g/m*3 7.1 C 0 km/h
2429 10-03-2008 05:59:04 7.5 C 4.16 g/m*3 7.5 C 0 km/h
2430 10-03-2008 06:11:04 7.5 C 4.08 g/m*3 7.5 C 0 km/h
2431 10-03-2008 06:23:04 7.4 C 4.06 g/m*3 7.4 C 0 km/h
2432 10-03-2008 06:35:04 7.2 C 4.08 g/m*3 7.2 C 0 km/h
2433 10-03-2008 06:47:04 7.1 C 4.21 g/m*3 7.1 C 0 km/h
2434 10-03-2008 06:59:04 6.3 C 4.59 g/m*3 6.3 C 0 km/h
2435 10-03-2008 07:11:02 5.9 C 4.76 g/m*3 5.9 C 0 km/h
2436 10-03-2008 07:23:02 5.7 C 4.77 g/m*3 5.7 C 0 km/h
2437 10-03-2008 07:35:02 5.8 C 4.87 g/m*3 5.8 C 0 km/h
2438 10-03-2008 07:47:01 6 C 4.79 g/m*3 6 C 0 km/h
2439 10-03-2008 07:59:01 6.2 C 4.78 g/m*3 6.2 C 0 km/h
2440 10-03-2008 08:11:01 6.7 C 4.71 g/m*3 6.7 C 0 km/h
2441 10-03-2008 08:23:02 7.1 C 4.68 g/m*3 7.1 C 0 km/h
2442 10-03-2008 08:35:01 7.4 C 4.61 g/m*3 7.4 C 0 km/h
2443 10-03-2008 08:47:01 7.5 C 4 g/m*3 7.5 C 0 km/h
2444 10-03-2008 08:59:01 7.5 C 4 g/m*3 7.5 C 0 km/h
2445 10-03-2008 09:11:01 7.7 C 4.05 g/m*3 7.7 C 0 km/h
2446 10-03-2008 09:23:02 8.1 C 3.99 g/m*3 8.1 C 0 km/h
2447 10-03-2008 09:35:01 8.5 C 4.1 g/m*3 8.5 C 0 km/h
2448 10-03-2008 09:47:01 9.1 C 3.99 g/m*3 9.1 C 0 km/h
2449 10-03-2008 09:59:01 9.3 C 3.68 g/m*3 9.3 C 0 km/h
2450 10-03-2008 10:11:01 9.5 C 3.64 g/m*3 9.5 C 0 km/h
Sensor: Nr:Datum:Temp:Abs-Feuchte:Windchill:Wind:
Aussen-T/F 2451 10-03-2008 10:23:02 9.6 C 3.57 g/m*3 9.6 C 0 km/h
2452 10-03-2008 10:35:01 9.6 C 3.57 g/m*3 9.6 C 0 km/h
2453 10-03-2008 10:47:02 9.7 C 3.5 g/m*3 9.7 C 0 km/h
2454 10-03-2008 10:59:02 10 C 3.29 g/m*3 10 C 0 km/h
2455 10-03-2008 11:11:01 10 C 3.1 g/m*3 10 C 0 km/h
2456 10-03-2008 11:23:02 9.9 C 3.08 g/m*3 9.9 C 0 km/h
2457 10-03-2008 11:35:02 10.1 C 3.03 g/m*3 10.1 C 0 km/h
2458 10-03-2008 11:47:02 10.4 C 2.99 g/m*3 10.4 C 0 km/h
2459 10-03-2008 11:59:02 10.5 C 3.01 g/m*3 10.5 C 0 km/h
2460 10-03-2008 12:11:02 10.9 C 3.18 g/m*3 10.9 C 0 km/h
2461 10-03-2008 12:23:02 10.8 C 3.06 g/m*3 10.8 C 0 km/h
2462 10-03-2008 12:35:02 10.8 C 2.97 g/m*3 10.8 C 0 km/h
2463 10-03-2008 12:47:02 10.9 C 2.98 g/m*3 10.9 C 0 km/h
2464 10-03-2008 12:59:02 11.4 C 3.08 g/m*3 11.4 C 0 km/h
2465 10-03-2008 13:11:02 11.8 C 2.95 g/m*3 11.8 C 0 km/h
2466 10-03-2008 13:23:02 11.8 C 2.95 g/m*3 11.8 C 0 km/h
2467 10-03-2008 13:35:02 12 C 2.77 g/m*3 12 C 0 km/h
2468 10-03-2008 13:47:01 12 C 2.66 g/m*3 12 C 0 km/h
2469 10-03-2008 13:59:01 11.9 C 2.75 g/m*3 11.9 C 0 km/h
2470 10-03-2008 14:11:01 11.6 C 2.81 g/m*3 11.6 C 0 km/h
2471 10-03-2008 14:23:02 11.3 C 3.26 g/m*3 11.3 C 0 km/h
2472 10-03-2008 14:35:01 10.7 C 3.83 g/m*3 10.7 C 0 km/h
2473 10-03-2008 14:47:01 11 C 3.5 g/m*3 11 C 0 km/h
2474 10-03-2008 14:59:01 10.7 C 3.44 g/m*3 10.7 C 0 km/h
2475 10-03-2008 15:11:01 10.8 C 3.56 g/m*3 10.8 C 0 km/h
Sensor: Nr:Datum:Temp:Abs-Feuchte:Windchill:Wind:
Aussen-T/F 2476 10-03-2008 15:23:02 10.7 C 3.44 g/m*3 10.7 C 0 km/h
2477 10-03-2008 15:35:01 10.8 C 3.06 g/m*3 10.8 C 0 km/h
2478 10-03-2008 15:47:02 11.1 C 2.62 g/m*3 11.1 C 0 km/h
2479 10-03-2008 15:59:02 10.5 C 3.01 g/m*3 10.5 C 0 km/h
2480 10-03-2008 16:11:01 10.2 C 3.33 g/m*3 10.2 C 0 km/h
2481 10-03-2008 16:23:02 9.7 C 3.69 g/m*3 9.7 C 0 km/h
2482 10-03-2008 16:35:01 8.5 C 4.27 g/m*3 8.5 C 0 km/h
2483 10-03-2008 16:47:01 7.6 C 4.75 g/m*3 7.6 C 0 km/h
2484 10-03-2008 16:59:01 7.1 C 4.99 g/m*3 7.1 C 0 km/h
2485 10-03-2008 17:11:02 6.7 C 5.24 g/m*3 6.7 C 0 km/h
2486 10-03-2008 17:23:02 6.6 C 5.44 g/m*3 6.6 C 0 km/h
2487 10-03-2008 17:35:01 6.3 C 5.33 g/m*3 6.3 C 0 km/h
2488 10-03-2008 17:47:02 6.1 C 5.33 g/m*3 6.1 C 0 km/h
2489 10-03-2008 17:59:02 6 C 5.52 g/m*3 6 C 0 km/h
2490 10-03-2008 18:11:02 5.9 C 5.62 g/m*3 5.9 C 0 km/h
2491 10-03-2008 18:23:01 5.9 C 5.7 g/m*3 5.9 C 0 km/h
2492 10-03-2008 18:35:01 5.8 C 5.66 g/m*3 5.8 C 0 km/h
2493 10-03-2008 18:47:02 5.8 C 5.73 g/m*3 5.8 C 0 km/h
2494 10-03-2008 18:59:02 5.8 C 5.8 g/m*3 5.8 C 0 km/h
2495 10-03-2008 19:11:03 6.2 C 5.74 g/m*3 6.2 C 0 km/h
2496 10-03-2008 19:23:02 6.5 C 5.62 g/m*3 6.5 C 0 km/h
2497 10-03-2008 19:35:02 7 C 5.42 g/m*3 7 C 0 km/h
2498 10-03-2008 19:47:01 7 C 5.27 g/m*3 7 C 0 km/h
2499 10-03-2008 19:59:01 7 C 5.04 g/m*3 7 C 0 km/h
2500 10-03-2008 20:11:01 7.2 C 4.87 g/m*3 7.2 C 0 km/h
Sensor: Nr:Datum:Temp:Abs-Feuchte:Windchill:Wind:
Aussen-T/F 2501 10-03-2008 20:23:02 7.4 C 4.77 g/m*3 7.4 C 0 km/h
2502 10-03-2008 20:35:01 7.4 C 4.61 g/m*3 7.4 C 0 km/h
2503 10-03-2008 20:47:02 7.4 C 4.61 g/m*3 7.4 C 0 km/h
2504 10-03-2008 20:59:02 7.5 C 4.56 g/m*3 7.5 C 0 km/h
2505 10-03-2008 21:11:02 7.6 C 4.51 g/m*3 7.6 C 0 km/h
2506 10-03-2008 21:23:01 7.7 C 4.54 g/m*3 7.7 C 0 km/h
2507 10-03-2008 21:35:02 7.8 C 4.41 g/m*3 7.8 C 0 km/h
2508 10-03-2008 21:47:02 7.8 C 4.49 g/m*3 7.8 C 0 km/h
2509 10-03-2008 21:59:02 8 C 4.22 g/m*3 8 C 0 km/h
2510 10-03-2008 22:12:03 8 C 4.13 g/m*3 8 C 0 km/h
2511 10-03-2008 22:24:03 8 C 4.13 g/m*3 8 C 0 km/h
2512 10-03-2008 22:36:03 8 C 4.05 g/m*3 8 C 0 km/h
2513 10-03-2008 22:48:03 8 C 4.05 g/m*3 8 C 0 km/h
2514 10-03-2008 23:00:03 8 C 4.05 g/m*3 8 C 0 km/h
2515 10-03-2008 23:12:03 8 C 4.13 g/m*3 8 C 0 km/h
2516 10-03-2008 23:24:03 8.1 C 4.16 g/m*3 8.1 C 0 km/h
2517 10-03-2008 23:36:03 8.1 C 4.16 g/m*3 8.1 C 0 km/h
2518 10-03-2008 23:48:03 8.2 C 4.19 g/m*3 8.2 C 0 km/h
2519 11-03-2008 00:00:03 8.1 C 4.16 g/m*3 8.1 C 0 km/h
2520 11-03-2008 00:12:03 8.1 C 4.24 g/m*3 8.1 C 0 km/h
2521 11-03-2008 00:24:03 8 C 4.22 g/m*3 8 C 0 km/h
2522 11-03-2008 00:36:04 8 C 4.3 g/m*3 8 C 0 km/h
2523 11-03-2008 00:48:04 7.9 C 4.44 g/m*3 7.9 C 0 km/h
2524 11-03-2008 01:00:04 8 C 4.38 g/m*3 8 C 0 km/h
2525 11-03-2008 01:12:04 7.9 C 4.6 g/m*3 7.9 C 0 km/h
Sensor: Nr:Datum:Temp:Abs-Feuchte:Windchill:Wind:
Aussen-T/F 2526 11-03-2008 01:24:04 7.9 C 4.6 g/m*3 7.9 C 0 km/h
2527 11-03-2008 01:36:04 8.1 C 4.58 g/m*3 8.1 C 0 km/h
2528 11-03-2008 01:48:04 8.1 C 4.49 g/m*3 8.1 C 0 km/h
2529 11-03-2008 02:00:04 8.1 C 4.49 g/m*3 8.1 C 0 km/h
2530 11-03-2008 02:12:04 8 C 4.55 g/m*3 8 C 0 km/h
2531 11-03-2008 02:24:04 8.1 C 4.58 g/m*3 8.1 C 0 km/h
2532 11-03-2008 02:36:04 8.1 C 4.58 g/m*3 8.1 C 0 km/h
2533 11-03-2008 02:48:04 8.1 C 4.66 g/m*3 8.1 C 0 km/h
2534 11-03-2008 03:00:04 7.9 C 4.85 g/m*3 7.9 C 0 km/h
2535 11-03-2008 03:12:04 7.8 C 4.9 g/m*3 7.8 C 0 km/h
2536 11-03-2008 03:24:04 7.6 C 5.08 g/m*3 7.6 C 0 km/h
2537 11-03-2008 03:36:04 7.5 C 5.2 g/m*3 7.5 C 0 km/h
2538 11-03-2008 03:48:04 7.5 C 5.2 g/m*3 7.5 C 0 km/h
2539 11-03-2008 04:00:04 7.4 C 5.25 g/m*3 7.4 C 0 km/h
2540 11-03-2008 04:12:04 7.5 C 5.12 g/m*3 7.5 C 0 km/h
2541 11-03-2008 04:24:04 7.6 C 5.08 g/m*3 7.6 C 0 km/h
2542 11-03-2008 04:36:05 7.6 C 5.08 g/m*3 7.6 C 0 km/h
2543 11-03-2008 04:48:05 7.6 C 4.91 g/m*3 7.6 C 0 km/h
2544 11-03-2008 05:00:05 7.5 C 4.96 g/m*3 7.5 C 0 km/h
2545 11-03-2008 05:12:05 7.4 C 5.01 g/m*3 7.4 C 0 km/h
2546 11-03-2008 05:24:05 7.3 C 5.06 g/m*3 7.3 C 0 km/h
2547 11-03-2008 05:36:05 7 C 5.11 g/m*3 7 C 0 km/h
2548 11-03-2008 05:48:05 6.9 C 5.23 g/m*3 6.9 C 0 km/h
2549 11-03-2008 06:00:05 6.8 C 5.28 g/m*3 6.8 C 0 km/h
2550 11-03-2008 06:12:05 6.9 C 5.23 g/m*3 6.9 C 0 km/h
Sensor: Nr:Datum:Temp:Abs-Feuchte:Windchill:Wind:
Aussen-T/F 2551 11-03-2008 06:24:05 7 C 5.11 g/m*3 7 C 0 km/h
2552 11-03-2008 06:36:05 7.2 C 4.95 g/m*3 7.2 C 0 km/h
2553 11-03-2008 06:48:05 7.3 C 4.9 g/m*3 7.3 C 0 km/h
2554 11-03-2008 07:00:05 7.2 C 4.95 g/m*3 7.2 C 0 km/h
2555 11-03-2008 07:12:02 7.1 C 5.07 g/m*3 7.1 C 0 km/h
2556 11-03-2008 07:24:02 6.7 C 5.32 g/m*3 6.7 C 0 km/h
2557 11-03-2008 07:36:02 6.4 C 5.59 g/m*3 6.4 C 0 km/h
2558 11-03-2008 07:48:02 6.4 C 5.66 g/m*3 6.4 C 0 km/h
2559 11-03-2008 08:00:03 6.3 C 5.63 g/m*3 6.3 C 0 km/h
2560 11-03-2008 08:12:01 6.3 C 5.77 g/m*3 6.3 C 0 km/h
2561 11-03-2008 08:24:02 6.1 C 5.48 g/m*3 6.1 C 0 km/h
2562 11-03-2008 08:36:01 6.1 C 5.48 g/m*3 6.1 C 0 km/h
2563 11-03-2008 08:48:02 6.2 C 5.52 g/m*3 6.2 C 0 km/h
2564 11-03-2008 09:00:02 6 C 5.44 g/m*3 6 C 0 km/h
2565 11-03-2008 09:12:01 5.9 C 5.41 g/m*3 5.9 C 0 km/h
2566 11-03-2008 09:24:02 6.1 C 5.48 g/m*3 6.1 C 0 km/h
2567 11-03-2008 09:36:02 6.2 C 5.59 g/m*3 6.2 C 0 km/h
2568 11-03-2008 09:48:02 6.4 C 5.66 g/m*3 6.4 C 0 km/h
2569 11-03-2008 10:00:03 6.8 C 5.66 g/m*3 6.8 C 0 km/h
2570 11-03-2008 10:12:02 7.5 C 5.44 g/m*3 7.5 C 0 km/h
2571 11-03-2008 10:24:02 7.9 C 5.26 g/m*3 7.9 C 0 km/h
2572 11-03-2008 10:36:02 8.3 C 5.14 g/m*3 8.3 C 0 km/h
2573 11-03-2008 10:48:02 8.5 C 5.04 g/m*3 8.5 C 0 km/h
2574 11-03-2008 11:00:02 8.8 C 4.96 g/m*3 8.8 C 0 km/h
2575 11-03-2008 11:12:01 9.2 C 4.82 g/m*3 9.2 C 0 km/h
Sensor: Nr:Datum:Temp:Abs-Feuchte:Windchill:Wind:
Aussen-T/F 2576 11-03-2008 11:24:02 9.2 C 4.82 g/m*3 9.2 C 0 km/h
2577 11-03-2008 11:36:02 9 C 4.58 g/m*3 9 C 0 km/h
2578 11-03-2008 11:48:02 9 C 4.67 g/m*3 9 C 0 km/h
2579 11-03-2008 12:00:02 8.8 C 4.79 g/m*3 8.8 C 0 km/h
2580 11-03-2008 12:12:02 9.5 C 5.01 g/m*3 9.5 C 0 km/h
2581 11-03-2008 12:24:02 8.3 C 5.14 g/m*3 8.3 C 0 km/h
2582 11-03-2008 12:36:02 8 C 5.37 g/m*3 8 C 0 km/h
2583 11-03-2008 12:48:02 8.5 C 5.72 g/m*3 8.5 C 0 km/h
2584 11-03-2008 13:00:02 9.1 C 4.88 g/m*3 9.1 C 0 km/h
2585 11-03-2008 13:12:02 9.8 C 4.55 g/m*3 9.8 C 0 km/h
2586 11-03-2008 13:24:03 10.4 C 4.14 g/m*3 10.4 C 0 km/h
2587 11-03-2008 13:36:02 9.7 C 4.24 g/m*3 9.7 C 0 km/h
2588 11-03-2008 13:48:01 9.9 C 4.2 g/m*3 9.9 C 0 km/h
2589 11-03-2008 14:00:01 9.9 C 4.01 g/m*3 9.9 C 0 km/h
2590 11-03-2008 14:12:01 9.6 C 3.85 g/m*3 9.6 C 0 km/h
2591 11-03-2008 14:24:02 9.8 C 4.08 g/m*3 9.8 C 0 km/h
2592 11-03-2008 14:36:01 10 C 3.76 g/m*3 10 C 0 km/h
2593 11-03-2008 14:48:01 9.7 C 3.69 g/m*3 9.7 C 0 km/h
2594 11-03-2008 15:00:01 9.5 C 3.73 g/m*3 9.5 C 0 km/h
2595 11-03-2008 15:12:02 9.8 C 3.71 g/m*3 9.8 C 0 km/h
2596 11-03-2008 15:24:02 9.8 C 3.71 g/m*3 9.8 C 0 km/h
2597 11-03-2008 15:36:01 9.7 C 3.69 g/m*3 9.7 C 0 km/h
2598 11-03-2008 15:48:01 10 C 3.76 g/m*3 10 C 0 km/h
2599 11-03-2008 16:00:01 10 C 3.76 g/m*3 10 C 0 km/h
2600 11-03-2008 16:12:02 9.9 C 3.83 g/m*3 9.9 C 0 km/h
Sensor: Nr:Datum:Temp:Abs-Feuchte:Windchill:Wind:
Aussen-T/F 2601 11-03-2008 16:24:02 9.8 C 3.9 g/m*3 9.8 C 0 km/h
2602 11-03-2008 16:36:01 9.1 C 4.35 g/m*3 9.1 C 0 km/h
2603 11-03-2008 16:48:01 8.7 C 4.67 g/m*3 8.7 C 0 km/h
2604 11-03-2008 17:00:01 8.6 C 4.73 g/m*3 8.6 C 0 km/h
2605 11-03-2008 17:12:02 8.4 C 4.75 g/m*3 8.4 C 0 km/h
2606 11-03-2008 17:24:01 8.4 C 4.84 g/m*3 8.4 C 0 km/h
2607 11-03-2008 17:36:01 8 C 5.04 g/m*3 8 C 0 km/h
2608 11-03-2008 17:48:01 7.6 C 5.24 g/m*3 7.6 C 0 km/h
2609 11-03-2008 18:00:01 7.4 C 5.49 g/m*3 7.4 C 0 km/h
2610 11-03-2008 18:12:02 7.3 C 5.53 g/m*3 7.3 C 0 km/h
2611 11-03-2008 18:24:01 7.6 C 5.64 g/m*3 7.6 C 0 km/h
2612 11-03-2008 18:36:01 7.6 C 5.72 g/m*3 7.6 C 0 km/h
2613 11-03-2008 18:48:01 7.4 C 5.96 g/m*3 7.4 C 0 km/h
2614 11-03-2008 19:00:01 7.4 C 6.2 g/m*3 7.4 C 0 km/h
2615 11-03-2008 19:12:01 7.5 C 6.32 g/m*3 7.5 C 0 km/h
2616 11-03-2008 19:24:02 8 C 6.37 g/m*3 8 C 0 km/h
2617 11-03-2008 19:36:01 8.4 C 6.36 g/m*3 8.4 C 0 km/h
2618 11-03-2008 19:48:02 8.4 C 6.28 g/m*3 8.4 C 0 km/h
2619 11-03-2008 20:00:02 8.6 C 6.44 g/m*3 8.6 C 0 km/h
2620 11-03-2008 20:12:01 8.5 C 6.57 g/m*3 8.5 C 0 km/h
2621 11-03-2008 20:24:02 8.6 C 6.62 g/m*3 8.6 C 0 km/h
2622 11-03-2008 20:36:02 8.9 C 6.75 g/m*3 8.9 C 0 km/h
2623 11-03-2008 20:48:02 9.2 C 6.79 g/m*3 9.2 C 0 km/h
2624 11-03-2008 21:00:02 9.5 C 6.83 g/m*3 9.5 C 0 km/h
2625 11-03-2008 21:12:02 9.8 C 6.77 g/m*3 9.8 C 0 km/h
Sensor: Nr:Datum:Temp:Abs-Feuchte:Windchill:Wind:
Aussen-T/F 2626 11-03-2008 21:24:03 9.8 C 6.77 g/m*3 9.8 C 0 km/h
2627 11-03-2008 21:36:02 9.8 C 6.96 g/m*3 9.8 C 0 km/h
2628 11-03-2008 21:48:02 9.7 C 7.1 g/m*3 9.7 C 0 km/h
2629 11-03-2008 22:00:02 9.9 C 7.28 g/m*3 9.9 C 0 km/h
2630 11-03-2008 22:12:02 10.1 C 7.38 g/m*3 10.1 C 0 km/h
2631 11-03-2008 22:25:01 10.5 C 7.47 g/m*3 10.5 C 0 km/h
2632 11-03-2008 22:37:01 10.7 C 7.56 g/m*3 10.7 C 0 km/h
2633 11-03-2008 22:49:01 10.7 C 7.66 g/m*3 10.7 C 0 km/h
2634 11-03-2008 23:01:01 11 C 7.61 g/m*3 11 C 0 km/h
2635 11-03-2008 23:13:01 11.3 C 7.75 g/m*3 11.3 C 0 km/h
2636 11-03-2008 23:25:01 11.1 C 7.96 g/m*3 11.1 C 0 km/h
2637 11-03-2008 23:37:01 11.1 C 8.06 g/m*3 11.1 C 0 km/h
2638 11-03-2008 23:49:01 11.1 C 8.16 g/m*3 11.1 C 0 km/h
2639 12-03-2008 00:01:02 11.3 C 8.16 g/m*3 11.3 C 0 km/h
2640 12-03-2008 00:13:02 11.9 C 7.2 g/m*3 11.9 C 0 km/h
2641 12-03-2008 00:25:02 12.2 C 6.47 g/m*3 12.2 C 0 km/h
2642 12-03-2008 00:37:02 12.4 C 6.34 g/m*3 12.4 C 0 km/h
2643 12-03-2008 00:49:02 12.4 C 6.01 g/m*3 12.4 C 0 km/h
2644 12-03-2008 01:01:02 12.6 C 5.53 g/m*3 12.6 C 0 km/h
2645 12-03-2008 01:13:02 12.3 C 5.43 g/m*3 12.3 C 0 km/h
2646 12-03-2008 01:25:02 11.9 C 5.61 g/m*3 11.9 C 0 km/h
2647 12-03-2008 01:37:02 11.7 C 5.23 g/m*3 11.7 C 0 km/h
2648 12-03-2008 01:49:02 11.5 C 5.27 g/m*3 11.5 C 0 km/h
2649 12-03-2008 02:01:02 11.1 C 5.24 g/m*3 11.1 C 0 km/h
2650 12-03-2008 02:13:02 10.9 C 5.47 g/m*3 10.9 C 0 km/h
Sensor: Nr:Datum:Temp:Abs-Feuchte:Windchill:Wind:
Aussen-T/F 2651 12-03-2008 02:25:02 9.9 C 6.07 g/m*3 9.9 C 0 km/h
2652 12-03-2008 02:37:02 9.5 C 6.37 g/m*3 9.5 C 0 km/h
2653 12-03-2008 02:49:02 9.2 C 6.61 g/m*3 9.2 C 0 km/h
2654 12-03-2008 03:01:02 9.2 C 6.61 g/m*3 9.2 C 0 km/h
2655 12-03-2008 03:13:02 9.1 C 6.57 g/m*3 9.1 C 0 km/h
2656 12-03-2008 03:25:02 9.1 C 6.57 g/m*3 9.1 C 0 km/h
2657 12-03-2008 03:37:02 9 C 6.7 g/m*3 9 C 0 km/h
2658 12-03-2008 03:49:02 9 C 6.7 g/m*3 9 C 0 km/h
2659 12-03-2008 04:01:02 9.2 C 6.43 g/m*3 9.2 C 0 km/h
2660 12-03-2008 04:13:03 9.5 C 6.28 g/m*3 9.5 C 0 km/h
2661 12-03-2008 04:25:03 9.4 C 6.06 g/m*3 9.4 C 0 km/h
2662 12-03-2008 04:37:03 9.2 C 5.89 g/m*3 9.2 C 0 km/h
2663 12-03-2008 04:49:03 9.4 C 5.88 g/m*3 9.4 C 0 km/h
2664 12-03-2008 05:01:03 9.3 C 5.66 g/m*3 9.3 C 0 km/h
2665 12-03-2008 05:13:03 9.2 C 5.54 g/m*3 9.2 C 0 km/h
2666 12-03-2008 05:25:03 9.1 C 5.5 g/m*3 9.1 C 0 km/h
2667 12-03-2008 05:37:03 9.3 C 5.39 g/m*3 9.3 C 0 km/h
2668 12-03-2008 05:49:03 9 C 5.29 g/m*3 9 C 0 km/h
2669 12-03-2008 06:01:03 9.2 C 5.18 g/m*3 9.2 C 0 km/h
2670 12-03-2008 06:13:03 9.1 C 5.06 g/m*3 9.1 C 0 km/h
2671 12-03-2008 06:25:03 9 C 5.11 g/m*3 9 C 0 km/h
2672 12-03-2008 06:37:03 9.1 C 4.97 g/m*3 9.1 C 0 km/h
2673 12-03-2008 06:49:03 9.1 C 4.79 g/m*3 9.1 C 0 km/h
2674 12-03-2008 07:01:01 9.1 C 4.79 g/m*3 9.1 C 0 km/h
2675 12-03-2008 07:13:01 9.1 C 4.79 g/m*3 9.1 C 0 km/h
Sensor: Nr:Datum:Temp:Abs-Feuchte:Windchill:Wind:
Aussen-T/F 2676 12-03-2008 07:25:02 9.1 C 4.79 g/m*3 9.1 C 0 km/h
2677 12-03-2008 07:37:02 9.3 C 4.76 g/m*3 9.3 C 0 km/h
2678 12-03-2008 07:49:02 9.3 C 4.76 g/m*3 9.3 C 0 km/h
2679 12-03-2008 08:01:02 9.3 C 4.67 g/m*3 9.3 C 0 km/h
2680 12-03-2008 08:13:02 9.4 C 4.61 g/m*3 9.4 C 0 km/h
2681 12-03-2008 08:25:02 9.5 C 4.55 g/m*3 9.5 C 0 km/h
2682 12-03-2008 08:37:02 9.3 C 4.67 g/m*3 9.3 C 0 km/h
2683 12-03-2008 08:49:02 8.8 C 4.87 g/m*3 8.8 C 0 km/h
2684 12-03-2008 09:01:02 9.4 C 4.25 g/m*3 9.4 C 0 km/h
2685 12-03-2008 09:13:02 9.6 C 4.12 g/m*3 9.6 C 0 km/h
2686 12-03-2008 09:25:02 8.1 C 4.66 g/m*3 8.1 C 0 km/h
2687 12-03-2008 09:37:02 7.9 C 5.09 g/m*3 7.9 C 0 km/h
2688 12-03-2008 09:49:02 8.4 C 4.75 g/m*3 8.4 C 0 km/h
2689 12-03-2008 10:01:02 8.7 C 4.32 g/m*3 8.7 C 0 km/h
2690 12-03-2008 10:13:02 9.2 C 3.66 g/m*3 9.2 C 0 km/h
2691 12-03-2008 10:25:01 8.1 C 3.49 g/m*3 8.1 C 0 km/h
2692 12-03-2008 10:37:02 8.2 C 3.68 g/m*3 8.2 C 0 km/h
2693 12-03-2008 10:49:02 8.5 C 3.5 g/m*3 8.5 C 0 km/h
2694 12-03-2008 11:01:01 8.8 C 3.22 g/m*3 8.8 C 0 km/h
2695 12-03-2008 11:13:01 8.9 C 3.33 g/m*3 8.9 C 0 km/h
2696 12-03-2008 11:25:01 8.6 C 3.27 g/m*3 8.6 C 0 km/h
2697 12-03-2008 11:37:01 9 C 3.09 g/m*3 9 C 0 km/h
2698 12-03-2008 11:49:01 9.8 C 2.6 g/m*3 9.8 C 0 km/h
2699 12-03-2008 12:01:02 10.1 C 2.46 g/m*3 10.1 C 0 km/h
2700 12-03-2008 12:13:02 10.2 C 2.47 g/m*3 10.2 C 0 km/h
Sensor: Nr:Datum:Temp:Abs-Feuchte:Windchill:Wind:
Aussen-T/F 2701 12-03-2008 12:25:01 10.7 C 2.75 g/m*3 10.7 C 0 km/h
2702 12-03-2008 12:37:01 11.5 C 2.58 g/m*3 11.5 C 0 km/h
2703 12-03-2008 12:49:01 11.3 C 2.04 g/m*3 11.3 C 0 km/h
2704 12-03-2008 13:01:02 11.1 C 2.01 g/m*3 11.1 C 0 km/h
2705 12-03-2008 13:13:02 10.9 C 2.19 g/m*3 10.9 C 0 km/h
2706 12-03-2008 13:25:02 10.9 C 2.19 g/m*3 10.9 C 0 km/h
2707 12-03-2008 13:37:01 10.9 C 2.09 g/m*3 10.9 C 0 km/h
2708 12-03-2008 13:49:02 11 C 2.1 g/m*3 11 C 0 km/h
2709 12-03-2008 14:01:02 10.9 C 2.49 g/m*3 10.9 C 0 km/h
2710 12-03-2008 14:13:02 10.6 C 2.54 g/m*3 10.6 C 0 km/h
2711 12-03-2008 14:25:02 10.6 C 2.44 g/m*3 10.6 C 0 km/h
2712 12-03-2008 14:37:02 10.5 C 2.62 g/m*3 10.5 C 0 km/h
2713 12-03-2008 14:49:02 10 C 2.82 g/m*3 10 C 0 km/h
2714 12-03-2008 15:01:02 9.8 C 2.97 g/m*3 9.8 C 0 km/h
2715 12-03-2008 15:13:02 9.6 C 3.02 g/m*3 9.6 C 0 km/h
2716 12-03-2008 15:25:03 9.6 C 3.02 g/m*3 9.6 C 0 km/h
2717 12-03-2008 15:37:02 9.4 C 3.17 g/m*3 9.4 C 0 km/h
2718 12-03-2008 15:49:02 9.5 C 3.19 g/m*3 9.5 C 0 km/h
2719 12-03-2008 16:01:01 10 C 3.1 g/m*3 10 C 0 km/h
2720 12-03-2008 16:13:01 9.5 C 3.46 g/m*3 9.5 C 0 km/h
2721 12-03-2008 16:25:01 9.7 C 3.69 g/m*3 9.7 C 0 km/h
2722 12-03-2008 16:37:02 9.2 C 3.66 g/m*3 9.2 C 0 km/h
2723 12-03-2008 16:49:02 9 C 3.7 g/m*3 9 C 0 km/h
2724 12-03-2008 17:01:02 8.8 C 3.74 g/m*3 8.8 C 0 km/h
2725 12-03-2008 17:13:02 8.7 C 3.81 g/m*3 8.7 C 0 km/h
Sensor: Nr:Datum:Temp:Abs-Feuchte:Windchill:Wind:
Aussen-T/F 2726 12-03-2008 17:25:01 8.9 C 3.85 g/m*3 8.9 C 0 km/h
2727 12-03-2008 17:37:01 9 C 3.7 g/m*3 9 C 0 km/h
2728 12-03-2008 17:49:01 8.9 C 3.77 g/m*3 8.9 C 0 km/h
2729 12-03-2008 18:01:02 8.4 C 3.73 g/m*3 8.4 C 0 km/h
2730 12-03-2008 18:13:02 8.1 C 3.74 g/m*3 8.1 C 0 km/h
2731 12-03-2008 18:25:01 7.9 C 3.78 g/m*3 7.9 C 0 km/h
2732 12-03-2008 18:37:01 7.9 C 3.78 g/m*3 7.9 C 0 km/h
2733 12-03-2008 18:49:02 7.8 C 3.67 g/m*3 7.8 C 0 km/h
2734 12-03-2008 19:01:01 7.8 C 3.67 g/m*3 7.8 C 0 km/h
2735 12-03-2008 19:13:01 7.6 C 3.71 g/m*3 7.6 C 0 km/h
2736 12-03-2008 19:25:02 7.5 C 3.68 g/m*3 7.5 C 0 km/h
2737 12-03-2008 19:37:02 7.6 C 3.71 g/m*3 7.6 C 0 km/h
2738 12-03-2008 19:49:02 7.5 C 3.68 g/m*3 7.5 C 0 km/h
2739 12-03-2008 20:01:02 7.5 C 3.68 g/m*3 7.5 C 0 km/h
2740 12-03-2008 20:13:02 7.4 C 3.66 g/m*3 7.4 C 0 km/h
2741 12-03-2008 20:25:02 7.4 C 3.58 g/m*3 7.4 C 0 km/h
2742 12-03-2008 20:37:02 7.4 C 3.66 g/m*3 7.4 C 0 km/h
2743 12-03-2008 20:49:02 7.4 C 3.58 g/m*3 7.4 C 0 km/h
2744 12-03-2008 21:01:02 7.4 C 3.58 g/m*3 7.4 C 0 km/h
2745 12-03-2008 21:13:02 7.4 C 3.58 g/m*3 7.4 C 0 km/h
2746 12-03-2008 21:25:01 7.3 C 3.56 g/m*3 7.3 C 0 km/h
2747 12-03-2008 21:37:02 7.1 C 3.51 g/m*3 7.1 C 0 km/h
2748 12-03-2008 21:49:02 7 C 3.49 g/m*3 7 C 0 km/h
2749 12-03-2008 22:01:02 7 C 3.41 g/m*3 7 C 0 km/h
2750 12-03-2008 22:13:02 7 C 3.25 g/m*3 7 C 0 km/h
Sensor: Nr:Datum:Temp:Abs-Feuchte:Windchill:Wind:
Aussen-T/F 2751 12-03-2008 22:25:02 6.8 C 3.29 g/m*3 6.8 C 0 km/h
2752 12-03-2008 22:37:02 6.7 C 3.27 g/m*3 6.7 C 0 km/h
2753 12-03-2008 22:49:02 6.4 C 3.28 g/m*3 6.4 C 0 km/h
2754 12-03-2008 23:01:02 6.4 C 3.28 g/m*3 6.4 C 0 km/h
2755 12-03-2008 23:13:02 6.2 C 3.24 g/m*3 6.2 C 0 km/h
2756 12-03-2008 23:25:02 6 C 3.27 g/m*3 6 C 0 km/h
2757 12-03-2008 23:37:02 6 C 3.27 g/m*3 6 C 0 km/h
2758 12-03-2008 23:49:02 5.8 C 3.3 g/m*3 5.8 C 0 km/h
2759 13-03-2008 00:01:02 5.8 C 3.3 g/m*3 5.8 C 0 km/h
2760 13-03-2008 00:13:02 5.7 C 3.27 g/m*3 5.7 C 0 km/h
2761 13-03-2008 00:25:02 5.7 C 3.27 g/m*3 5.7 C 0 km/h
2762 13-03-2008 00:37:02 5.8 C 3.3 g/m*3 5.8 C 0 km/h
2763 13-03-2008 00:49:02 6 C 3.27 g/m*3 6 C 0 km/h
2764 13-03-2008 01:01:03 6.1 C 3.29 g/m*3 6.1 C 0 km/h
2765 13-03-2008 01:13:03 6.2 C 3.31 g/m*3 6.2 C 0 km/h
2766 13-03-2008 01:25:03 6.1 C 3.29 g/m*3 6.1 C 0 km/h
2767 13-03-2008 01:37:02 6.2 C 3.31 g/m*3 6.2 C 0 km/h
2768 13-03-2008 01:49:01 6.4 C 3.35 g/m*3 6.4 C 0 km/h
2769 13-03-2008 02:01:02 6.3 C 3.33 g/m*3 6.3 C 0 km/h
2770 13-03-2008 02:13:02 6.2 C 3.31 g/m*3 6.2 C 0 km/h
2771 13-03-2008 02:25:02 6.2 C 3.31 g/m*3 6.2 C 0 km/h
2772 13-03-2008 02:37:01 6.2 C 3.31 g/m*3 6.2 C 0 km/h
2773 13-03-2008 02:50:03 6.1 C 3.36 g/m*3 6.1 C 0 km/h
2774 13-03-2008 03:02:03 6.1 C 3.36 g/m*3 6.1 C 0 km/h
2775 13-03-2008 03:14:04 5.9 C 3.39 g/m*3 5.9 C 0 km/h
Sensor: Nr:Datum:Temp:Abs-Feuchte:Windchill:Wind:
Aussen-T/F 2776 13-03-2008 03:26:04 5.8 C 3.44 g/m*3 5.8 C 0 km/h
2777 13-03-2008 03:38:01 5.9 C 3.46 g/m*3 5.9 C 0 km/h
2778 13-03-2008 03:50:01 5.8 C 3.44 g/m*3 5.8 C 0 km/h
2779 13-03-2008 04:02:02 6 C 3.41 g/m*3 6 C 0 km/h
2780 13-03-2008 04:14:02 5.9 C 3.46 g/m*3 5.9 C 0 km/h
2781 13-03-2008 04:26:02 6 C 3.41 g/m*3 6 C 0 km/h
2782 13-03-2008 04:38:01 5.8 C 3.51 g/m*3 5.8 C 0 km/h
2783 13-03-2008 04:50:01 5.6 C 3.53 g/m*3 5.6 C 0 km/h
2784 13-03-2008 05:02:02 5.6 C 3.61 g/m*3 5.6 C 0 km/h
2785 13-03-2008 05:14:02 5.6 C 3.61 g/m*3 5.6 C 0 km/h
2786 13-03-2008 05:26:02 5.6 C 3.68 g/m*3 5.6 C 0 km/h
2787 13-03-2008 05:38:01 5.6 C 3.68 g/m*3 5.6 C 0 km/h
2788 13-03-2008 05:50:01 5.6 C 3.75 g/m*3 5.6 C 0 km/h
2789 13-03-2008 06:02:02 5.7 C 3.84 g/m*3 5.7 C 0 km/h
2790 13-03-2008 06:14:02 5.6 C 3.89 g/m*3 5.6 C 0 km/h
2791 13-03-2008 06:26:01 5.8 C 3.94 g/m*3 5.8 C 0 km/h
2792 13-03-2008 06:38:02 5.8 C 3.87 g/m*3 5.8 C 0 km/h
2793 13-03-2008 06:50:02 5.7 C 3.84 g/m*3 5.7 C 0 km/h
2794 13-03-2008 07:02:01 5.8 C 3.94 g/m*3 5.8 C 0 km/h
2795 13-03-2008 07:14:02 5.8 C 4.01 g/m*3 5.8 C 0 km/h
2796 13-03-2008 07:26:01 5.5 C 4.35 g/m*3 5.5 C 0 km/h
2797 13-03-2008 07:38:02 5.3 C 4.44 g/m*3 5.3 C 0 km/h
2798 13-03-2008 07:50:02 5.3 C 4.44 g/m*3 5.3 C 0 km/h
2799 13-03-2008 08:02:02 5 C 4.48 g/m*3 5 C 0 km/h
2800 13-03-2008 08:14:02 5 C 4.62 g/m*3 5 C 0 km/h
Sensor: Nr:Datum:Temp:Abs-Feuchte:Windchill:Wind:
Aussen-T/F 2801 13-03-2008 08:26:01 5.4 C 4.67 g/m*3 5.4 C 0 km/h
2802 13-03-2008 08:38:02 5.4 C 4.54 g/m*3 5.4 C 0 km/h
2803 13-03-2008 08:50:02 5.4 C 4.47 g/m*3 5.4 C 0 km/h
2804 13-03-2008 09:02:02 5.6 C 4.38 g/m*3 5.6 C 0 km/h
2805 13-03-2008 09:14:02 5.7 C 4.41 g/m*3 5.7 C 0 km/h
2806 13-03-2008 09:26:03 6.2 C 4.34 g/m*3 6.2 C 0 km/h
2807 13-03-2008 09:38:02 6.6 C 4.38 g/m*3 6.6 C 0 km/h
2808 13-03-2008 09:50:01 7 C 4.26 g/m*3 7 C 0 km/h
2809 13-03-2008 10:02:01 7.4 C 4.29 g/m*3 7.4 C 0 km/h
2810 13-03-2008 10:14:01 7.5 C 4.32 g/m*3 7.5 C 0 km/h
2811 13-03-2008 10:26:02 7.8 C 4.41 g/m*3 7.8 C 0 km/h
2812 13-03-2008 10:38:01 8.2 C 4.02 g/m*3 8.2 C 0 km/h
2813 13-03-2008 10:50:02 8.3 C 3.88 g/m*3 8.3 C 0 km/h
2814 13-03-2008 11:02:01 8.4 C 3.82 g/m*3 8.4 C 0 km/h
2815 13-03-2008 11:14:01 8.1 C 3.91 g/m*3 8.1 C 0 km/h
2816 13-03-2008 11:26:02 7.7 C 4.46 g/m*3 7.7 C 0 km/h
2817 13-03-2008 11:38:02 8 C 4.38 g/m*3 8 C 0 km/h
2818 13-03-2008 11:50:02 8.5 C 4.1 g/m*3 8.5 C 0 km/h
2819 13-03-2008 12:02:02 8.4 C 3.99 g/m*3 8.4 C 0 km/h
2820 13-03-2008 12:14:02 8.5 C 4.1 g/m*3 8.5 C 0 km/h
2821 13-03-2008 12:26:02 8.5 C 3.93 g/m*3 8.5 C 0 km/h
2822 13-03-2008 12:38:02 8.7 C 3.81 g/m*3 8.7 C 0 km/h
2823 13-03-2008 12:50:02 8.9 C 3.85 g/m*3 8.9 C 0 km/h
2824 13-03-2008 13:02:01 9 C 3.88 g/m*3 9 C 0 km/h
2825 13-03-2008 13:14:01 8.7 C 4.15 g/m*3 8.7 C 0 km/h
Sensor: Nr:Datum:Temp:Abs-Feuchte:Windchill:Wind:
Aussen-T/F 2826 13-03-2008 13:26:01 9.4 C 4.16 g/m*3 9.4 C 0 km/h
2827 13-03-2008 13:38:01 9.3 C 4.04 g/m*3 9.3 C 0 km/h
2828 13-03-2008 13:50:02 9.1 C 4.17 g/m*3 9.1 C 0 km/h
2829 13-03-2008 14:02:02 9.5 C 4.19 g/m*3 9.5 C 0 km/h
2830 13-03-2008 14:14:02 10.5 C 4.07 g/m*3 10.5 C 0 km/h
2831 13-03-2008 14:26:02 10.5 C 4.07 g/m*3 10.5 C 0 km/h
2832 13-03-2008 14:38:02 10.7 C 3.83 g/m*3 10.7 C 0 km/h
2833 13-03-2008 14:50:02 10.5 C 3.59 g/m*3 10.5 C 0 km/h
2834 13-03-2008 15:02:03 10.4 C 3.47 g/m*3 10.4 C 0 km/h
2835 13-03-2008 15:14:03 10.8 C 3.66 g/m*3 10.8 C 0 km/h
2836 13-03-2008 15:26:02 11.1 C 3.63 g/m*3 11.1 C 0 km/h
2837 13-03-2008 15:38:02 11.3 C 3.57 g/m*3 11.3 C 0 km/h
2838 13-03-2008 15:50:01 11.4 C 3.49 g/m*3 11.4 C 0 km/h
2839 13-03-2008 16:02:01 11 C 3.5 g/m*3 11 C 0 km/h
2840 13-03-2008 16:14:01 10.8 C 3.46 g/m*3 10.8 C 0 km/h
2841 13-03-2008 16:26:02 10.6 C 3.42 g/m*3 10.6 C 0 km/h
2842 13-03-2008 16:38:01 10.4 C 3.37 g/m*3 10.4 C 0 km/h
2843 13-03-2008 16:50:02 10.1 C 3.4 g/m*3 10.1 C 0 km/h
2844 13-03-2008 17:02:01 10 C 3.66 g/m*3 10 C 0 km/h
2845 13-03-2008 17:14:01 9.8 C 3.8 g/m*3 9.8 C 0 km/h
2846 13-03-2008 17:26:01 9.2 C 4.02 g/m*3 9.2 C 0 km/h
2847 13-03-2008 17:38:02 8.1 C 4.74 g/m*3 8.1 C 0 km/h
2848 13-03-2008 17:50:03 8 C 5.04 g/m*3 8 C 0 km/h
2849 13-03-2008 18:02:02 8.1 C 5.08 g/m*3 8.1 C 0 km/h
2850 13-03-2008 18:14:02 8.1 C 4.91 g/m*3 8.1 C 0 km/h
Sensor: Nr:Datum:Temp:Abs-Feuchte:Windchill:Wind:
Aussen-T/F 2851 13-03-2008 18:26:02 8.1 C 4.99 g/m*3 8.1 C 0 km/h
2852 13-03-2008 18:38:03 8.1 C 4.99 g/m*3 8.1 C 0 km/h
2853 13-03-2008 18:50:03 8.2 C 4.69 g/m*3 8.2 C 0 km/h
2854 13-03-2008 19:02:02 8.4 C 4.75 g/m*3 8.4 C 0 km/h
2855 13-03-2008 19:14:03 8.5 C 4.61 g/m*3 8.5 C 0 km/h
2856 13-03-2008 19:26:02 8.6 C 4.47 g/m*3 8.6 C 0 km/h
2857 13-03-2008 19:38:02 8.7 C 4.32 g/m*3 8.7 C 0 km/h
2858 13-03-2008 19:50:02 8.8 C 4.35 g/m*3 8.8 C 0 km/h
2859 13-03-2008 20:02:03 8.8 C 4.35 g/m*3 8.8 C 0 km/h
2860 13-03-2008 20:14:03 8.6 C 4.55 g/m*3 8.6 C 0 km/h
2861 13-03-2008 20:26:02 8.2 C 4.77 g/m*3 8.2 C 0 km/h
2862 13-03-2008 20:38:02 8.3 C 4.55 g/m*3 8.3 C 0 km/h
2863 13-03-2008 20:50:01 8.3 C 4.55 g/m*3 8.3 C 0 km/h
2864 13-03-2008 21:02:01 8.4 C 4.5 g/m*3 8.4 C 0 km/h
2865 13-03-2008 21:14:01 8.5 C 4.53 g/m*3 8.5 C 0 km/h
2866 13-03-2008 21:26:02 8.5 C 4.53 g/m*3 8.5 C 0 km/h
2867 13-03-2008 21:38:02 8.4 C 4.58 g/m*3 8.4 C 0 km/h
2868 13-03-2008 21:50:02 8.3 C 4.64 g/m*3 8.3 C 0 km/h
2869 13-03-2008 22:03:03 8.2 C 4.61 g/m*3 8.2 C 0 km/h
2870 13-03-2008 22:15:03 8.2 C 4.69 g/m*3 8.2 C 0 km/h
2871 13-03-2008 22:27:03 8.2 C 4.69 g/m*3 8.2 C 0 km/h
2872 13-03-2008 22:39:03 8.2 C 4.69 g/m*3 8.2 C 0 km/h
2873 13-03-2008 22:51:03 8.4 C 4.75 g/m*3 8.4 C 0 km/h
2874 13-03-2008 23:03:03 8.4 C 4.75 g/m*3 8.4 C 0 km/h
2875 13-03-2008 23:15:03 8.3 C 4.72 g/m*3 8.3 C 0 km/h
Sensor: Nr:Datum:Temp:Abs-Feuchte:Windchill:Wind:
Aussen-T/F 2876 13-03-2008 23:27:03 8.3 C 4.72 g/m*3 8.3 C 0 km/h
2877 13-03-2008 23:39:03 8.4 C 4.84 g/m*3 8.4 C 0 km/h
2878 13-03-2008 23:51:03 8.2 C 4.77 g/m*3 8.2 C 0 km/h
2879 14-03-2008 00:03:03 8.3 C 4.8 g/m*3 8.3 C 0 km/h
2880 14-03-2008 00:15:03 7.9 C 4.93 g/m*3 7.9 C 0 km/h
2881 14-03-2008 00:27:04 7.5 C 5.2 g/m*3 7.5 C 0 km/h
2882 14-03-2008 00:39:04 7.2 C 5.42 g/m*3 7.2 C 0 km/h
2883 14-03-2008 00:51:04 7 C 5.58 g/m*3 7 C 0 km/h
2884 14-03-2008 01:03:04 6.8 C 5.74 g/m*3 6.8 C 0 km/h
2885 14-03-2008 01:15:04 6.8 C 5.81 g/m*3 6.8 C 0 km/h
2886 14-03-2008 01:27:04 6.7 C 6 g/m*3 6.7 C 0 km/h
2887 14-03-2008 01:39:04 6.7 C 6.15 g/m*3 6.7 C 0 km/h
2888 14-03-2008 01:51:04 6.5 C 6.15 g/m*3 6.5 C 0 km/h
2889 14-03-2008 02:03:04 6.5 C 6.3 g/m*3 6.5 C 0 km/h
2890 14-03-2008 02:15:04 6.5 C 6.37 g/m*3 6.5 C 0 km/h
2891 14-03-2008 02:27:04 6.5 C 6.37 g/m*3 6.5 C 0 km/h
2892 14-03-2008 02:39:04 6.4 C 6.41 g/m*3 6.4 C 0 km/h
2893 14-03-2008 02:51:04 6.4 C 6.48 g/m*3 6.4 C 0 km/h
2894 14-03-2008 03:03:04 6.4 C 6.48 g/m*3 6.4 C 0 km/h
2895 14-03-2008 03:15:04 6.3 C 6.51 g/m*3 6.3 C 0 km/h
2896 14-03-2008 03:27:04 6.3 C 6.51 g/m*3 6.3 C 0 km/h
2897 14-03-2008 03:39:04 6.4 C 6.63 g/m*3 6.4 C 0 km/h
2898 14-03-2008 03:51:04 6.4 C 6.63 g/m*3 6.4 C 0 km/h
2899 14-03-2008 04:03:04 6.4 C 6.71 g/m*3 6.4 C 0 km/h
2900 14-03-2008 04:15:04 6.4 C 6.71 g/m*3 6.4 C 0 km/h
Sensor: Nr:Datum:Temp:Abs-Feuchte:Windchill:Wind:
Aussen-T/F 2901 14-03-2008 04:27:05 6.5 C 6.82 g/m*3 6.5 C 0 km/h
2902 14-03-2008 04:39:05 6.9 C 7.01 g/m*3 6.9 C 0 km/h
2903 14-03-2008 04:51:05 7.1 C 7.02 g/m*3 7.1 C 0 km/h
2904 14-03-2008 05:03:05 7.2 C 7.06 g/m*3 7.2 C 0 km/h
2905 14-03-2008 05:15:05 7.3 C 7.11 g/m*3 7.3 C 0 km/h
2906 14-03-2008 05:27:05 7.3 C 7.11 g/m*3 7.3 C 0 km/h
2907 14-03-2008 05:39:05 7.4 C 7.16 g/m*3 7.4 C 0 km/h
2908 14-03-2008 05:51:05 7.5 C 7.28 g/m*3 7.5 C 0 km/h
2909 14-03-2008 06:03:05 7.6 C 7.33 g/m*3 7.6 C 0 km/h
2910 14-03-2008 06:15:05 7.7 C 7.38 g/m*3 7.7 C 0 km/h
2911 14-03-2008 06:27:05 7.8 C 7.43 g/m*3 7.8 C 0 km/h
2912 14-03-2008 06:39:05 7.9 C 7.47 g/m*3 7.9 C 0 km/h
2913 14-03-2008 06:51:05 7.9 C 7.47 g/m*3 7.9 C 0 km/h
2914 14-03-2008 07:03:02 8.1 C 7.57 g/m*3 8.1 C 0 km/h
2915 14-03-2008 07:15:02 8.3 C 7.67 g/m*3 8.3 C 0 km/h
2916 14-03-2008 07:27:02 8.7 C 7.87 g/m*3 8.7 C 0 km/h
2917 14-03-2008 07:39:03 9.2 C 7.86 g/m*3 9.2 C 0 km/h
2918 14-03-2008 07:51:02 9.3 C 7.73 g/m*3 9.3 C 0 km/h
2919 14-03-2008 08:03:02 9.3 C 7.64 g/m*3 9.3 C 0 km/h
2920 14-03-2008 08:15:02 9.5 C 7.74 g/m*3 9.5 C 0 km/h
2921 14-03-2008 08:27:02 9.6 C 7.69 g/m*3 9.6 C 0 km/h
2922 14-03-2008 08:39:02 9.7 C 7.65 g/m*3 9.7 C 0 km/h
2923 14-03-2008 08:51:02 9.7 C 7.65 g/m*3 9.7 C 0 km/h
2924 14-03-2008 09:03:01 9.7 C 7.74 g/m*3 9.7 C 0 km/h
2925 14-03-2008 09:15:02 9.7 C 7.74 g/m*3 9.7 C 0 km/h
Sensor: Nr:Datum:Temp:Abs-Feuchte:Windchill:Wind:
Aussen-T/F 2926 14-03-2008 09:27:02 9.7 C 7.74 g/m*3 9.7 C 0 km/h
2927 14-03-2008 09:39:02 9.9 C 7.66 g/m*3 9.9 C 0 km/h
2928 14-03-2008 09:51:02 10.1 C 7.47 g/m*3 10.1 C 0 km/h
2929 14-03-2008 10:03:02 10.4 C 7.32 g/m*3 10.4 C 0 km/h
2930 14-03-2008 10:15:02 10.6 C 7.12 g/m*3 10.6 C 0 km/h
2931 14-03-2008 10:27:02 10.9 C 6.37 g/m*3 10.9 C 0 km/h
2932 14-03-2008 10:39:02 11.2 C 5.98 g/m*3 11.2 C 0 km/h
2933 14-03-2008 10:51:02 11.2 C 5.88 g/m*3 11.2 C 0 km/h
2934 14-03-2008 11:03:02 11.2 C 5.98 g/m*3 11.2 C 0 km/h
2935 14-03-2008 11:15:03 11.2 C 5.88 g/m*3 11.2 C 0 km/h
2936 14-03-2008 11:27:03 11.6 C 5.82 g/m*3 11.6 C 0 km/h
2937 14-03-2008 11:39:02 11.6 C 5.72 g/m*3 11.6 C 0 km/h
2938 14-03-2008 11:51:01 11.7 C 5.65 g/m*3 11.7 C 0 km/h
2939 14-03-2008 12:03:02 11.9 C 5.51 g/m*3 11.9 C 0 km/h
2940 14-03-2008 12:15:02 12.1 C 5.25 g/m*3 12.1 C 0 km/h
2941 14-03-2008 12:27:02 12.1 C 5.04 g/m*3 12.1 C 0 km/h
2942 14-03-2008 12:39:01 12 C 5.01 g/m*3 12 C 0 km/h
2943 14-03-2008 12:51:01 11.9 C 5.61 g/m*3 11.9 C 0 km/h
2944 14-03-2008 13:03:02 11.9 C 5.61 g/m*3 11.9 C 0 km/h
2945 14-03-2008 13:15:02 12 C 5.01 g/m*3 12 C 0 km/h
2946 14-03-2008 13:27:02 12 C 4.8 g/m*3 12 C 0 km/h
2947 14-03-2008 13:39:01 12 C 4.9 g/m*3 12 C 0 km/h
2948 14-03-2008 13:51:01 12.5 C 4.84 g/m*3 12.5 C 0 km/h
2949 14-03-2008 14:03:02 12.6 C 4.65 g/m*3 12.6 C 0 km/h
2950 14-03-2008 14:15:02 12.5 C 4.51 g/m*3 12.5 C 0 km/h
Sensor: Nr:Datum:Temp:Abs-Feuchte:Windchill:Wind:
Aussen-T/F 2951 14-03-2008 14:27:02 12.8 C 4.59 g/m*3 12.8 C 0 km/h
2952 14-03-2008 14:39:01 13 C 4.42 g/m*3 13 C 0 km/h
2953 14-03-2008 14:51:01 12.8 C 4.37 g/m*3 12.8 C 0 km/h
2954 14-03-2008 15:03:02 13 C 4.08 g/m*3 13 C 0 km/h
2955 14-03-2008 15:15:02 13 C 4.08 g/m*3 13 C 0 km/h
2956 14-03-2008 15:27:02 12.9 C 4.51 g/m*3 12.9 C 0 km/h
2957 14-03-2008 15:39:02 13 C 4.31 g/m*3 13 C 0 km/h
2958 14-03-2008 15:51:02 13 C 4.31 g/m*3 13 C 0 km/h
2959 14-03-2008 16:03:02 13.2 C 4.25 g/m*3 13.2 C 0 km/h
2960 14-03-2008 16:15:02 13 C 3.97 g/m*3 13 C 0 km/h
2961 14-03-2008 16:27:02 12.9 C 3.83 g/m*3 12.9 C 0 km/h
2962 14-03-2008 16:39:02 12.8 C 3.47 g/m*3 12.8 C 0 km/h
2963 14-03-2008 16:51:02 12.7 C 3.34 g/m*3 12.7 C 0 km/h
2964 14-03-2008 17:03:03 12.5 C 3.41 g/m*3 12.5 C 0 km/h
2965 14-03-2008 17:15:03 12.4 C 3.82 g/m*3 12.4 C 0 km/h
2966 14-03-2008 17:27:03 12 C 4.05 g/m*3 12 C 0 km/h
2967 14-03-2008 17:39:02 11.7 C 4.29 g/m*3 11.7 C 0 km/h
2968 14-03-2008 17:51:02 11.4 C 4.31 g/m*3 11.4 C 0 km/h
2969 14-03-2008 18:03:01 11.1 C 4.03 g/m*3 11.1 C 0 km/h
2970 14-03-2008 18:15:02 11 C 3.6 g/m*3 11 C 0 km/h
2971 14-03-2008 18:27:02 10.5 C 3.98 g/m*3 10.5 C 0 km/h
2972 14-03-2008 18:39:02 10.1 C 4.26 g/m*3 10.1 C 0 km/h
2973 14-03-2008 18:51:02 9.8 C 4.36 g/m*3 9.8 C 0 km/h
2974 14-03-2008 19:03:02 9.4 C 4.34 g/m*3 9.4 C 0 km/h
2975 14-03-2008 19:15:02 9.2 C 4.29 g/m*3 9.2 C 0 km/h
Sensor: Nr:Datum:Temp:Abs-Feuchte:Windchill:Wind:
Aussen-T/F 2976 14-03-2008 19:27:02 8.8 C 4.35 g/m*3 8.8 C 0 km/h
2977 14-03-2008 19:39:02 8.5 C 4.35 g/m*3 8.5 C 0 km/h
2978 14-03-2008 19:51:02 8.5 C 4.44 g/m*3 8.5 C 0 km/h
2979 14-03-2008 20:03:01 8.3 C 4.38 g/m*3 8.3 C 0 km/h
2980 14-03-2008 20:15:02 8.2 C 4.44 g/m*3 8.2 C 0 km/h
2981 14-03-2008 20:27:02 7.9 C 4.52 g/m*3 7.9 C 0 km/h
2982 14-03-2008 20:39:02 7.5 C 4.56 g/m*3 7.5 C 0 km/h
2983 14-03-2008 20:51:02 7.1 C 4.68 g/m*3 7.1 C 0 km/h
2984 14-03-2008 21:03:02 7.1 C 4.76 g/m*3 7.1 C 0 km/h
2985 14-03-2008 21:15:02 6.9 C 4.77 g/m*3 6.9 C 0 km/h
2986 14-03-2008 21:27:02 6.8 C 4.89 g/m*3 6.8 C 0 km/h
2987 14-03-2008 21:39:02 6.7 C 4.79 g/m*3 6.7 C 0 km/h
2988 14-03-2008 21:51:01 6.5 C 4.72 g/m*3 6.5 C 0 km/h
2989 14-03-2008 22:03:01 6.4 C 4.77 g/m*3 6.4 C 0 km/h
2990 14-03-2008 22:15:02 6.1 C 4.75 g/m*3 6.1 C 0 km/h
2991 14-03-2008 22:27:02 6 C 4.79 g/m*3 6 C 0 km/h
2992 14-03-2008 22:39:01 5.9 C 4.83 g/m*3 5.9 C 0 km/h
2993 14-03-2008 22:51:02 5.8 C 4.8 g/m*3 5.8 C 0 km/h
2994 14-03-2008 23:03:02 5.6 C 4.81 g/m*3 5.6 C 0 km/h
2995 14-03-2008 23:16:03 5.5 C 4.78 g/m*3 5.5 C 0 km/h
2996 14-03-2008 23:28:03 5.4 C 4.81 g/m*3 5.4 C 0 km/h
2997 14-03-2008 23:40:03 5.3 C 4.78 g/m*3 5.3 C 0 km/h
2998 14-03-2008 23:52:03 5.3 C 4.78 g/m*3 5.3 C 0 km/h
2999 15-03-2008 00:04:03 5 C 4.62 g/m*3 5 C 0 km/h
3000 15-03-2008 00:16:03 4.8 C 4.69 g/m*3 4.8 C 0 km/h
Sensor: Nr:Datum:Temp:Abs-Feuchte:Windchill:Wind:
Aussen-T/F 3001 15-03-2008 00:28:03 4.5 C 4.67 g/m*3 4.5 C 0 km/h
3002 15-03-2008 00:40:03 4.4 C 4.7 g/m*3 4.4 C 0 km/h
3003 15-03-2008 00:52:03 4.2 C 4.7 g/m*3 4.2 C 0 km/h
3004 15-03-2008 01:04:03 4.1 C 4.74 g/m*3 4.1 C 0 km/h
3005 15-03-2008 01:16:03 3.9 C 4.74 g/m*3 3.9 C 0 km/h
3006 15-03-2008 01:28:03 3.8 C 4.71 g/m*3 3.8 C 0 km/h
3007 15-03-2008 01:40:03 3.7 C 4.67 g/m*3 3.7 C 0 km/h
3008 15-03-2008 01:52:03 3.8 C 4.77 g/m*3 3.8 C 0 km/h
3009 15-03-2008 02:04:04 3.7 C 4.8 g/m*3 3.7 C 0 km/h
3010 15-03-2008 02:16:04 3.6 C 4.77 g/m*3 3.6 C 0 km/h
3011 15-03-2008 02:28:04 3.4 C 4.7 g/m*3 3.4 C 0 km/h
3012 15-03-2008 02:40:04 3.2 C 4.64 g/m*3 3.2 C 0 km/h
3013 15-03-2008 02:52:04 2.9 C 4.61 g/m*3 2.9 C 0 km/h
3014 15-03-2008 03:04:04 2.7 C 4.54 g/m*3 2.7 C 0 km/h
3015 15-03-2008 03:16:04 2.7 C 4.6 g/m*3 2.7 C 0 km/h
3016 15-03-2008 03:28:04 2.6 C 4.63 g/m*3 2.6 C 0 km/h
3017 15-03-2008 03:40:04 2.5 C 4.6 g/m*3 2.5 C 0 km/h
3018 15-03-2008 03:52:04 2.4 C 4.57 g/m*3 2.4 C 0 km/h
3019 15-03-2008 04:04:04 2.5 C 4.66 g/m*3 2.5 C 0 km/h
3020 15-03-2008 04:16:04 3 C 4.88 g/m*3 3 C 0 km/h
3021 15-03-2008 04:28:04 3.2 C 4.94 g/m*3 3.2 C 0 km/h
3022 15-03-2008 04:40:04 3.2 C 4.82 g/m*3 3.2 C 0 km/h
3023 15-03-2008 04:52:04 3.4 C 4.89 g/m*3 3.4 C 0 km/h
3024 15-03-2008 05:04:04 3.6 C 4.89 g/m*3 3.6 C 0 km/h
3025 15-03-2008 05:16:04 3.7 C 4.86 g/m*3 3.7 C 0 km/h
Sensor: Nr:Datum:Temp:Abs-Feuchte:Windchill:Wind:
Aussen-T/F 3026 15-03-2008 05:28:04 3.7 C 4.86 g/m*3 3.7 C 0 km/h
3027 15-03-2008 05:40:04 3.8 C 4.83 g/m*3 3.8 C 0 km/h
3028 15-03-2008 05:52:04 3.8 C 4.83 g/m*3 3.8 C 0 km/h
3029 15-03-2008 06:04:04 3.9 C 4.86 g/m*3 3.9 C 0 km/h
3030 15-03-2008 06:16:05 4 C 4.77 g/m*3 4 C 0 km/h
3031 15-03-2008 06:28:05 4 C 4.77 g/m*3 4 C 0 km/h
3032 15-03-2008 06:40:05 4.1 C 4.8 g/m*3 4.1 C 0 km/h
3033 15-03-2008 06:52:05 4.2 C 4.83 g/m*3 4.2 C 0 km/h
3034 15-03-2008 07:04:05 4.3 C 4.86 g/m*3 4.3 C 0 km/h
3035 15-03-2008 07:16:05 4.4 C 4.9 g/m*3 4.4 C 0 km/h
3036 15-03-2008 07:28:05 4.4 C 4.96 g/m*3 4.4 C 0 km/h
3037 15-03-2008 07:40:05 4.6 C 5.03 g/m*3 4.6 C 0 km/h
3038 15-03-2008 07:52:05 4.9 C 5.13 g/m*3 4.9 C 0 km/h
3039 15-03-2008 08:04:05 5.1 C 5.06 g/m*3 5.1 C 0 km/h
3040 15-03-2008 08:16:05 5.5 C 5.13 g/m*3 5.5 C 0 km/h
3041 15-03-2008 08:28:05 5.7 C 5.05 g/m*3 5.7 C 0 km/h
3042 15-03-2008 08:40:05 6.1 C 5.04 g/m*3 6.1 C 0 km/h
3043 15-03-2008 08:52:02 6.5 C 5.02 g/m*3 6.5 C 0 km/h
3044 15-03-2008 09:04:02 6.6 C 4.83 g/m*3 6.6 C 0 km/h
3045 15-03-2008 09:16:02 7.1 C 4.99 g/m*3 7.1 C 0 km/h
3046 15-03-2008 09:28:02 7.6 C 4.99 g/m*3 7.6 C 0 km/h
3047 15-03-2008 09:40:02 7.7 C 5.03 g/m*3 7.7 C 0 km/h
3048 15-03-2008 09:52:02 8.1 C 5.24 g/m*3 8.1 C 0 km/h
3049 15-03-2008 10:04:02 8.6 C 5.24 g/m*3 8.6 C 0 km/h
3050 15-03-2008 10:16:02 8.9 C 5.17 g/m*3 8.9 C 0 km/h
Sensor: Nr:Datum:Temp:Abs-Feuchte:Windchill:Wind:
Aussen-T/F 3051 15-03-2008 10:28:02 9.2 C 5.09 g/m*3 9.2 C 0 km/h
3052 15-03-2008 10:40:02 9.5 C 5.01 g/m*3 9.5 C 0 km/h
3053 15-03-2008 10:52:02 9.4 C 4.97 g/m*3 9.4 C 0 km/h
3054 15-03-2008 11:04:02 10.1 C 5.2 g/m*3 10.1 C 0 km/h
3055 15-03-2008 11:16:02 10.7 C 5.11 g/m*3 10.7 C 0 km/h
3056 15-03-2008 11:28:02 11.3 C 5.1 g/m*3 11.3 C 0 km/h
3057 15-03-2008 11:40:01 12.1 C 5.15 g/m*3 12.1 C 0 km/h
3058 15-03-2008 11:52:01 12.5 C 5.28 g/m*3 12.5 C 0 km/h
3059 15-03-2008 12:04:02 13.1 C 5.36 g/m*3 13.1 C 0 km/h
3060 15-03-2008 12:16:02 13.5 C 5.38 g/m*3 13.5 C 0 km/h
3061 15-03-2008 12:28:02 14.2 C 5.49 g/m*3 14.2 C 0 km/h
3062 15-03-2008 12:40:02 15 C 5.39 g/m*3 15 C 0 km/h
3063 15-03-2008 12:52:02 15.4 C 5.39 g/m*3 15.4 C 0 km/h
3064 15-03-2008 13:04:02 15.9 C 5.42 g/m*3 15.9 C 0 km/h
3065 15-03-2008 13:16:01 17.1 C 5.24 g/m*3 17.1 C 0 km/h
3066 15-03-2008 13:28:01 16.3 C 4.86 g/m*3 16.3 C 0 km/h
3067 15-03-2008 13:40:02 16.6 C 5.09 g/m*3 16.6 C 0 km/h
3068 15-03-2008 13:52:02 17.8 C 5.16 g/m*3 17.8 C 0 km/h
3069 15-03-2008 14:04:02 17.2 C 4.83 g/m*3 17.2 C 0 km/h
3070 15-03-2008 14:16:02 17.3 C 4.71 g/m*3 17.3 C 0 km/h
3071 15-03-2008 14:28:02 17.5 C 4.77 g/m*3 17.5 C 0 km/h
3072 15-03-2008 14:40:02 17.5 C 4.77 g/m*3 17.5 C 0 km/h
3073 15-03-2008 14:52:02 17.2 C 4.83 g/m*3 17.2 C 0 km/h
3074 15-03-2008 15:04:02 17.5 C 4.77 g/m*3 17.5 C 0 km/h
3075 15-03-2008 15:16:01 17.5 C 4.62 g/m*3 17.5 C 0 km/h
Sensor: Nr:Datum:Temp:Abs-Feuchte:Windchill:Wind:
Aussen-T/F 3076 15-03-2008 15:28:01 16.8 C 4.58 g/m*3 16.8 C 0 km/h
3077 15-03-2008 15:40:02 16.5 C 4.77 g/m*3 16.5 C 0 km/h
3078 15-03-2008 15:52:02 16.2 C 4.83 g/m*3 16.2 C 0 km/h
3079 15-03-2008 16:04:02 16.4 C 4.75 g/m*3 16.4 C 0 km/h
3080 15-03-2008 16:16:03 16.6 C 4.8 g/m*3 16.6 C 0 km/h
3081 15-03-2008 16:28:03 16.5 C 4.63 g/m*3 16.5 C 0 km/h
3082 15-03-2008 16:40:02 15.9 C 4.74 g/m*3 15.9 C 0 km/h
3083 15-03-2008 16:52:02 15.6 C 4.79 g/m*3 15.6 C 0 km/h
3084 15-03-2008 17:04:02 15.1 C 4.9 g/m*3 15.1 C 0 km/h
3085 15-03-2008 17:16:02 14.8 C 5.19 g/m*3 14.8 C 0 km/h
3086 15-03-2008 17:28:02 14.7 C 5.29 g/m*3 14.7 C 0 km/h
3087 15-03-2008 17:40:01 14.5 C 5.35 g/m*3 14.5 C 0 km/h
3088 15-03-2008 17:52:02 14.1 C 5.46 g/m*3 14.1 C 0 km/h
3089 15-03-2008 18:04:02 13.8 C 5.6 g/m*3 13.8 C 0 km/h
3090 15-03-2008 18:16:02 13.2 C 5.74 g/m*3 13.2 C 0 km/h
3091 15-03-2008 18:28:02 12.9 C 5.75 g/m*3 12.9 C 0 km/h
3092 15-03-2008 18:40:02 12.6 C 5.86 g/m*3 12.6 C 0 km/h
3093 15-03-2008 18:52:02 12.2 C 5.83 g/m*3 12.2 C 0 km/h
3094 15-03-2008 19:04:02 12 C 5.86 g/m*3 12 C 0 km/h
3095 15-03-2008 19:16:02 11.7 C 5.96 g/m*3 11.7 C 0 km/h
3096 15-03-2008 19:28:02 11.6 C 6.03 g/m*3 11.6 C 0 km/h
3097 15-03-2008 19:40:01 11.5 C 5.99 g/m*3 11.5 C 0 km/h
3098 15-03-2008 19:52:01 11.4 C 6.06 g/m*3 11.4 C 0 km/h
3099 15-03-2008 20:04:02 11.2 C 5.98 g/m*3 11.2 C 0 km/h
3100 15-03-2008 20:16:02 10.9 C 6.07 g/m*3 10.9 C 0 km/h
Sensor: Nr:Datum:Temp:Abs-Feuchte:Windchill:Wind:
Aussen-T/F 3101 15-03-2008 20:28:02 10.8 C 6.03 g/m*3 10.8 C 0 km/h
3102 15-03-2008 20:40:01 10.6 C 6.05 g/m*3 10.6 C 0 km/h
3103 15-03-2008 20:52:01 10.4 C 5.98 g/m*3 10.4 C 0 km/h
3104 15-03-2008 21:04:02 10.2 C 6 g/m*3 10.2 C 0 km/h
3105 15-03-2008 21:16:02 10.1 C 6.05 g/m*3 10.1 C 0 km/h
3106 15-03-2008 21:28:02 9.9 C 6.07 g/m*3 9.9 C 0 km/h
3107 15-03-2008 21:40:02 9.8 C 6.03 g/m*3 9.8 C 0 km/h
3108 15-03-2008 21:52:02 9.8 C 6.03 g/m*3 9.8 C 0 km/h
3109 15-03-2008 22:04:02 9.6 C 6.05 g/m*3 9.6 C 0 km/h
3110 15-03-2008 22:16:01 9.5 C 6.1 g/m*3 9.5 C 0 km/h
3111 15-03-2008 22:28:01 9.5 C 6.1 g/m*3 9.5 C 0 km/h
3112 15-03-2008 22:40:02 9.6 C 6.23 g/m*3 9.6 C 0 km/h
3113 15-03-2008 22:52:03 9.6 C 6.14 g/m*3 9.6 C 0 km/h
3114 15-03-2008 23:04:02 9.6 C 6.23 g/m*3 9.6 C 0 km/h
3115 15-03-2008 23:16:02 9.6 C 6.23 g/m*3 9.6 C 0 km/h
3116 15-03-2008 23:28:02 9.6 C 6.14 g/m*3 9.6 C 0 km/h
3117 15-03-2008 23:40:03 9.6 C 6.23 g/m*3 9.6 C 0 km/h
3118 15-03-2008 23:52:02 9.6 C 6.14 g/m*3 9.6 C 0 km/h
3119 16-03-2008 00:05:03 9.5 C 6.19 g/m*3 9.5 C 0 km/h
3120 16-03-2008 00:17:03 9.4 C 6.15 g/m*3 9.4 C 0 km/h
3121 16-03-2008 00:29:03 9.2 C 6.07 g/m*3 9.2 C 0 km/h
3122 16-03-2008 00:41:03 9.3 C 6.2 g/m*3 9.3 C 0 km/h
3123 16-03-2008 00:53:03 9.2 C 6.16 g/m*3 9.2 C 0 km/h
3124 16-03-2008 01:05:03 9.2 C 6.16 g/m*3 9.2 C 0 km/h
3125 16-03-2008 01:17:03 9.1 C 6.21 g/m*3 9.1 C 0 km/h
Sensor: Nr:Datum:Temp:Abs-Feuchte:Windchill:Wind:
Aussen-T/F 3126 16-03-2008 01:29:03 9.1 C 6.3 g/m*3 9.1 C 0 km/h
3127 16-03-2008 01:41:03 9.1 C 6.57 g/m*3 9.1 C 0 km/h
3128 16-03-2008 01:53:03 9.2 C 6.97 g/m*3 9.2 C 0 km/h
3129 16-03-2008 02:05:03 9.1 C 7.19 g/m*3 9.1 C 0 km/h
3130 16-03-2008 02:17:03 9.3 C 7.55 g/m*3 9.3 C 0 km/h
3131 16-03-2008 02:29:03 9.8 C 7.98 g/m*3 9.8 C 0 km/h
3132 16-03-2008 02:41:04 10.3 C 8.33 g/m*3 10.3 C 0 km/h
3133 16-03-2008 02:53:04 10.5 C 8.24 g/m*3 10.5 C 0 km/h
3134 16-03-2008 03:05:04 10.4 C 7.9 g/m*3 10.4 C 0 km/h
3135 16-03-2008 03:17:04 10.6 C 7.52 g/m*3 10.6 C 0 km/h
3136 16-03-2008 03:29:04 10.4 C 7.13 g/m*3 10.4 C 0 km/h
3137 16-03-2008 03:41:04 10.3 C 7.09 g/m*3 10.3 C 0 km/h
3138 16-03-2008 03:53:04 10.3 C 7.09 g/m*3 10.3 C 0 km/h
3139 16-03-2008 04:05:04 10.3 C 6.9 g/m*3 10.3 C 0 km/h
3140 16-03-2008 04:17:04 10.3 C 6.8 g/m*3 10.3 C 0 km/h
3141 16-03-2008 04:29:04 10.2 C 6.66 g/m*3 10.2 C 0 km/h
3142 16-03-2008 04:41:04 10.2 C 6.38 g/m*3 10.2 C 0 km/h
3143 16-03-2008 04:53:04 10.1 C 6.24 g/m*3 10.1 C 0 km/h
3144 16-03-2008 05:05:04 10 C 6.3 g/m*3 10 C 0 km/h
3145 16-03-2008 05:17:04 10.1 C 6.24 g/m*3 10.1 C 0 km/h
3146 16-03-2008 05:29:04 10 C 5.92 g/m*3 10 C 0 km/h
3147 16-03-2008 05:41:04 9.7 C 5.9 g/m*3 9.7 C 0 km/h
3148 16-03-2008 05:53:04 9.7 C 5.9 g/m*3 9.7 C 0 km/h
3149 16-03-2008 06:05:04 9.6 C 5.59 g/m*3 9.6 C 0 km/h
3150 16-03-2008 06:17:04 9.4 C 5.61 g/m*3 9.4 C 0 km/h
Sensor: Nr:Datum:Temp:Abs-Feuchte:Windchill:Wind:
Aussen-T/F 3151 16-03-2008 06:29:05 9.4 C 5.7 g/m*3 9.4 C 0 km/h
3152 16-03-2008 06:41:03 9.4 C 5.7 g/m*3 9.4 C 0 km/h
3153 16-03-2008 06:53:02 9.3 C 5.66 g/m*3 9.3 C 0 km/h
3154 16-03-2008 07:05:03 9.6 C 5.77 g/m*3 9.6 C 0 km/h
3155 16-03-2008 07:17:02 9.6 C 5.86 g/m*3 9.6 C 0 km/h
3156 16-03-2008 07:29:02 9.7 C 5.72 g/m*3 9.7 C 0 km/h
3157 16-03-2008 07:41:02 9.6 C 5.68 g/m*3 9.6 C 0 km/h
3158 16-03-2008 07:53:01 9.9 C 5.6 g/m*3 9.9 C 0 km/h
3159 16-03-2008 08:05:02 9.9 C 5.51 g/m*3 9.9 C 0 km/h
3160 16-03-2008 08:17:01 10.1 C 5.3 g/m*3 10.1 C 0 km/h
3161 16-03-2008 08:29:01 10.3 C 5.17 g/m*3 10.3 C 0 km/h
3162 16-03-2008 08:41:01 10.6 C 5.08 g/m*3 10.6 C 0 km/h
3163 16-03-2008 08:53:02 10.8 C 5.04 g/m*3 10.8 C 0 km/h
3164 16-03-2008 09:05:02 10.8 C 5.04 g/m*3 10.8 C 0 km/h
3165 16-03-2008 09:17:01 10.8 C 5.04 g/m*3 10.8 C 0 km/h
3166 16-03-2008 09:29:01 10.7 C 5.11 g/m*3 10.7 C 0 km/h
3167 16-03-2008 09:41:02 10.9 C 5.27 g/m*3 10.9 C 0 km/h
3168 16-03-2008 09:53:02 11.3 C 5.2 g/m*3 11.3 C 0 km/h
3169 16-03-2008 10:05:01 11 C 5.31 g/m*3 11 C 0 km/h
3170 16-03-2008 10:17:01 11.3 C 5.3 g/m*3 11.3 C 0 km/h
3171 16-03-2008 10:29:01 11.6 C 5.3 g/m*3 11.6 C 0 km/h
3172 16-03-2008 10:41:01 11.5 C 5.47 g/m*3 11.5 C 0 km/h
3173 16-03-2008 10:53:02 11.4 C 5.54 g/m*3 11.4 C 0 km/h
3174 16-03-2008 11:05:03 10.6 C 5.95 g/m*3 10.6 C 0 km/h
3175 16-03-2008 11:17:02 9.8 C 6.31 g/m*3 9.8 C 0 km/h
Sensor: Nr:Datum:Temp:Abs-Feuchte:Windchill:Wind:
Aussen-T/F 3176 16-03-2008 11:29:02 9.2 C 6.61 g/m*3 9.2 C 0 km/h
3177 16-03-2008 11:41:02 9.2 C 6.88 g/m*3 9.2 C 0 km/h
3178 16-03-2008 11:53:02 9.4 C 7.24 g/m*3 9.4 C 0 km/h
3179 16-03-2008 12:05:02 9.9 C 7.38 g/m*3 9.9 C 0 km/h
3180 16-03-2008 12:17:02 10.2 C 7.04 g/m*3 10.2 C 0 km/h
3181 16-03-2008 12:29:02 10 C 6.77 g/m*3 10 C 0 km/h
3182 16-03-2008 12:41:02 9.7 C 6.82 g/m*3 9.7 C 0 km/h
3183 16-03-2008 12:53:02 9.9 C 6.91 g/m*3 9.9 C 0 km/h
3184 16-03-2008 13:05:02 9.7 C 6.73 g/m*3 9.7 C 0 km/h
3185 16-03-2008 13:17:02 9.9 C 6.91 g/m*3 9.9 C 0 km/h
3186 16-03-2008 13:29:02 10.6 C 7.03 g/m*3 10.6 C 0 km/h
3187 16-03-2008 13:41:02 11.8 C 6.42 g/m*3 11.8 C 0 km/h
3188 16-03-2008 13:53:02 11.8 C 6.1 g/m*3 11.8 C 0 km/h
3189 16-03-2008 14:05:03 11.9 C 6.25 g/m*3 11.9 C 0 km/h
3190 16-03-2008 14:17:02 11.8 C 6 g/m*3 11.8 C 0 km/h
3191 16-03-2008 14:29:02 11.5 C 6.2 g/m*3 11.5 C 0 km/h
3192 16-03-2008 14:41:02 10.7 C 6.68 g/m*3 10.7 C 0 km/h
3193 16-03-2008 14:53:01 10.4 C 7.04 g/m*3 10.4 C 0 km/h
3194 16-03-2008 15:05:01 10 C 7.05 g/m*3 10 C 0 km/h
3195 16-03-2008 15:17:02 9.8 C 7.14 g/m*3 9.8 C 0 km/h
3196 16-03-2008 15:29:02 9.9 C 7.38 g/m*3 9.9 C 0 km/h
3197 16-03-2008 15:41:02 9.9 C 7.47 g/m*3 9.9 C 0 km/h
3198 16-03-2008 15:53:02 10.5 C 7.66 g/m*3 10.5 C 0 km/h
3199 16-03-2008 16:05:03 11.6 C 7.17 g/m*3 11.6 C 0 km/h
3200 16-03-2008 16:17:02 12.7 C 6.68 g/m*3 12.7 C 0 km/h
Sensor: Nr:Datum:Temp:Abs-Feuchte:Windchill:Wind:
Aussen-T/F 3201 16-03-2008 16:29:02 12.3 C 6.41 g/m*3 12.3 C 0 km/h
3202 16-03-2008 16:41:02 11.3 C 6.53 g/m*3 11.3 C 0 km/h
3203 16-03-2008 16:53:01 10.8 C 6.92 g/m*3 10.8 C 0 km/h
3204 16-03-2008 17:05:02 10.5 C 6.89 g/m*3 10.5 C 0 km/h
3205 16-03-2008 17:17:01 10 C 7.14 g/m*3 10 C 0 km/h
3206 16-03-2008 17:29:01 10 C 7.52 g/m*3 10 C 0 km/h
3207 16-03-2008 17:41:01 9.7 C 7.56 g/m*3 9.7 C 0 km/h
3208 16-03-2008 17:53:01 9.8 C 7.7 g/m*3 9.8 C 0 km/h
3209 16-03-2008 18:05:02 9.6 C 7.69 g/m*3 9.6 C 0 km/h
3210 16-03-2008 18:17:02 9.4 C 7.6 g/m*3 9.4 C 0 km/h
3211 16-03-2008 18:29:02 9.3 C 7.46 g/m*3 9.3 C 0 km/h
3212 16-03-2008 18:41:01 9.3 C 7.28 g/m*3 9.3 C 0 km/h
3213 16-03-2008 18:53:01 9.2 C 7.14 g/m*3 9.2 C 0 km/h
3214 16-03-2008 19:05:02 9.1 C 7.19 g/m*3 9.1 C 0 km/h
3215 16-03-2008 19:17:02 9 C 7.23 g/m*3 9 C 0 km/h
3216 16-03-2008 19:29:03 9 C 7.32 g/m*3 9 C 0 km/h
3217 16-03-2008 19:41:01 9 C 7.41 g/m*3 9 C 0 km/h
3218 16-03-2008 19:53:01 9 C 7.41 g/m*3 9 C 0 km/h
3219 16-03-2008 20:05:02 9 C 7.49 g/m*3 9 C 0 km/h
3220 16-03-2008 20:17:02 9 C 7.41 g/m*3 9 C 0 km/h
3221 16-03-2008 20:29:02 9 C 7.23 g/m*3 9 C 0 km/h
3222 16-03-2008 20:41:01 9 C 7.05 g/m*3 9 C 0 km/h
3223 16-03-2008 20:53:01 9 C 6.96 g/m*3 9 C 0 km/h
3224 16-03-2008 21:05:02 9 C 6.96 g/m*3 9 C 0 km/h
3225 16-03-2008 21:17:02 8.8 C 7.05 g/m*3 8.8 C 0 km/h
Sensor: Nr:Datum:Temp:Abs-Feuchte:Windchill:Wind:
Aussen-T/F 3226 16-03-2008 21:29:02 8.7 C 7.09 g/m*3 8.7 C 0 km/h
3227 16-03-2008 21:41:01 8.6 C 7.22 g/m*3 8.6 C 0 km/h
3228 16-03-2008 21:53:01 8.5 C 7.17 g/m*3 8.5 C 0 km/h
3229 16-03-2008 22:05:02 8.6 C 7.3 g/m*3 8.6 C 0 km/h
3230 16-03-2008 22:17:01 8.5 C 7.34 g/m*3 8.5 C 0 km/h
3231 16-03-2008 22:29:01 8.5 C 7.43 g/m*3 8.5 C 0 km/h
3232 16-03-2008 22:41:02 8.4 C 7.47 g/m*3 8.4 C 0 km/h
3233 16-03-2008 22:53:02 8.4 C 7.47 g/m*3 8.4 C 0 km/h
3234 16-03-2008 23:06:03 8.4 C 7.47 g/m*3 8.4 C 0 km/h
3235 16-03-2008 23:18:03 8.4 C 7.47 g/m*3 8.4 C 0 km/h
3236 16-03-2008 23:30:03 8.4 C 7.55 g/m*3 8.4 C 0 km/h
3237 16-03-2008 23:42:03 8.4 C 7.55 g/m*3 8.4 C 0 km/h
3238 16-03-2008 23:54:03 8.4 C 7.55 g/m*3 8.4 C 0 km/h
3239 17-03-2008 00:06:03 8.4 C 7.55 g/m*3 8.4 C 0 km/h
3240 17-03-2008 00:18:03 8.4 C 7.55 g/m*3 8.4 C 0 km/h
3241